<?xml version="1.0" encoding="UTF-8" standalone="no" ?>
<gpx xmlns="http://www.topografix.com/GPX/1/1" xmlns:xsi="http://www.w3.org/2001/XMLSchema-instance" xsi:schemaLocation="http://www.topografix.com/GPX/1/1 http://www.topografix.com/GPX/1/1/gpx.xsd" version="1.1" creator="VisuGPX - https://www.visugpx.com">
  <metadata>
    <name>2021-08-12 13:15:41 [Garmin]</name>
  </metadata>
  <trk>
    <name><![CDATA[2021-08-12 13:15:41 [Garmin]_1]]></name>
    <trkseg>
      <trkpt lat="43.83058" lon="5.0336">
        <ele>65.4</ele>
        <time>2021-08-12T11:15:41Z</time>
      </trkpt>
      <trkpt lat="43.83052" lon="5.03366">
        <ele>65.4</ele>
        <time>2021-08-12T11:15:43Z</time>
      </trkpt>
      <trkpt lat="43.83005" lon="5.03403">
        <ele>65.6</ele>
        <time>2021-08-12T11:15:59Z</time>
      </trkpt>
      <trkpt lat="43.82958" lon="5.03447">
        <ele>65.4</ele>
        <time>2021-08-12T11:16:14Z</time>
      </trkpt>
      <trkpt lat="43.82919" lon="5.03479">
        <ele>65.6</ele>
        <time>2021-08-12T11:16:25Z</time>
      </trkpt>
      <trkpt lat="43.82916" lon="5.03483">
        <ele>66.4</ele>
        <time>2021-08-12T11:16:27Z</time>
      </trkpt>
      <trkpt lat="43.82917" lon="5.03489">
        <ele>67.8</ele>
        <time>2021-08-12T11:16:30Z</time>
      </trkpt>
      <trkpt lat="43.82919" lon="5.035">
        <ele>68.8</ele>
        <time>2021-08-12T11:16:34Z</time>
      </trkpt>
      <trkpt lat="43.8292" lon="5.03502">
        <ele>68.8</ele>
        <time>2021-08-12T11:16:35Z</time>
      </trkpt>
      <trkpt lat="43.82926" lon="5.03537">
        <ele>68.4</ele>
        <time>2021-08-12T11:16:43Z</time>
      </trkpt>
      <trkpt lat="43.82938" lon="5.0357">
        <ele>67.6</ele>
        <time>2021-08-12T11:16:48Z</time>
      </trkpt>
      <trkpt lat="43.82952" lon="5.03597">
        <ele>67.4</ele>
        <time>2021-08-12T11:16:53Z</time>
      </trkpt>
      <trkpt lat="43.82956" lon="5.03613">
        <ele>68</ele>
        <time>2021-08-12T11:16:56Z</time>
      </trkpt>
      <trkpt lat="43.82952" lon="5.03622">
        <ele>68.2</ele>
        <time>2021-08-12T11:16:58Z</time>
      </trkpt>
      <trkpt lat="43.82944" lon="5.03626">
        <ele>68</ele>
        <time>2021-08-12T11:17:00Z</time>
      </trkpt>
      <trkpt lat="43.82936" lon="5.03633">
        <ele>67.6</ele>
        <time>2021-08-12T11:17:02Z</time>
      </trkpt>
      <trkpt lat="43.82913" lon="5.0365">
        <ele>66.6</ele>
        <time>2021-08-12T11:17:07Z</time>
      </trkpt>
      <trkpt lat="43.82868" lon="5.03677">
        <ele>66.4</ele>
        <time>2021-08-12T11:17:16Z</time>
      </trkpt>
      <trkpt lat="43.82857" lon="5.03679">
        <ele>66.2</ele>
        <time>2021-08-12T11:17:18Z</time>
      </trkpt>
      <trkpt lat="43.82842" lon="5.03688">
        <ele>65.4</ele>
        <time>2021-08-12T11:17:21Z</time>
      </trkpt>
      <trkpt lat="43.82792" lon="5.03719">
        <ele>65.6</ele>
        <time>2021-08-12T11:17:31Z</time>
      </trkpt>
      <trkpt lat="43.82753" lon="5.03745">
        <ele>66.6</ele>
        <time>2021-08-12T11:17:40Z</time>
      </trkpt>
      <trkpt lat="43.82745" lon="5.03755">
        <ele>66.8</ele>
        <time>2021-08-12T11:17:43Z</time>
      </trkpt>
      <trkpt lat="43.8274" lon="5.03773">
        <ele>67</ele>
        <time>2021-08-12T11:17:46Z</time>
      </trkpt>
      <trkpt lat="43.82742" lon="5.03813">
        <ele>67.2</ele>
        <time>2021-08-12T11:17:52Z</time>
      </trkpt>
      <trkpt lat="43.82746" lon="5.03891">
        <ele>67</ele>
        <time>2021-08-12T11:18:03Z</time>
      </trkpt>
      <trkpt lat="43.82746" lon="5.03966">
        <ele>66.4</ele>
        <time>2021-08-12T11:18:14Z</time>
      </trkpt>
      <trkpt lat="43.82745" lon="5.03973">
        <ele>66.4</ele>
        <time>2021-08-12T11:18:15Z</time>
      </trkpt>
      <trkpt lat="43.8274" lon="5.03983">
        <ele>66.8</ele>
        <time>2021-08-12T11:18:17Z</time>
      </trkpt>
      <trkpt lat="43.82731" lon="5.03989">
        <ele>67</ele>
        <time>2021-08-12T11:18:19Z</time>
      </trkpt>
      <trkpt lat="43.82719" lon="5.03997">
        <ele>67.2</ele>
        <time>2021-08-12T11:18:22Z</time>
      </trkpt>
      <trkpt lat="43.82714" lon="5.04007">
        <ele>67.2</ele>
        <time>2021-08-12T11:18:24Z</time>
      </trkpt>
      <trkpt lat="43.82712" lon="5.04088">
        <ele>67.4</ele>
        <time>2021-08-12T11:18:35Z</time>
      </trkpt>
      <trkpt lat="43.82712" lon="5.04122">
        <ele>67.6</ele>
        <time>2021-08-12T11:18:40Z</time>
      </trkpt>
      <trkpt lat="43.82713" lon="5.04187">
        <ele>67.8</ele>
        <time>2021-08-12T11:18:50Z</time>
      </trkpt>
      <trkpt lat="43.82714" lon="5.04261">
        <ele>68.4</ele>
        <time>2021-08-12T11:19:02Z</time>
      </trkpt>
      <trkpt lat="43.82715" lon="5.04273">
        <ele>68.4</ele>
        <time>2021-08-12T11:19:04Z</time>
      </trkpt>
      <trkpt lat="43.82713" lon="5.04336">
        <ele>68.8</ele>
        <time>2021-08-12T11:19:15Z</time>
      </trkpt>
      <trkpt lat="43.82717" lon="5.04408">
        <ele>69.2</ele>
        <time>2021-08-12T11:19:29Z</time>
      </trkpt>
      <trkpt lat="43.82719" lon="5.0444">
        <ele>69.8</ele>
        <time>2021-08-12T11:19:41Z</time>
      </trkpt>
      <trkpt lat="43.82719" lon="5.04441">
        <ele>69.8</ele>
        <time>2021-08-12T11:19:42Z</time>
      </trkpt>
      <trkpt lat="43.8272" lon="5.04444">
        <ele>69.8</ele>
        <time>2021-08-12T11:19:44Z</time>
      </trkpt>
      <trkpt lat="43.82756" lon="5.04502">
        <ele>69</ele>
        <time>2021-08-12T11:19:59Z</time>
      </trkpt>
      <trkpt lat="43.82769" lon="5.04523">
        <ele>68.8</ele>
        <time>2021-08-12T11:20:03Z</time>
      </trkpt>
      <trkpt lat="43.82791" lon="5.04557">
        <ele>69.4</ele>
        <time>2021-08-12T11:20:10Z</time>
      </trkpt>
      <trkpt lat="43.82803" lon="5.04579">
        <ele>69.4</ele>
        <time>2021-08-12T11:20:16Z</time>
      </trkpt>
      <trkpt lat="43.82803" lon="5.04593">
        <ele>69.2</ele>
        <time>2021-08-12T11:20:19Z</time>
      </trkpt>
      <trkpt lat="43.82797" lon="5.04595">
        <ele>69.2</ele>
        <time>2021-08-12T11:20:21Z</time>
      </trkpt>
      <trkpt lat="43.82752" lon="5.04619">
        <ele>69.8</ele>
        <time>2021-08-12T11:20:35Z</time>
      </trkpt>
      <trkpt lat="43.82739" lon="5.04628">
        <ele>69.6</ele>
        <time>2021-08-12T11:20:39Z</time>
      </trkpt>
      <trkpt lat="43.82731" lon="5.04671">
        <ele>69.4</ele>
        <time>2021-08-12T11:20:47Z</time>
      </trkpt>
      <trkpt lat="43.82718" lon="5.04708">
        <ele>69.8</ele>
        <time>2021-08-12T11:20:54Z</time>
      </trkpt>
      <trkpt lat="43.82717" lon="5.04721">
        <ele>70.2</ele>
        <time>2021-08-12T11:20:56Z</time>
      </trkpt>
      <trkpt lat="43.8272" lon="5.048">
        <ele>70</ele>
        <time>2021-08-12T11:21:08Z</time>
      </trkpt>
      <trkpt lat="43.82723" lon="5.04881">
        <ele>70.2</ele>
        <time>2021-08-12T11:21:20Z</time>
      </trkpt>
      <trkpt lat="43.8272" lon="5.04943">
        <ele>70.8</ele>
        <time>2021-08-12T11:21:29Z</time>
      </trkpt>
      <trkpt lat="43.82711" lon="5.0502">
        <ele>70.6</ele>
        <time>2021-08-12T11:21:40Z</time>
      </trkpt>
      <trkpt lat="43.82702" lon="5.05095">
        <ele>70.6</ele>
        <time>2021-08-12T11:21:51Z</time>
      </trkpt>
      <trkpt lat="43.82684" lon="5.05166">
        <ele>70.6</ele>
        <time>2021-08-12T11:22:02Z</time>
      </trkpt>
      <trkpt lat="43.82672" lon="5.05196">
        <ele>70.8</ele>
        <time>2021-08-12T11:22:07Z</time>
      </trkpt>
      <trkpt lat="43.82652" lon="5.05228">
        <ele>71</ele>
        <time>2021-08-12T11:22:13Z</time>
      </trkpt>
      <trkpt lat="43.8263" lon="5.05253">
        <ele>70.8</ele>
        <time>2021-08-12T11:22:19Z</time>
      </trkpt>
      <trkpt lat="43.8258" lon="5.05295">
        <ele>71.2</ele>
        <time>2021-08-12T11:22:30Z</time>
      </trkpt>
      <trkpt lat="43.82532" lon="5.05331">
        <ele>71.6</ele>
        <time>2021-08-12T11:22:41Z</time>
      </trkpt>
      <trkpt lat="43.82523" lon="5.05336">
        <ele>71.8</ele>
        <time>2021-08-12T11:22:43Z</time>
      </trkpt>
      <trkpt lat="43.8252" lon="5.0534">
        <ele>72</ele>
        <time>2021-08-12T11:22:44Z</time>
      </trkpt>
      <trkpt lat="43.82514" lon="5.05349">
        <ele>72</ele>
        <time>2021-08-12T11:22:46Z</time>
      </trkpt>
      <trkpt lat="43.82511" lon="5.05361">
        <ele>72.2</ele>
        <time>2021-08-12T11:22:48Z</time>
      </trkpt>
      <trkpt lat="43.82512" lon="5.05374">
        <ele>72.4</ele>
        <time>2021-08-12T11:22:50Z</time>
      </trkpt>
      <trkpt lat="43.82518" lon="5.0539">
        <ele>72.8</ele>
        <time>2021-08-12T11:22:53Z</time>
      </trkpt>
      <trkpt lat="43.82521" lon="5.05394">
        <ele>73</ele>
        <time>2021-08-12T11:22:54Z</time>
      </trkpt>
      <trkpt lat="43.82524" lon="5.05398">
        <ele>73.2</ele>
        <time>2021-08-12T11:22:55Z</time>
      </trkpt>
      <trkpt lat="43.82533" lon="5.05403">
        <ele>73.4</ele>
        <time>2021-08-12T11:22:57Z</time>
      </trkpt>
      <trkpt lat="43.82565" lon="5.05408">
        <ele>72.4</ele>
        <time>2021-08-12T11:23:03Z</time>
      </trkpt>
      <trkpt lat="43.82576" lon="5.05413">
        <ele>71.8</ele>
        <time>2021-08-12T11:23:05Z</time>
      </trkpt>
      <trkpt lat="43.82586" lon="5.05422">
        <ele>71.6</ele>
        <time>2021-08-12T11:23:07Z</time>
      </trkpt>
      <trkpt lat="43.82594" lon="5.05434">
        <ele>71.4</ele>
        <time>2021-08-12T11:23:09Z</time>
      </trkpt>
      <trkpt lat="43.82617" lon="5.05509">
        <ele>71.6</ele>
        <time>2021-08-12T11:23:19Z</time>
      </trkpt>
      <trkpt lat="43.82636" lon="5.05584">
        <ele>72</ele>
        <time>2021-08-12T11:23:29Z</time>
      </trkpt>
      <trkpt lat="43.82655" lon="5.05655">
        <ele>71.8</ele>
        <time>2021-08-12T11:23:39Z</time>
      </trkpt>
      <trkpt lat="43.82677" lon="5.05731">
        <ele>72</ele>
        <time>2021-08-12T11:23:50Z</time>
      </trkpt>
      <trkpt lat="43.82694" lon="5.05792">
        <ele>72.8</ele>
        <time>2021-08-12T11:23:59Z</time>
      </trkpt>
      <trkpt lat="43.82694" lon="5.05805">
        <ele>73</ele>
        <time>2021-08-12T11:24:01Z</time>
      </trkpt>
      <trkpt lat="43.8269" lon="5.05817">
        <ele>73</ele>
        <time>2021-08-12T11:24:03Z</time>
      </trkpt>
      <trkpt lat="43.82682" lon="5.05825">
        <ele>73</ele>
        <time>2021-08-12T11:24:05Z</time>
      </trkpt>
      <trkpt lat="43.82673" lon="5.05829">
        <ele>72.8</ele>
        <time>2021-08-12T11:24:07Z</time>
      </trkpt>
      <trkpt lat="43.82661" lon="5.05839">
        <ele>73</ele>
        <time>2021-08-12T11:24:10Z</time>
      </trkpt>
      <trkpt lat="43.82645" lon="5.05852">
        <ele>73.2</ele>
        <time>2021-08-12T11:24:16Z</time>
      </trkpt>
      <trkpt lat="43.82646" lon="5.05859">
        <ele>73.6</ele>
        <time>2021-08-12T11:24:20Z</time>
      </trkpt>
      <trkpt lat="43.82647" lon="5.05866">
        <ele>73.6</ele>
        <time>2021-08-12T11:24:22Z</time>
      </trkpt>
      <trkpt lat="43.82616" lon="5.05899">
        <ele>73</ele>
        <time>2021-08-12T11:24:33Z</time>
      </trkpt>
      <trkpt lat="43.82587" lon="5.05962">
        <ele>73.4</ele>
        <time>2021-08-12T11:24:47Z</time>
      </trkpt>
      <trkpt lat="43.82588" lon="5.05974">
        <ele>73.6</ele>
        <time>2021-08-12T11:24:49Z</time>
      </trkpt>
      <trkpt lat="43.82591" lon="5.05985">
        <ele>73.8</ele>
        <time>2021-08-12T11:24:51Z</time>
      </trkpt>
      <trkpt lat="43.82594" lon="5.05995">
        <ele>74</ele>
        <time>2021-08-12T11:24:53Z</time>
      </trkpt>
      <trkpt lat="43.82598" lon="5.06006">
        <ele>74.2</ele>
        <time>2021-08-12T11:24:55Z</time>
      </trkpt>
      <trkpt lat="43.82629" lon="5.06073">
        <ele>74.6</ele>
        <time>2021-08-12T11:25:09Z</time>
      </trkpt>
      <trkpt lat="43.82657" lon="5.0612">
        <ele>75</ele>
        <time>2021-08-12T11:25:21Z</time>
      </trkpt>
      <trkpt lat="43.82672" lon="5.06154">
        <ele>75.8</ele>
        <time>2021-08-12T11:25:31Z</time>
      </trkpt>
      <trkpt lat="43.82672" lon="5.06165">
        <ele>75.8</ele>
        <time>2021-08-12T11:25:34Z</time>
      </trkpt>
      <trkpt lat="43.82678" lon="5.06192">
        <ele>75.2</ele>
        <time>2021-08-12T11:25:38Z</time>
      </trkpt>
      <trkpt lat="43.82685" lon="5.06208">
        <ele>75.4</ele>
        <time>2021-08-12T11:25:41Z</time>
      </trkpt>
      <trkpt lat="43.82685" lon="5.06221">
        <ele>75.6</ele>
        <time>2021-08-12T11:25:43Z</time>
      </trkpt>
      <trkpt lat="43.82659" lon="5.06291">
        <ele>75.8</ele>
        <time>2021-08-12T11:25:55Z</time>
      </trkpt>
      <trkpt lat="43.82657" lon="5.06296">
        <ele>76</ele>
        <time>2021-08-12T11:25:56Z</time>
      </trkpt>
      <trkpt lat="43.82628" lon="5.06362">
        <ele>76.6</ele>
        <time>2021-08-12T11:26:08Z</time>
      </trkpt>
      <trkpt lat="43.82597" lon="5.06424">
        <ele>76.6</ele>
        <time>2021-08-12T11:26:19Z</time>
      </trkpt>
      <trkpt lat="43.82563" lon="5.06487">
        <ele>77</ele>
        <time>2021-08-12T11:26:30Z</time>
      </trkpt>
      <trkpt lat="43.82557" lon="5.06498">
        <ele>77.2</ele>
        <time>2021-08-12T11:26:32Z</time>
      </trkpt>
      <trkpt lat="43.82526" lon="5.0656">
        <ele>77.6</ele>
        <time>2021-08-12T11:26:43Z</time>
      </trkpt>
      <trkpt lat="43.82499" lon="5.06614">
        <ele>78.4</ele>
        <time>2021-08-12T11:26:53Z</time>
      </trkpt>
      <trkpt lat="43.82488" lon="5.06635">
        <ele>79.4</ele>
        <time>2021-08-12T11:26:57Z</time>
      </trkpt>
      <trkpt lat="43.82456" lon="5.06699">
        <ele>79.4</ele>
        <time>2021-08-12T11:27:09Z</time>
      </trkpt>
      <trkpt lat="43.82426" lon="5.06767">
        <ele>80</ele>
        <time>2021-08-12T11:27:21Z</time>
      </trkpt>
      <trkpt lat="43.82414" lon="5.06795">
        <ele>80.6</ele>
        <time>2021-08-12T11:27:26Z</time>
      </trkpt>
      <trkpt lat="43.82398" lon="5.06834">
        <ele>81.6</ele>
        <time>2021-08-12T11:27:33Z</time>
      </trkpt>
      <trkpt lat="43.82372" lon="5.06902">
        <ele>82</ele>
        <time>2021-08-12T11:27:45Z</time>
      </trkpt>
      <trkpt lat="43.8236" lon="5.06935">
        <ele>82.2</ele>
        <time>2021-08-12T11:27:51Z</time>
      </trkpt>
      <trkpt lat="43.82336" lon="5.07008">
        <ele>82.6</ele>
        <time>2021-08-12T11:28:04Z</time>
      </trkpt>
      <trkpt lat="43.82329" lon="5.07034">
        <ele>83.4</ele>
        <time>2021-08-12T11:28:09Z</time>
      </trkpt>
      <trkpt lat="43.82327" lon="5.07039">
        <ele>83.6</ele>
        <time>2021-08-12T11:28:10Z</time>
      </trkpt>
      <trkpt lat="43.82303" lon="5.07112">
        <ele>84.2</ele>
        <time>2021-08-12T11:28:23Z</time>
      </trkpt>
      <trkpt lat="43.82291" lon="5.07152">
        <ele>84.6</ele>
        <time>2021-08-12T11:28:30Z</time>
      </trkpt>
      <trkpt lat="43.82268" lon="5.0722">
        <ele>85.2</ele>
        <time>2021-08-12T11:28:42Z</time>
      </trkpt>
      <trkpt lat="43.82256" lon="5.07259">
        <ele>85.8</ele>
        <time>2021-08-12T11:28:49Z</time>
      </trkpt>
      <trkpt lat="43.82243" lon="5.07299">
        <ele>86.8</ele>
        <time>2021-08-12T11:28:56Z</time>
      </trkpt>
      <trkpt lat="43.82239" lon="5.0731">
        <ele>86.8</ele>
        <time>2021-08-12T11:28:58Z</time>
      </trkpt>
      <trkpt lat="43.82218" lon="5.0738">
        <ele>87.8</ele>
        <time>2021-08-12T11:29:10Z</time>
      </trkpt>
      <trkpt lat="43.82196" lon="5.07452">
        <ele>88.4</ele>
        <time>2021-08-12T11:29:22Z</time>
      </trkpt>
      <trkpt lat="43.82173" lon="5.07525">
        <ele>88.4</ele>
        <time>2021-08-12T11:29:34Z</time>
      </trkpt>
      <trkpt lat="43.8216" lon="5.07566">
        <ele>88.8</ele>
        <time>2021-08-12T11:29:41Z</time>
      </trkpt>
      <trkpt lat="43.82138" lon="5.07635">
        <ele>89.6</ele>
        <time>2021-08-12T11:29:53Z</time>
      </trkpt>
      <trkpt lat="43.82128" lon="5.0767">
        <ele>90</ele>
        <time>2021-08-12T11:29:59Z</time>
      </trkpt>
      <trkpt lat="43.82123" lon="5.07687">
        <ele>90.2</ele>
        <time>2021-08-12T11:30:02Z</time>
      </trkpt>
      <trkpt lat="43.82106" lon="5.07752">
        <ele>91</ele>
        <time>2021-08-12T11:30:14Z</time>
      </trkpt>
      <trkpt lat="43.8209" lon="5.07813">
        <ele>92</ele>
        <time>2021-08-12T11:30:25Z</time>
      </trkpt>
      <trkpt lat="43.82075" lon="5.07869">
        <ele>93</ele>
        <time>2021-08-12T11:30:35Z</time>
      </trkpt>
      <trkpt lat="43.82062" lon="5.07917">
        <ele>94</ele>
        <time>2021-08-12T11:30:44Z</time>
      </trkpt>
      <trkpt lat="43.82059" lon="5.07928">
        <ele>94.2</ele>
        <time>2021-08-12T11:30:46Z</time>
      </trkpt>
      <trkpt lat="43.82039" lon="5.08">
        <ele>95</ele>
        <time>2021-08-12T11:31:00Z</time>
      </trkpt>
      <trkpt lat="43.82035" lon="5.08015">
        <ele>95.2</ele>
        <time>2021-08-12T11:31:03Z</time>
      </trkpt>
      <trkpt lat="43.82019" lon="5.08084">
        <ele>96.2</ele>
        <time>2021-08-12T11:31:17Z</time>
      </trkpt>
      <trkpt lat="43.82021" lon="5.0815">
        <ele>97</ele>
        <time>2021-08-12T11:31:29Z</time>
      </trkpt>
      <trkpt lat="43.82021" lon="5.08167">
        <ele>97.2</ele>
        <time>2021-08-12T11:31:32Z</time>
      </trkpt>
      <trkpt lat="43.82019" lon="5.08178">
        <ele>97.2</ele>
        <time>2021-08-12T11:31:34Z</time>
      </trkpt>
      <trkpt lat="43.82014" lon="5.08187">
        <ele>97.2</ele>
        <time>2021-08-12T11:31:36Z</time>
      </trkpt>
      <trkpt lat="43.81999" lon="5.08222">
        <ele>97.4</ele>
        <time>2021-08-12T11:31:44Z</time>
      </trkpt>
      <trkpt lat="43.81996" lon="5.08238">
        <ele>97.6</ele>
        <time>2021-08-12T11:31:47Z</time>
      </trkpt>
      <trkpt lat="43.81981" lon="5.08313">
        <ele>97.8</ele>
        <time>2021-08-12T11:32:01Z</time>
      </trkpt>
      <trkpt lat="43.81974" lon="5.08344">
        <ele>98.6</ele>
        <time>2021-08-12T11:32:07Z</time>
      </trkpt>
      <trkpt lat="43.81958" lon="5.08419">
        <ele>99.2</ele>
        <time>2021-08-12T11:32:22Z</time>
      </trkpt>
      <trkpt lat="43.81955" lon="5.08433">
        <ele>99.6</ele>
        <time>2021-08-12T11:32:25Z</time>
      </trkpt>
      <trkpt lat="43.81947" lon="5.08466">
        <ele>100.6</ele>
        <time>2021-08-12T11:32:32Z</time>
      </trkpt>
      <trkpt lat="43.81944" lon="5.0853">
        <ele>101.8</ele>
        <time>2021-08-12T11:32:45Z</time>
      </trkpt>
      <trkpt lat="43.81936" lon="5.08573">
        <ele>102.8</ele>
        <time>2021-08-12T11:32:54Z</time>
      </trkpt>
      <trkpt lat="43.81937" lon="5.0861">
        <ele>103.8</ele>
        <time>2021-08-12T11:33:03Z</time>
      </trkpt>
      <trkpt lat="43.81943" lon="5.08668">
        <ele>104.8</ele>
        <time>2021-08-12T11:33:15Z</time>
      </trkpt>
      <trkpt lat="43.81955" lon="5.08735">
        <ele>105.8</ele>
        <time>2021-08-12T11:33:30Z</time>
      </trkpt>
      <trkpt lat="43.81956" lon="5.08787">
        <ele>107</ele>
        <time>2021-08-12T11:33:44Z</time>
      </trkpt>
      <trkpt lat="43.81951" lon="5.08788">
        <ele>108.2</ele>
        <time>2021-08-12T11:33:48Z</time>
      </trkpt>
      <trkpt lat="43.81949" lon="5.08789">
        <ele>108.4</ele>
        <time>2021-08-12T11:33:49Z</time>
      </trkpt>
      <trkpt lat="43.81941" lon="5.08788">
        <ele>109.4</ele>
        <time>2021-08-12T11:33:54Z</time>
      </trkpt>
      <trkpt lat="43.81921" lon="5.08779">
        <ele>110.4</ele>
        <time>2021-08-12T11:34:06Z</time>
      </trkpt>
      <trkpt lat="43.8191" lon="5.08766">
        <ele>111.4</ele>
        <time>2021-08-12T11:34:15Z</time>
      </trkpt>
      <trkpt lat="43.81902" lon="5.08755">
        <ele>112.6</ele>
        <time>2021-08-12T11:34:22Z</time>
      </trkpt>
      <trkpt lat="43.81897" lon="5.08747">
        <ele>113.6</ele>
        <time>2021-08-12T11:34:27Z</time>
      </trkpt>
      <trkpt lat="43.81889" lon="5.08733">
        <ele>114.8</ele>
        <time>2021-08-12T11:34:35Z</time>
      </trkpt>
      <trkpt lat="43.81881" lon="5.08725">
        <ele>116</ele>
        <time>2021-08-12T11:34:42Z</time>
      </trkpt>
      <trkpt lat="43.81867" lon="5.08713">
        <ele>117</ele>
        <time>2021-08-12T11:34:54Z</time>
      </trkpt>
      <trkpt lat="43.81857" lon="5.0871">
        <ele>118</ele>
        <time>2021-08-12T11:35:01Z</time>
      </trkpt>
      <trkpt lat="43.81846" lon="5.08708">
        <ele>119.2</ele>
        <time>2021-08-12T11:35:09Z</time>
      </trkpt>
      <trkpt lat="43.81838" lon="5.08706">
        <ele>120.2</ele>
        <time>2021-08-12T11:35:14Z</time>
      </trkpt>
      <trkpt lat="43.81822" lon="5.08703">
        <ele>121.2</ele>
        <time>2021-08-12T11:35:25Z</time>
      </trkpt>
      <trkpt lat="43.81809" lon="5.08704">
        <ele>122.2</ele>
        <time>2021-08-12T11:35:34Z</time>
      </trkpt>
      <trkpt lat="43.818" lon="5.08706">
        <ele>123.4</ele>
        <time>2021-08-12T11:35:40Z</time>
      </trkpt>
      <trkpt lat="43.81793" lon="5.08707">
        <ele>124.6</ele>
        <time>2021-08-12T11:35:45Z</time>
      </trkpt>
      <trkpt lat="43.81784" lon="5.08708">
        <ele>125.6</ele>
        <time>2021-08-12T11:35:51Z</time>
      </trkpt>
      <trkpt lat="43.81769" lon="5.08711">
        <ele>126.6</ele>
        <time>2021-08-12T11:36:01Z</time>
      </trkpt>
      <trkpt lat="43.81757" lon="5.08715">
        <ele>127.6</ele>
        <time>2021-08-12T11:36:09Z</time>
      </trkpt>
      <trkpt lat="43.81747" lon="5.08715">
        <ele>128.8</ele>
        <time>2021-08-12T11:36:16Z</time>
      </trkpt>
      <trkpt lat="43.81735" lon="5.087">
        <ele>129.8</ele>
        <time>2021-08-12T11:36:26Z</time>
      </trkpt>
      <trkpt lat="43.81727" lon="5.08692">
        <ele>130.6</ele>
        <time>2021-08-12T11:36:32Z</time>
      </trkpt>
      <trkpt lat="43.81722" lon="5.08688">
        <ele>130.8</ele>
        <time>2021-08-12T11:36:36Z</time>
      </trkpt>
      <trkpt lat="43.81702" lon="5.08692">
        <ele>132</ele>
        <time>2021-08-12T11:36:50Z</time>
      </trkpt>
      <trkpt lat="43.81693" lon="5.08694">
        <ele>133.2</ele>
        <time>2021-08-12T11:36:57Z</time>
      </trkpt>
      <trkpt lat="43.81683" lon="5.08688">
        <ele>134.2</ele>
        <time>2021-08-12T11:37:04Z</time>
      </trkpt>
      <trkpt lat="43.81679" lon="5.08682">
        <ele>134.6</ele>
        <time>2021-08-12T11:37:08Z</time>
      </trkpt>
      <trkpt lat="43.81673" lon="5.08677">
        <ele>135.2</ele>
        <time>2021-08-12T11:37:12Z</time>
      </trkpt>
      <trkpt lat="43.81659" lon="5.08673">
        <ele>136.2</ele>
        <time>2021-08-12T11:37:22Z</time>
      </trkpt>
      <trkpt lat="43.81651" lon="5.08673">
        <ele>137.4</ele>
        <time>2021-08-12T11:37:27Z</time>
      </trkpt>
      <trkpt lat="43.81642" lon="5.08673">
        <ele>138.4</ele>
        <time>2021-08-12T11:37:33Z</time>
      </trkpt>
      <trkpt lat="43.81626" lon="5.08678">
        <ele>139.8</ele>
        <time>2021-08-12T11:37:44Z</time>
      </trkpt>
      <trkpt lat="43.8162" lon="5.08681">
        <ele>140.8</ele>
        <time>2021-08-12T11:37:48Z</time>
      </trkpt>
      <trkpt lat="43.81613" lon="5.08687">
        <ele>141.8</ele>
        <time>2021-08-12T11:37:54Z</time>
      </trkpt>
      <trkpt lat="43.81601" lon="5.08696">
        <ele>143</ele>
        <time>2021-08-12T11:38:03Z</time>
      </trkpt>
      <trkpt lat="43.81591" lon="5.08702">
        <ele>144</ele>
        <time>2021-08-12T11:38:10Z</time>
      </trkpt>
      <trkpt lat="43.81582" lon="5.08705">
        <ele>145</ele>
        <time>2021-08-12T11:38:16Z</time>
      </trkpt>
      <trkpt lat="43.81565" lon="5.08712">
        <ele>146</ele>
        <time>2021-08-12T11:38:26Z</time>
      </trkpt>
      <trkpt lat="43.81556" lon="5.08728">
        <ele>147</ele>
        <time>2021-08-12T11:38:35Z</time>
      </trkpt>
      <trkpt lat="43.81553" lon="5.08743">
        <ele>148.2</ele>
        <time>2021-08-12T11:38:42Z</time>
      </trkpt>
      <trkpt lat="43.81552" lon="5.08766">
        <ele>149.2</ele>
        <time>2021-08-12T11:38:53Z</time>
      </trkpt>
      <trkpt lat="43.81552" lon="5.08783">
        <ele>150.4</ele>
        <time>2021-08-12T11:39:01Z</time>
      </trkpt>
      <trkpt lat="43.81552" lon="5.08796">
        <ele>151.4</ele>
        <time>2021-08-12T11:39:08Z</time>
      </trkpt>
      <trkpt lat="43.81554" lon="5.08806">
        <ele>152.4</ele>
        <time>2021-08-12T11:39:14Z</time>
      </trkpt>
      <trkpt lat="43.81557" lon="5.08818">
        <ele>153.6</ele>
        <time>2021-08-12T11:39:21Z</time>
      </trkpt>
      <trkpt lat="43.8156" lon="5.08827">
        <ele>154.6</ele>
        <time>2021-08-12T11:39:27Z</time>
      </trkpt>
      <trkpt lat="43.81565" lon="5.08837">
        <ele>155.6</ele>
        <time>2021-08-12T11:39:34Z</time>
      </trkpt>
      <trkpt lat="43.81569" lon="5.08847">
        <ele>156.6</ele>
        <time>2021-08-12T11:39:41Z</time>
      </trkpt>
      <trkpt lat="43.81571" lon="5.08851">
        <ele>157</ele>
        <time>2021-08-12T11:39:44Z</time>
      </trkpt>
      <trkpt lat="43.81574" lon="5.08856">
        <ele>157.8</ele>
        <time>2021-08-12T11:39:48Z</time>
      </trkpt>
      <trkpt lat="43.81579" lon="5.0887">
        <ele>159</ele>
        <time>2021-08-12T11:39:57Z</time>
      </trkpt>
      <trkpt lat="43.81585" lon="5.0888">
        <ele>160</ele>
        <time>2021-08-12T11:40:05Z</time>
      </trkpt>
      <trkpt lat="43.81591" lon="5.08892">
        <ele>161.2</ele>
        <time>2021-08-12T11:40:14Z</time>
      </trkpt>
      <trkpt lat="43.81597" lon="5.08904">
        <ele>162.2</ele>
        <time>2021-08-12T11:40:23Z</time>
      </trkpt>
      <trkpt lat="43.81604" lon="5.08917">
        <ele>163.4</ele>
        <time>2021-08-12T11:40:32Z</time>
      </trkpt>
      <trkpt lat="43.81614" lon="5.08931">
        <ele>164.6</ele>
        <time>2021-08-12T11:40:43Z</time>
      </trkpt>
      <trkpt lat="43.81621" lon="5.08942">
        <ele>165.6</ele>
        <time>2021-08-12T11:40:52Z</time>
      </trkpt>
      <trkpt lat="43.81627" lon="5.08951">
        <ele>166.6</ele>
        <time>2021-08-12T11:41:00Z</time>
      </trkpt>
      <trkpt lat="43.81635" lon="5.08962">
        <ele>167.8</ele>
        <time>2021-08-12T11:41:09Z</time>
      </trkpt>
      <trkpt lat="43.81642" lon="5.08971">
        <ele>168.8</ele>
        <time>2021-08-12T11:41:17Z</time>
      </trkpt>
      <trkpt lat="43.81648" lon="5.08982">
        <ele>170</ele>
        <time>2021-08-12T11:41:25Z</time>
      </trkpt>
      <trkpt lat="43.81658" lon="5.08998">
        <ele>171</ele>
        <time>2021-08-12T11:41:36Z</time>
      </trkpt>
      <trkpt lat="43.81662" lon="5.09024">
        <ele>172</ele>
        <time>2021-08-12T11:41:48Z</time>
      </trkpt>
      <trkpt lat="43.81664" lon="5.09047">
        <ele>172.6</ele>
        <time>2021-08-12T11:41:57Z</time>
      </trkpt>
      <trkpt lat="43.81665" lon="5.09055">
        <ele>173</ele>
        <time>2021-08-12T11:42:00Z</time>
      </trkpt>
      <trkpt lat="43.81668" lon="5.09087">
        <ele>174</ele>
        <time>2021-08-12T11:42:12Z</time>
      </trkpt>
      <trkpt lat="43.81667" lon="5.09114">
        <ele>175</ele>
        <time>2021-08-12T11:42:22Z</time>
      </trkpt>
      <trkpt lat="43.81617" lon="5.09113">
        <ele>175.6</ele>
        <time>2021-08-12T11:42:44Z</time>
      </trkpt>
      <trkpt lat="43.81608" lon="5.09114">
        <ele>176.2</ele>
        <time>2021-08-12T11:42:48Z</time>
      </trkpt>
      <trkpt lat="43.81596" lon="5.09117">
        <ele>177.2</ele>
        <time>2021-08-12T11:42:54Z</time>
      </trkpt>
      <trkpt lat="43.81582" lon="5.09121">
        <ele>178.2</ele>
        <time>2021-08-12T11:43:02Z</time>
      </trkpt>
      <trkpt lat="43.81573" lon="5.09123">
        <ele>179.4</ele>
        <time>2021-08-12T11:43:08Z</time>
      </trkpt>
      <trkpt lat="43.81561" lon="5.09125">
        <ele>180.4</ele>
        <time>2021-08-12T11:43:16Z</time>
      </trkpt>
      <trkpt lat="43.81552" lon="5.09127">
        <ele>181.6</ele>
        <time>2021-08-12T11:43:22Z</time>
      </trkpt>
      <trkpt lat="43.8154" lon="5.09133">
        <ele>182.6</ele>
        <time>2021-08-12T11:43:30Z</time>
      </trkpt>
      <trkpt lat="43.81532" lon="5.09136">
        <ele>183.6</ele>
        <time>2021-08-12T11:43:36Z</time>
      </trkpt>
      <trkpt lat="43.81516" lon="5.09134">
        <ele>184.8</ele>
        <time>2021-08-12T11:43:46Z</time>
      </trkpt>
      <trkpt lat="43.81504" lon="5.09133">
        <ele>185.8</ele>
        <time>2021-08-12T11:43:54Z</time>
      </trkpt>
      <trkpt lat="43.81494" lon="5.09135">
        <ele>186.8</ele>
        <time>2021-08-12T11:44:01Z</time>
      </trkpt>
      <trkpt lat="43.8148" lon="5.09143">
        <ele>188</ele>
        <time>2021-08-12T11:44:10Z</time>
      </trkpt>
      <trkpt lat="43.81467" lon="5.09149">
        <ele>189</ele>
        <time>2021-08-12T11:44:18Z</time>
      </trkpt>
      <trkpt lat="43.81453" lon="5.09153">
        <ele>190</ele>
        <time>2021-08-12T11:44:27Z</time>
      </trkpt>
      <trkpt lat="43.81441" lon="5.09158">
        <ele>191</ele>
        <time>2021-08-12T11:44:35Z</time>
      </trkpt>
      <trkpt lat="43.81427" lon="5.09166">
        <ele>192.2</ele>
        <time>2021-08-12T11:44:45Z</time>
      </trkpt>
      <trkpt lat="43.81415" lon="5.09172">
        <ele>193.2</ele>
        <time>2021-08-12T11:44:53Z</time>
      </trkpt>
      <trkpt lat="43.81402" lon="5.09176">
        <ele>194.4</ele>
        <time>2021-08-12T11:45:02Z</time>
      </trkpt>
      <trkpt lat="43.81393" lon="5.0918">
        <ele>195.4</ele>
        <time>2021-08-12T11:45:08Z</time>
      </trkpt>
      <trkpt lat="43.81376" lon="5.09186">
        <ele>196.4</ele>
        <time>2021-08-12T11:45:19Z</time>
      </trkpt>
      <trkpt lat="43.81366" lon="5.09204">
        <ele>197.4</ele>
        <time>2021-08-12T11:45:30Z</time>
      </trkpt>
      <trkpt lat="43.81368" lon="5.09216">
        <ele>198.6</ele>
        <time>2021-08-12T11:45:36Z</time>
      </trkpt>
      <trkpt lat="43.81378" lon="5.09233">
        <ele>199.6</ele>
        <time>2021-08-12T11:45:47Z</time>
      </trkpt>
      <trkpt lat="43.81388" lon="5.09245">
        <ele>200.6</ele>
        <time>2021-08-12T11:45:56Z</time>
      </trkpt>
      <trkpt lat="43.81396" lon="5.09258">
        <ele>201.8</ele>
        <time>2021-08-12T11:46:04Z</time>
      </trkpt>
      <trkpt lat="43.81404" lon="5.09271">
        <ele>203</ele>
        <time>2021-08-12T11:46:12Z</time>
      </trkpt>
      <trkpt lat="43.81411" lon="5.09284">
        <ele>204</ele>
        <time>2021-08-12T11:46:20Z</time>
      </trkpt>
      <trkpt lat="43.81421" lon="5.09303">
        <ele>205.2</ele>
        <time>2021-08-12T11:46:30Z</time>
      </trkpt>
      <trkpt lat="43.81428" lon="5.09324">
        <ele>206.2</ele>
        <time>2021-08-12T11:46:41Z</time>
      </trkpt>
      <trkpt lat="43.81433" lon="5.09338">
        <ele>207.4</ele>
        <time>2021-08-12T11:46:49Z</time>
      </trkpt>
      <trkpt lat="43.81436" lon="5.09352">
        <ele>208.4</ele>
        <time>2021-08-12T11:46:56Z</time>
      </trkpt>
      <trkpt lat="43.81437" lon="5.09371">
        <ele>209.6</ele>
        <time>2021-08-12T11:47:05Z</time>
      </trkpt>
      <trkpt lat="43.81439" lon="5.09391">
        <ele>210.6</ele>
        <time>2021-08-12T11:47:14Z</time>
      </trkpt>
      <trkpt lat="43.81439" lon="5.09414">
        <ele>211.6</ele>
        <time>2021-08-12T11:47:25Z</time>
      </trkpt>
      <trkpt lat="43.81436" lon="5.09438">
        <ele>212.8</ele>
        <time>2021-08-12T11:47:36Z</time>
      </trkpt>
      <trkpt lat="43.81426" lon="5.09465">
        <ele>213.8</ele>
        <time>2021-08-12T11:47:49Z</time>
      </trkpt>
      <trkpt lat="43.81418" lon="5.0948">
        <ele>214.8</ele>
        <time>2021-08-12T11:47:58Z</time>
      </trkpt>
      <trkpt lat="43.81412" lon="5.09489">
        <ele>215.8</ele>
        <time>2021-08-12T11:48:04Z</time>
      </trkpt>
      <trkpt lat="43.81396" lon="5.09503">
        <ele>217</ele>
        <time>2021-08-12T11:48:16Z</time>
      </trkpt>
      <trkpt lat="43.81387" lon="5.09511">
        <ele>218</ele>
        <time>2021-08-12T11:48:23Z</time>
      </trkpt>
      <trkpt lat="43.8138" lon="5.09516">
        <ele>219</ele>
        <time>2021-08-12T11:48:29Z</time>
      </trkpt>
      <trkpt lat="43.81371" lon="5.09523">
        <ele>220.2</ele>
        <time>2021-08-12T11:48:36Z</time>
      </trkpt>
      <trkpt lat="43.8136" lon="5.09532">
        <ele>221.2</ele>
        <time>2021-08-12T11:48:45Z</time>
      </trkpt>
      <trkpt lat="43.8135" lon="5.0954">
        <ele>222.2</ele>
        <time>2021-08-12T11:48:53Z</time>
      </trkpt>
      <trkpt lat="43.81346" lon="5.09544">
        <ele>223.4</ele>
        <time>2021-08-12T11:48:56Z</time>
      </trkpt>
      <trkpt lat="43.81342" lon="5.09549">
        <ele>223.8</ele>
        <time>2021-08-12T11:49:00Z</time>
      </trkpt>
      <trkpt lat="43.81331" lon="5.09561">
        <ele>224.4</ele>
        <time>2021-08-12T11:49:09Z</time>
      </trkpt>
      <trkpt lat="43.81325" lon="5.09572">
        <ele>225.6</ele>
        <time>2021-08-12T11:49:16Z</time>
      </trkpt>
      <trkpt lat="43.81321" lon="5.09583">
        <ele>226.6</ele>
        <time>2021-08-12T11:49:23Z</time>
      </trkpt>
      <trkpt lat="43.81318" lon="5.09594">
        <ele>227.6</ele>
        <time>2021-08-12T11:49:30Z</time>
      </trkpt>
      <trkpt lat="43.81316" lon="5.09607">
        <ele>228.6</ele>
        <time>2021-08-12T11:49:38Z</time>
      </trkpt>
      <trkpt lat="43.81312" lon="5.09618">
        <ele>229.8</ele>
        <time>2021-08-12T11:49:46Z</time>
      </trkpt>
      <trkpt lat="43.81309" lon="5.09627">
        <ele>230.8</ele>
        <time>2021-08-12T11:49:52Z</time>
      </trkpt>
      <trkpt lat="43.81302" lon="5.09641">
        <ele>232</ele>
        <time>2021-08-12T11:50:02Z</time>
      </trkpt>
      <trkpt lat="43.81293" lon="5.0965">
        <ele>233</ele>
        <time>2021-08-12T11:50:11Z</time>
      </trkpt>
      <trkpt lat="43.81289" lon="5.09652">
        <ele>233.2</ele>
        <time>2021-08-12T11:50:14Z</time>
      </trkpt>
      <trkpt lat="43.81279" lon="5.09663">
        <ele>234</ele>
        <time>2021-08-12T11:50:24Z</time>
      </trkpt>
      <trkpt lat="43.81262" lon="5.09683">
        <ele>235.2</ele>
        <time>2021-08-12T11:50:42Z</time>
      </trkpt>
      <trkpt lat="43.81241" lon="5.09686">
        <ele>236.2</ele>
        <time>2021-08-12T11:50:56Z</time>
      </trkpt>
      <trkpt lat="43.81214" lon="5.09669">
        <ele>237.2</ele>
        <time>2021-08-12T11:51:12Z</time>
      </trkpt>
      <trkpt lat="43.81201" lon="5.09671">
        <ele>238.4</ele>
        <time>2021-08-12T11:51:21Z</time>
      </trkpt>
      <trkpt lat="43.81199" lon="5.09674">
        <ele>238.8</ele>
        <time>2021-08-12T11:51:23Z</time>
      </trkpt>
      <trkpt lat="43.81201" lon="5.0968">
        <ele>239.4</ele>
        <time>2021-08-12T11:51:27Z</time>
      </trkpt>
      <trkpt lat="43.81206" lon="5.09686">
        <ele>240.6</ele>
        <time>2021-08-12T11:51:33Z</time>
      </trkpt>
      <trkpt lat="43.81215" lon="5.0969">
        <ele>241.6</ele>
        <time>2021-08-12T11:51:40Z</time>
      </trkpt>
      <trkpt lat="43.81224" lon="5.09698">
        <ele>242.8</ele>
        <time>2021-08-12T11:51:49Z</time>
      </trkpt>
      <trkpt lat="43.81234" lon="5.09707">
        <ele>243.8</ele>
        <time>2021-08-12T11:51:59Z</time>
      </trkpt>
      <trkpt lat="43.81248" lon="5.0971">
        <ele>244.8</ele>
        <time>2021-08-12T11:52:09Z</time>
      </trkpt>
      <trkpt lat="43.81274" lon="5.09703">
        <ele>245.8</ele>
        <time>2021-08-12T11:52:25Z</time>
      </trkpt>
      <trkpt lat="43.81292" lon="5.09694">
        <ele>246.8</ele>
        <time>2021-08-12T11:52:37Z</time>
      </trkpt>
      <trkpt lat="43.81309" lon="5.09685">
        <ele>248</ele>
        <time>2021-08-12T11:52:49Z</time>
      </trkpt>
      <trkpt lat="43.81316" lon="5.09681">
        <ele>248.6</ele>
        <time>2021-08-12T11:52:55Z</time>
      </trkpt>
      <trkpt lat="43.81322" lon="5.09678">
        <ele>249</ele>
        <time>2021-08-12T11:52:59Z</time>
      </trkpt>
      <trkpt lat="43.8133" lon="5.09673">
        <ele>250</ele>
        <time>2021-08-12T11:53:06Z</time>
      </trkpt>
      <trkpt lat="43.81336" lon="5.09671">
        <ele>250.6</ele>
        <time>2021-08-12T11:53:11Z</time>
      </trkpt>
      <trkpt lat="43.8134" lon="5.09672">
        <ele>251.2</ele>
        <time>2021-08-12T11:53:14Z</time>
      </trkpt>
      <trkpt lat="43.81341" lon="5.09676">
        <ele>251.4</ele>
        <time>2021-08-12T11:53:17Z</time>
      </trkpt>
      <trkpt lat="43.8134" lon="5.09685">
        <ele>252.4</ele>
        <time>2021-08-12T11:53:22Z</time>
      </trkpt>
      <trkpt lat="43.81334" lon="5.09696">
        <ele>253.4</ele>
        <time>2021-08-12T11:53:30Z</time>
      </trkpt>
      <trkpt lat="43.81324" lon="5.09706">
        <ele>254.6</ele>
        <time>2021-08-12T11:53:40Z</time>
      </trkpt>
      <trkpt lat="43.81316" lon="5.09715">
        <ele>255.8</ele>
        <time>2021-08-12T11:53:48Z</time>
      </trkpt>
      <trkpt lat="43.813" lon="5.09729">
        <ele>256.8</ele>
        <time>2021-08-12T11:54:03Z</time>
      </trkpt>
      <trkpt lat="43.81287" lon="5.09742">
        <ele>257.8</ele>
        <time>2021-08-12T11:54:16Z</time>
      </trkpt>
      <trkpt lat="43.81275" lon="5.09753">
        <ele>259</ele>
        <time>2021-08-12T11:54:28Z</time>
      </trkpt>
      <trkpt lat="43.81268" lon="5.09759">
        <ele>260.2</ele>
        <time>2021-08-12T11:54:36Z</time>
      </trkpt>
      <trkpt lat="43.81256" lon="5.09764">
        <ele>261.2</ele>
        <time>2021-08-12T11:54:47Z</time>
      </trkpt>
      <trkpt lat="43.81244" lon="5.09773">
        <ele>262.2</ele>
        <time>2021-08-12T11:54:58Z</time>
      </trkpt>
      <trkpt lat="43.81236" lon="5.09782">
        <ele>263.4</ele>
        <time>2021-08-12T11:55:06Z</time>
      </trkpt>
      <trkpt lat="43.81231" lon="5.09796">
        <ele>264.6</ele>
        <time>2021-08-12T11:55:16Z</time>
      </trkpt>
      <trkpt lat="43.81231" lon="5.09809">
        <ele>265.6</ele>
        <time>2021-08-12T11:55:24Z</time>
      </trkpt>
      <trkpt lat="43.81229" lon="5.0983">
        <ele>266.6</ele>
        <time>2021-08-12T11:55:36Z</time>
      </trkpt>
      <trkpt lat="43.81227" lon="5.09844">
        <ele>267.8</ele>
        <time>2021-08-12T11:55:45Z</time>
      </trkpt>
      <trkpt lat="43.81224" lon="5.09857">
        <ele>269</ele>
        <time>2021-08-12T11:55:54Z</time>
      </trkpt>
      <trkpt lat="43.8122" lon="5.09871">
        <ele>270</ele>
        <time>2021-08-12T11:56:03Z</time>
      </trkpt>
      <trkpt lat="43.81215" lon="5.0988">
        <ele>271.2</ele>
        <time>2021-08-12T11:56:10Z</time>
      </trkpt>
      <trkpt lat="43.81205" lon="5.09891">
        <ele>272.2</ele>
        <time>2021-08-12T11:56:21Z</time>
      </trkpt>
      <trkpt lat="43.81192" lon="5.09894">
        <ele>273.4</ele>
        <time>2021-08-12T11:56:31Z</time>
      </trkpt>
      <trkpt lat="43.8118" lon="5.09891">
        <ele>274.4</ele>
        <time>2021-08-12T11:56:41Z</time>
      </trkpt>
      <trkpt lat="43.81177" lon="5.0989">
        <ele>274.8</ele>
        <time>2021-08-12T11:56:44Z</time>
      </trkpt>
      <trkpt lat="43.81173" lon="5.09894">
        <ele>275.6</ele>
        <time>2021-08-12T11:56:49Z</time>
      </trkpt>
      <trkpt lat="43.81174" lon="5.09899">
        <ele>276</ele>
        <time>2021-08-12T11:56:52Z</time>
      </trkpt>
      <trkpt lat="43.81178" lon="5.09903">
        <ele>276.6</ele>
        <time>2021-08-12T11:56:57Z</time>
      </trkpt>
      <trkpt lat="43.81193" lon="5.09908">
        <ele>277.6</ele>
        <time>2021-08-12T11:57:10Z</time>
      </trkpt>
      <trkpt lat="43.81205" lon="5.09909">
        <ele>278.6</ele>
        <time>2021-08-12T11:57:20Z</time>
      </trkpt>
      <trkpt lat="43.81214" lon="5.09909">
        <ele>279.8</ele>
        <time>2021-08-12T11:57:28Z</time>
      </trkpt>
      <trkpt lat="43.81225" lon="5.09909">
        <ele>280.8</ele>
        <time>2021-08-12T11:57:37Z</time>
      </trkpt>
      <trkpt lat="43.81233" lon="5.09908">
        <ele>281.8</ele>
        <time>2021-08-12T11:57:44Z</time>
      </trkpt>
      <trkpt lat="43.81245" lon="5.09908">
        <ele>283</ele>
        <time>2021-08-12T11:57:54Z</time>
      </trkpt>
      <trkpt lat="43.81249" lon="5.09915">
        <ele>284</ele>
        <time>2021-08-12T11:58:00Z</time>
      </trkpt>
      <trkpt lat="43.81248" lon="5.09924">
        <ele>285.2</ele>
        <time>2021-08-12T11:58:06Z</time>
      </trkpt>
      <trkpt lat="43.81247" lon="5.09926">
        <ele>285.4</ele>
        <time>2021-08-12T11:58:08Z</time>
      </trkpt>
      <trkpt lat="43.81243" lon="5.09931">
        <ele>286.2</ele>
        <time>2021-08-12T11:58:13Z</time>
      </trkpt>
      <trkpt lat="43.81238" lon="5.09937">
        <ele>287.2</ele>
        <time>2021-08-12T11:58:19Z</time>
      </trkpt>
      <trkpt lat="43.81234" lon="5.09941">
        <ele>288.4</ele>
        <time>2021-08-12T11:58:24Z</time>
      </trkpt>
      <trkpt lat="43.81228" lon="5.09947">
        <ele>289.4</ele>
        <time>2021-08-12T11:58:32Z</time>
      </trkpt>
      <trkpt lat="43.81222" lon="5.09951">
        <ele>290.6</ele>
        <time>2021-08-12T11:58:39Z</time>
      </trkpt>
      <trkpt lat="43.81214" lon="5.09956">
        <ele>291.8</ele>
        <time>2021-08-12T11:58:47Z</time>
      </trkpt>
      <trkpt lat="43.81209" lon="5.09958">
        <ele>292.8</ele>
        <time>2021-08-12T11:58:54Z</time>
      </trkpt>
      <trkpt lat="43.81203" lon="5.09959">
        <ele>294</ele>
        <time>2021-08-12T11:59:00Z</time>
      </trkpt>
      <trkpt lat="43.81195" lon="5.09961">
        <ele>295</ele>
        <time>2021-08-12T11:59:08Z</time>
      </trkpt>
      <trkpt lat="43.81188" lon="5.09964">
        <ele>296.2</ele>
        <time>2021-08-12T11:59:15Z</time>
      </trkpt>
      <trkpt lat="43.81181" lon="5.09968">
        <ele>297.2</ele>
        <time>2021-08-12T11:59:22Z</time>
      </trkpt>
      <trkpt lat="43.81175" lon="5.09974">
        <ele>298.2</ele>
        <time>2021-08-12T11:59:29Z</time>
      </trkpt>
      <trkpt lat="43.81168" lon="5.09982">
        <ele>299.2</ele>
        <time>2021-08-12T11:59:38Z</time>
      </trkpt>
      <trkpt lat="43.81162" lon="5.0999">
        <ele>300.2</ele>
        <time>2021-08-12T11:59:46Z</time>
      </trkpt>
      <trkpt lat="43.81158" lon="5.09994">
        <ele>300.6</ele>
        <time>2021-08-12T11:59:50Z</time>
      </trkpt>
      <trkpt lat="43.81157" lon="5.10001">
        <ele>301.6</ele>
        <time>2021-08-12T11:59:55Z</time>
      </trkpt>
      <trkpt lat="43.81157" lon="5.10006">
        <ele>302.6</ele>
        <time>2021-08-12T11:59:59Z</time>
      </trkpt>
      <trkpt lat="43.81158" lon="5.10014">
        <ele>303.8</ele>
        <time>2021-08-12T12:00:06Z</time>
      </trkpt>
      <trkpt lat="43.81162" lon="5.10025">
        <ele>304.8</ele>
        <time>2021-08-12T12:00:15Z</time>
      </trkpt>
      <trkpt lat="43.81165" lon="5.10034">
        <ele>305.8</ele>
        <time>2021-08-12T12:00:22Z</time>
      </trkpt>
      <trkpt lat="43.81168" lon="5.10046">
        <ele>306.8</ele>
        <time>2021-08-12T12:00:31Z</time>
      </trkpt>
      <trkpt lat="43.81167" lon="5.10058">
        <ele>307.8</ele>
        <time>2021-08-12T12:00:39Z</time>
      </trkpt>
      <trkpt lat="43.81167" lon="5.10071">
        <ele>308.8</ele>
        <time>2021-08-12T12:00:47Z</time>
      </trkpt>
      <trkpt lat="43.81167" lon="5.10085">
        <ele>310</ele>
        <time>2021-08-12T12:00:57Z</time>
      </trkpt>
      <trkpt lat="43.81167" lon="5.10087">
        <ele>310</ele>
        <time>2021-08-12T12:00:58Z</time>
      </trkpt>
      <trkpt lat="43.81168" lon="5.10091">
        <ele>310.6</ele>
        <time>2021-08-12T12:01:01Z</time>
      </trkpt>
      <trkpt lat="43.8117" lon="5.10097">
        <ele>311</ele>
        <time>2021-08-12T12:01:05Z</time>
      </trkpt>
      <trkpt lat="43.81171" lon="5.10111">
        <ele>311.8</ele>
        <time>2021-08-12T12:01:14Z</time>
      </trkpt>
      <trkpt lat="43.81172" lon="5.10123">
        <ele>312</ele>
        <time>2021-08-12T12:01:22Z</time>
      </trkpt>
      <trkpt lat="43.81174" lon="5.10129">
        <ele>313.2</ele>
        <time>2021-08-12T12:01:27Z</time>
      </trkpt>
      <trkpt lat="43.81171" lon="5.1014">
        <ele>314.2</ele>
        <time>2021-08-12T12:01:35Z</time>
      </trkpt>
      <trkpt lat="43.8117" lon="5.10149">
        <ele>315.4</ele>
        <time>2021-08-12T12:01:41Z</time>
      </trkpt>
      <trkpt lat="43.81167" lon="5.10158">
        <ele>316.4</ele>
        <time>2021-08-12T12:01:47Z</time>
      </trkpt>
      <trkpt lat="43.81164" lon="5.10164">
        <ele>317.4</ele>
        <time>2021-08-12T12:01:53Z</time>
      </trkpt>
      <trkpt lat="43.81164" lon="5.10165">
        <ele>317.6</ele>
        <time>2021-08-12T12:01:54Z</time>
      </trkpt>
      <trkpt lat="43.8116" lon="5.10169">
        <ele>317.8</ele>
        <time>2021-08-12T12:01:58Z</time>
      </trkpt>
      <trkpt lat="43.81157" lon="5.10171">
        <ele>318.4</ele>
        <time>2021-08-12T12:02:01Z</time>
      </trkpt>
      <trkpt lat="43.81153" lon="5.10169">
        <ele>318.6</ele>
        <time>2021-08-12T12:02:05Z</time>
      </trkpt>
      <trkpt lat="43.81145" lon="5.10162">
        <ele>319.8</ele>
        <time>2021-08-12T12:02:13Z</time>
      </trkpt>
      <trkpt lat="43.81139" lon="5.10155">
        <ele>321</ele>
        <time>2021-08-12T12:02:21Z</time>
      </trkpt>
      <trkpt lat="43.81131" lon="5.10153">
        <ele>322</ele>
        <time>2021-08-12T12:02:29Z</time>
      </trkpt>
      <trkpt lat="43.81122" lon="5.10152">
        <ele>323</ele>
        <time>2021-08-12T12:02:37Z</time>
      </trkpt>
      <trkpt lat="43.81117" lon="5.10155">
        <ele>324.2</ele>
        <time>2021-08-12T12:02:43Z</time>
      </trkpt>
      <trkpt lat="43.81109" lon="5.10164">
        <ele>325.2</ele>
        <time>2021-08-12T12:02:53Z</time>
      </trkpt>
      <trkpt lat="43.81107" lon="5.10172">
        <ele>326.4</ele>
        <time>2021-08-12T12:02:59Z</time>
      </trkpt>
      <trkpt lat="43.81102" lon="5.10184">
        <ele>327.6</ele>
        <time>2021-08-12T12:03:09Z</time>
      </trkpt>
      <trkpt lat="43.81098" lon="5.10193">
        <ele>328.6</ele>
        <time>2021-08-12T12:03:17Z</time>
      </trkpt>
      <trkpt lat="43.81094" lon="5.10202">
        <ele>329.6</ele>
        <time>2021-08-12T12:03:25Z</time>
      </trkpt>
      <trkpt lat="43.81091" lon="5.10212">
        <ele>330.8</ele>
        <time>2021-08-12T12:03:32Z</time>
      </trkpt>
      <trkpt lat="43.81087" lon="5.10221">
        <ele>332</ele>
        <time>2021-08-12T12:03:40Z</time>
      </trkpt>
      <trkpt lat="43.81086" lon="5.10223">
        <ele>332.6</ele>
        <time>2021-08-12T12:03:42Z</time>
      </trkpt>
      <trkpt lat="43.81085" lon="5.10226">
        <ele>333</ele>
        <time>2021-08-12T12:03:44Z</time>
      </trkpt>
      <trkpt lat="43.81081" lon="5.10234">
        <ele>334</ele>
        <time>2021-08-12T12:03:50Z</time>
      </trkpt>
      <trkpt lat="43.81081" lon="5.10235">
        <ele>334.2</ele>
        <time>2021-08-12T12:03:51Z</time>
      </trkpt>
      <trkpt lat="43.81075" lon="5.1024">
        <ele>335.2</ele>
        <time>2021-08-12T12:03:58Z</time>
      </trkpt>
      <trkpt lat="43.81072" lon="5.10239">
        <ele>335.4</ele>
        <time>2021-08-12T12:04:01Z</time>
      </trkpt>
      <trkpt lat="43.81068" lon="5.10231">
        <ele>336.2</ele>
        <time>2021-08-12T12:04:08Z</time>
      </trkpt>
      <trkpt lat="43.81063" lon="5.10206">
        <ele>337.4</ele>
        <time>2021-08-12T12:04:24Z</time>
      </trkpt>
      <trkpt lat="43.8106" lon="5.10197">
        <ele>338.4</ele>
        <time>2021-08-12T12:04:31Z</time>
      </trkpt>
      <trkpt lat="43.81056" lon="5.10182">
        <ele>339.6</ele>
        <time>2021-08-12T12:04:41Z</time>
      </trkpt>
      <trkpt lat="43.81055" lon="5.10171">
        <ele>340.6</ele>
        <time>2021-08-12T12:04:48Z</time>
      </trkpt>
      <trkpt lat="43.81051" lon="5.10157">
        <ele>341.6</ele>
        <time>2021-08-12T12:04:58Z</time>
      </trkpt>
      <trkpt lat="43.81044" lon="5.10146">
        <ele>342.8</ele>
        <time>2021-08-12T12:05:08Z</time>
      </trkpt>
      <trkpt lat="43.81037" lon="5.10138">
        <ele>343.8</ele>
        <time>2021-08-12T12:05:16Z</time>
      </trkpt>
      <trkpt lat="43.81029" lon="5.10133">
        <ele>344.6</ele>
        <time>2021-08-12T12:05:24Z</time>
      </trkpt>
      <trkpt lat="43.81027" lon="5.10132">
        <ele>344.8</ele>
        <time>2021-08-12T12:05:26Z</time>
      </trkpt>
      <trkpt lat="43.81018" lon="5.10125">
        <ele>346</ele>
        <time>2021-08-12T12:05:35Z</time>
      </trkpt>
      <trkpt lat="43.81012" lon="5.10121">
        <ele>347</ele>
        <time>2021-08-12T12:05:42Z</time>
      </trkpt>
      <trkpt lat="43.81005" lon="5.10117">
        <ele>348</ele>
        <time>2021-08-12T12:05:49Z</time>
      </trkpt>
      <trkpt lat="43.81" lon="5.10114">
        <ele>348.8</ele>
        <time>2021-08-12T12:05:54Z</time>
      </trkpt>
      <trkpt lat="43.80998" lon="5.10113">
        <ele>349.2</ele>
        <time>2021-08-12T12:05:56Z</time>
      </trkpt>
      <trkpt lat="43.80991" lon="5.10107">
        <ele>350.2</ele>
        <time>2021-08-12T12:06:05Z</time>
      </trkpt>
      <trkpt lat="43.80985" lon="5.10103">
        <ele>351.2</ele>
        <time>2021-08-12T12:06:11Z</time>
      </trkpt>
      <trkpt lat="43.8098" lon="5.101">
        <ele>352.4</ele>
        <time>2021-08-12T12:06:17Z</time>
      </trkpt>
      <trkpt lat="43.80974" lon="5.10097">
        <ele>353.4</ele>
        <time>2021-08-12T12:06:24Z</time>
      </trkpt>
      <trkpt lat="43.80965" lon="5.10095">
        <ele>354.4</ele>
        <time>2021-08-12T12:06:34Z</time>
      </trkpt>
      <trkpt lat="43.80962" lon="5.10099">
        <ele>355.4</ele>
        <time>2021-08-12T12:06:39Z</time>
      </trkpt>
      <trkpt lat="43.8096" lon="5.10103">
        <ele>355.8</ele>
        <time>2021-08-12T12:06:42Z</time>
      </trkpt>
      <trkpt lat="43.8096" lon="5.10106">
        <ele>356</ele>
        <time>2021-08-12T12:06:44Z</time>
      </trkpt>
      <trkpt lat="43.80961" lon="5.10109">
        <ele>356</ele>
        <time>2021-08-12T12:06:46Z</time>
      </trkpt>
      <trkpt lat="43.80963" lon="5.10111">
        <ele>356.4</ele>
        <time>2021-08-12T12:06:48Z</time>
      </trkpt>
      <trkpt lat="43.80964" lon="5.10112">
        <ele>356.4</ele>
        <time>2021-08-12T12:06:49Z</time>
      </trkpt>
      <trkpt lat="43.80993" lon="5.10142">
        <ele>357.6</ele>
        <time>2021-08-12T12:07:15Z</time>
      </trkpt>
      <trkpt lat="43.81006" lon="5.10167">
        <ele>358.6</ele>
        <time>2021-08-12T12:07:27Z</time>
      </trkpt>
      <trkpt lat="43.8101" lon="5.10186">
        <ele>359.8</ele>
        <time>2021-08-12T12:07:35Z</time>
      </trkpt>
      <trkpt lat="43.81009" lon="5.10208">
        <ele>360.8</ele>
        <time>2021-08-12T12:07:45Z</time>
      </trkpt>
      <trkpt lat="43.81009" lon="5.10227">
        <ele>361.8</ele>
        <time>2021-08-12T12:07:54Z</time>
      </trkpt>
      <trkpt lat="43.81008" lon="5.10237">
        <ele>363</ele>
        <time>2021-08-12T12:07:59Z</time>
      </trkpt>
      <trkpt lat="43.81009" lon="5.1025">
        <ele>364</ele>
        <time>2021-08-12T12:08:06Z</time>
      </trkpt>
      <trkpt lat="43.8101" lon="5.10261">
        <ele>365.2</ele>
        <time>2021-08-12T12:08:12Z</time>
      </trkpt>
      <trkpt lat="43.81011" lon="5.10275">
        <ele>366.2</ele>
        <time>2021-08-12T12:08:20Z</time>
      </trkpt>
      <trkpt lat="43.81017" lon="5.10296">
        <ele>367.4</ele>
        <time>2021-08-12T12:08:31Z</time>
      </trkpt>
      <trkpt lat="43.81027" lon="5.10326">
        <ele>368.4</ele>
        <time>2021-08-12T12:08:45Z</time>
      </trkpt>
      <trkpt lat="43.81034" lon="5.10347">
        <ele>369.4</ele>
        <time>2021-08-12T12:08:55Z</time>
      </trkpt>
      <trkpt lat="43.8104" lon="5.10376">
        <ele>370.4</ele>
        <time>2021-08-12T12:09:08Z</time>
      </trkpt>
      <trkpt lat="43.81045" lon="5.104">
        <ele>371.4</ele>
        <time>2021-08-12T12:09:18Z</time>
      </trkpt>
      <trkpt lat="43.8105" lon="5.10431">
        <ele>372.4</ele>
        <time>2021-08-12T12:09:30Z</time>
      </trkpt>
      <trkpt lat="43.81054" lon="5.10457">
        <ele>373.6</ele>
        <time>2021-08-12T12:09:41Z</time>
      </trkpt>
      <trkpt lat="43.81057" lon="5.10475">
        <ele>374.6</ele>
        <time>2021-08-12T12:09:49Z</time>
      </trkpt>
      <trkpt lat="43.8106" lon="5.10491">
        <ele>375.8</ele>
        <time>2021-08-12T12:09:57Z</time>
      </trkpt>
      <trkpt lat="43.81064" lon="5.10506">
        <ele>376.8</ele>
        <time>2021-08-12T12:10:05Z</time>
      </trkpt>
      <trkpt lat="43.81066" lon="5.10518">
        <ele>377.8</ele>
        <time>2021-08-12T12:10:12Z</time>
      </trkpt>
      <trkpt lat="43.81066" lon="5.10534">
        <ele>378.8</ele>
        <time>2021-08-12T12:10:21Z</time>
      </trkpt>
      <trkpt lat="43.81072" lon="5.1056">
        <ele>380</ele>
        <time>2021-08-12T12:10:33Z</time>
      </trkpt>
      <trkpt lat="43.81082" lon="5.10582">
        <ele>381</ele>
        <time>2021-08-12T12:10:45Z</time>
      </trkpt>
      <trkpt lat="43.81094" lon="5.10602">
        <ele>382.2</ele>
        <time>2021-08-12T12:10:56Z</time>
      </trkpt>
      <trkpt lat="43.81118" lon="5.10654">
        <ele>383.2</ele>
        <time>2021-08-12T12:11:21Z</time>
      </trkpt>
      <trkpt lat="43.8112" lon="5.10677">
        <ele>384.2</ele>
        <time>2021-08-12T12:11:31Z</time>
      </trkpt>
      <trkpt lat="43.81126" lon="5.10718">
        <ele>385.4</ele>
        <time>2021-08-12T12:11:48Z</time>
      </trkpt>
      <trkpt lat="43.81138" lon="5.10749">
        <ele>386.4</ele>
        <time>2021-08-12T12:12:02Z</time>
      </trkpt>
      <trkpt lat="43.8114" lon="5.10822">
        <ele>387.2</ele>
        <time>2021-08-12T12:12:30Z</time>
      </trkpt>
      <trkpt lat="43.81125" lon="5.10842">
        <ele>387.4</ele>
        <time>2021-08-12T12:12:38Z</time>
      </trkpt>
      <trkpt lat="43.81116" lon="5.10853">
        <ele>388.6</ele>
        <time>2021-08-12T12:12:45Z</time>
      </trkpt>
      <trkpt lat="43.81108" lon="5.10859">
        <ele>389.6</ele>
        <time>2021-08-12T12:12:52Z</time>
      </trkpt>
      <trkpt lat="43.81102" lon="5.10863">
        <ele>390.8</ele>
        <time>2021-08-12T12:12:57Z</time>
      </trkpt>
      <trkpt lat="43.81093" lon="5.10868">
        <ele>391.8</ele>
        <time>2021-08-12T12:13:04Z</time>
      </trkpt>
      <trkpt lat="43.81076" lon="5.10874">
        <ele>392.8</ele>
        <time>2021-08-12T12:13:18Z</time>
      </trkpt>
      <trkpt lat="43.81064" lon="5.10876">
        <ele>394</ele>
        <time>2021-08-12T12:13:27Z</time>
      </trkpt>
      <trkpt lat="43.81054" lon="5.10877">
        <ele>395</ele>
        <time>2021-08-12T12:13:34Z</time>
      </trkpt>
      <trkpt lat="43.81045" lon="5.10874">
        <ele>396.2</ele>
        <time>2021-08-12T12:13:43Z</time>
      </trkpt>
      <trkpt lat="43.81035" lon="5.10871">
        <ele>397.2</ele>
        <time>2021-08-12T12:13:52Z</time>
      </trkpt>
      <trkpt lat="43.81028" lon="5.1087">
        <ele>398.4</ele>
        <time>2021-08-12T12:13:59Z</time>
      </trkpt>
      <trkpt lat="43.81017" lon="5.10874">
        <ele>399.4</ele>
        <time>2021-08-12T12:14:10Z</time>
      </trkpt>
      <trkpt lat="43.81012" lon="5.10878">
        <ele>400.6</ele>
        <time>2021-08-12T12:14:15Z</time>
      </trkpt>
      <trkpt lat="43.81007" lon="5.10886">
        <ele>401.6</ele>
        <time>2021-08-12T12:14:23Z</time>
      </trkpt>
      <trkpt lat="43.81003" lon="5.10896">
        <ele>402.8</ele>
        <time>2021-08-12T12:14:30Z</time>
      </trkpt>
      <trkpt lat="43.80999" lon="5.10909">
        <ele>403.8</ele>
        <time>2021-08-12T12:14:39Z</time>
      </trkpt>
      <trkpt lat="43.80998" lon="5.10915">
        <ele>404.8</ele>
        <time>2021-08-12T12:14:44Z</time>
      </trkpt>
      <trkpt lat="43.80994" lon="5.10925">
        <ele>406</ele>
        <time>2021-08-12T12:14:52Z</time>
      </trkpt>
      <trkpt lat="43.80991" lon="5.10933">
        <ele>407.2</ele>
        <time>2021-08-12T12:14:58Z</time>
      </trkpt>
      <trkpt lat="43.80988" lon="5.10941">
        <ele>408.2</ele>
        <time>2021-08-12T12:15:04Z</time>
      </trkpt>
      <trkpt lat="43.80983" lon="5.10953">
        <ele>409.4</ele>
        <time>2021-08-12T12:15:13Z</time>
      </trkpt>
      <trkpt lat="43.80979" lon="5.10963">
        <ele>410.6</ele>
        <time>2021-08-12T12:15:20Z</time>
      </trkpt>
      <trkpt lat="43.80975" lon="5.10971">
        <ele>411.6</ele>
        <time>2021-08-12T12:15:26Z</time>
      </trkpt>
      <trkpt lat="43.80967" lon="5.10987">
        <ele>412.6</ele>
        <time>2021-08-12T12:15:39Z</time>
      </trkpt>
      <trkpt lat="43.80959" lon="5.11004">
        <ele>413.8</ele>
        <time>2021-08-12T12:15:51Z</time>
      </trkpt>
      <trkpt lat="43.80955" lon="5.11013">
        <ele>414.8</ele>
        <time>2021-08-12T12:15:57Z</time>
      </trkpt>
      <trkpt lat="43.8095" lon="5.11024">
        <ele>415.8</ele>
        <time>2021-08-12T12:16:04Z</time>
      </trkpt>
      <trkpt lat="43.80945" lon="5.11037">
        <ele>416.8</ele>
        <time>2021-08-12T12:16:12Z</time>
      </trkpt>
      <trkpt lat="43.80945" lon="5.11039">
        <ele>416.8</ele>
        <time>2021-08-12T12:16:13Z</time>
      </trkpt>
      <trkpt lat="43.80938" lon="5.11056">
        <ele>418</ele>
        <time>2021-08-12T12:16:23Z</time>
      </trkpt>
      <trkpt lat="43.80934" lon="5.11067">
        <ele>419</ele>
        <time>2021-08-12T12:16:29Z</time>
      </trkpt>
      <trkpt lat="43.80927" lon="5.11084">
        <ele>420.2</ele>
        <time>2021-08-12T12:16:39Z</time>
      </trkpt>
      <trkpt lat="43.80915" lon="5.11108">
        <ele>421.2</ele>
        <time>2021-08-12T12:16:54Z</time>
      </trkpt>
      <trkpt lat="43.8091" lon="5.11117">
        <ele>422.2</ele>
        <time>2021-08-12T12:17:00Z</time>
      </trkpt>
      <trkpt lat="43.80902" lon="5.11131">
        <ele>423.2</ele>
        <time>2021-08-12T12:17:09Z</time>
      </trkpt>
      <trkpt lat="43.80894" lon="5.11145">
        <ele>424.4</ele>
        <time>2021-08-12T12:17:18Z</time>
      </trkpt>
      <trkpt lat="43.80886" lon="5.11157">
        <ele>425.4</ele>
        <time>2021-08-12T12:17:26Z</time>
      </trkpt>
      <trkpt lat="43.80879" lon="5.11167">
        <ele>426.6</ele>
        <time>2021-08-12T12:17:34Z</time>
      </trkpt>
      <trkpt lat="43.80872" lon="5.11176">
        <ele>427.6</ele>
        <time>2021-08-12T12:17:40Z</time>
      </trkpt>
      <trkpt lat="43.80861" lon="5.11193">
        <ele>428.6</ele>
        <time>2021-08-12T12:17:49Z</time>
      </trkpt>
      <trkpt lat="43.80847" lon="5.11217">
        <ele>429.6</ele>
        <time>2021-08-12T12:18:00Z</time>
      </trkpt>
      <trkpt lat="43.80819" lon="5.1128">
        <ele>429</ele>
        <time>2021-08-12T12:18:17Z</time>
      </trkpt>
      <trkpt lat="43.8081" lon="5.11292">
        <ele>428.6</ele>
        <time>2021-08-12T12:18:20Z</time>
      </trkpt>
      <trkpt lat="43.80792" lon="5.11306">
        <ele>429.6</ele>
        <time>2021-08-12T12:18:28Z</time>
      </trkpt>
      <trkpt lat="43.8079" lon="5.11311">
        <ele>430.8</ele>
        <time>2021-08-12T12:18:31Z</time>
      </trkpt>
      <trkpt lat="43.80789" lon="5.11316">
        <ele>431.8</ele>
        <time>2021-08-12T12:18:34Z</time>
      </trkpt>
      <trkpt lat="43.80786" lon="5.11341">
        <ele>432.8</ele>
        <time>2021-08-12T12:18:47Z</time>
      </trkpt>
      <trkpt lat="43.80786" lon="5.11352">
        <ele>434</ele>
        <time>2021-08-12T12:18:54Z</time>
      </trkpt>
      <trkpt lat="43.80786" lon="5.1136">
        <ele>435</ele>
        <time>2021-08-12T12:18:59Z</time>
      </trkpt>
      <trkpt lat="43.80785" lon="5.11379">
        <ele>436.2</ele>
        <time>2021-08-12T12:19:11Z</time>
      </trkpt>
      <trkpt lat="43.80781" lon="5.11391">
        <ele>437.2</ele>
        <time>2021-08-12T12:19:19Z</time>
      </trkpt>
      <trkpt lat="43.80779" lon="5.11399">
        <ele>438.2</ele>
        <time>2021-08-12T12:19:26Z</time>
      </trkpt>
      <trkpt lat="43.80774" lon="5.11409">
        <ele>439.2</ele>
        <time>2021-08-12T12:19:34Z</time>
      </trkpt>
      <trkpt lat="43.80769" lon="5.1142">
        <ele>440.4</ele>
        <time>2021-08-12T12:19:43Z</time>
      </trkpt>
      <trkpt lat="43.80765" lon="5.11429">
        <ele>441.4</ele>
        <time>2021-08-12T12:19:50Z</time>
      </trkpt>
      <trkpt lat="43.8076" lon="5.11441">
        <ele>442.6</ele>
        <time>2021-08-12T12:19:59Z</time>
      </trkpt>
      <trkpt lat="43.80755" lon="5.11451">
        <ele>443.8</ele>
        <time>2021-08-12T12:20:07Z</time>
      </trkpt>
      <trkpt lat="43.80752" lon="5.11461">
        <ele>444.8</ele>
        <time>2021-08-12T12:20:14Z</time>
      </trkpt>
      <trkpt lat="43.8075" lon="5.11474">
        <ele>445.8</ele>
        <time>2021-08-12T12:20:23Z</time>
      </trkpt>
      <trkpt lat="43.80748" lon="5.11484">
        <ele>447</ele>
        <time>2021-08-12T12:20:30Z</time>
      </trkpt>
      <trkpt lat="43.80746" lon="5.11494">
        <ele>448</ele>
        <time>2021-08-12T12:20:37Z</time>
      </trkpt>
      <trkpt lat="43.80744" lon="5.11505">
        <ele>449.4</ele>
        <time>2021-08-12T12:20:44Z</time>
      </trkpt>
      <trkpt lat="43.8074" lon="5.11519">
        <ele>450.4</ele>
        <time>2021-08-12T12:20:54Z</time>
      </trkpt>
      <trkpt lat="43.8074" lon="5.11529">
        <ele>451.4</ele>
        <time>2021-08-12T12:21:00Z</time>
      </trkpt>
      <trkpt lat="43.80739" lon="5.11546">
        <ele>452.6</ele>
        <time>2021-08-12T12:21:10Z</time>
      </trkpt>
      <trkpt lat="43.80737" lon="5.11564">
        <ele>453.6</ele>
        <time>2021-08-12T12:21:20Z</time>
      </trkpt>
      <trkpt lat="43.80735" lon="5.11581">
        <ele>454.6</ele>
        <time>2021-08-12T12:21:30Z</time>
      </trkpt>
      <trkpt lat="43.8073" lon="5.11597">
        <ele>455.6</ele>
        <time>2021-08-12T12:21:40Z</time>
      </trkpt>
      <trkpt lat="43.80724" lon="5.11617">
        <ele>456.6</ele>
        <time>2021-08-12T12:21:53Z</time>
      </trkpt>
      <trkpt lat="43.80719" lon="5.11634">
        <ele>457.8</ele>
        <time>2021-08-12T12:22:04Z</time>
      </trkpt>
      <trkpt lat="43.80715" lon="5.11644">
        <ele>458.4</ele>
        <time>2021-08-12T12:22:11Z</time>
      </trkpt>
      <trkpt lat="43.80713" lon="5.11649">
        <ele>458.8</ele>
        <time>2021-08-12T12:22:14Z</time>
      </trkpt>
      <trkpt lat="43.80707" lon="5.11662">
        <ele>459.4</ele>
        <time>2021-08-12T12:22:22Z</time>
      </trkpt>
      <trkpt lat="43.80703" lon="5.11669">
        <ele>459.8</ele>
        <time>2021-08-12T12:22:26Z</time>
      </trkpt>
      <trkpt lat="43.80697" lon="5.11679">
        <ele>460.8</ele>
        <time>2021-08-12T12:22:33Z</time>
      </trkpt>
      <trkpt lat="43.80692" lon="5.11687">
        <ele>461.8</ele>
        <time>2021-08-12T12:22:39Z</time>
      </trkpt>
      <trkpt lat="43.80687" lon="5.11695">
        <ele>462.8</ele>
        <time>2021-08-12T12:22:45Z</time>
      </trkpt>
      <trkpt lat="43.80682" lon="5.11704">
        <ele>464</ele>
        <time>2021-08-12T12:22:53Z</time>
      </trkpt>
      <trkpt lat="43.80674" lon="5.11719">
        <ele>465</ele>
        <time>2021-08-12T12:23:06Z</time>
      </trkpt>
      <trkpt lat="43.8067" lon="5.11727">
        <ele>466</ele>
        <time>2021-08-12T12:23:12Z</time>
      </trkpt>
      <trkpt lat="43.80665" lon="5.11738">
        <ele>467.2</ele>
        <time>2021-08-12T12:23:21Z</time>
      </trkpt>
      <trkpt lat="43.8066" lon="5.11753">
        <ele>468.4</ele>
        <time>2021-08-12T12:23:32Z</time>
      </trkpt>
      <trkpt lat="43.80656" lon="5.11767">
        <ele>469.4</ele>
        <time>2021-08-12T12:23:41Z</time>
      </trkpt>
      <trkpt lat="43.80652" lon="5.11784">
        <ele>470.4</ele>
        <time>2021-08-12T12:23:52Z</time>
      </trkpt>
      <trkpt lat="43.80648" lon="5.11795">
        <ele>471.4</ele>
        <time>2021-08-12T12:23:59Z</time>
      </trkpt>
      <trkpt lat="43.80637" lon="5.1182">
        <ele>472.6</ele>
        <time>2021-08-12T12:24:16Z</time>
      </trkpt>
      <trkpt lat="43.8063" lon="5.11831">
        <ele>473.6</ele>
        <time>2021-08-12T12:24:25Z</time>
      </trkpt>
      <trkpt lat="43.80623" lon="5.11841">
        <ele>474.6</ele>
        <time>2021-08-12T12:24:34Z</time>
      </trkpt>
      <trkpt lat="43.80618" lon="5.1185">
        <ele>475.6</ele>
        <time>2021-08-12T12:24:41Z</time>
      </trkpt>
      <trkpt lat="43.80612" lon="5.1186">
        <ele>476.6</ele>
        <time>2021-08-12T12:24:50Z</time>
      </trkpt>
      <trkpt lat="43.80608" lon="5.11869">
        <ele>477.6</ele>
        <time>2021-08-12T12:24:57Z</time>
      </trkpt>
      <trkpt lat="43.80603" lon="5.11877">
        <ele>478.6</ele>
        <time>2021-08-12T12:25:04Z</time>
      </trkpt>
      <trkpt lat="43.80597" lon="5.11887">
        <ele>479.8</ele>
        <time>2021-08-12T12:25:12Z</time>
      </trkpt>
      <trkpt lat="43.80593" lon="5.11896">
        <ele>480.8</ele>
        <time>2021-08-12T12:25:19Z</time>
      </trkpt>
      <trkpt lat="43.80589" lon="5.1191">
        <ele>481.8</ele>
        <time>2021-08-12T12:25:29Z</time>
      </trkpt>
      <trkpt lat="43.80588" lon="5.11921">
        <ele>483</ele>
        <time>2021-08-12T12:25:36Z</time>
      </trkpt>
      <trkpt lat="43.80589" lon="5.11934">
        <ele>484</ele>
        <time>2021-08-12T12:25:45Z</time>
      </trkpt>
      <trkpt lat="43.80597" lon="5.11961">
        <ele>485.2</ele>
        <time>2021-08-12T12:26:02Z</time>
      </trkpt>
      <trkpt lat="43.80624" lon="5.12027">
        <ele>486</ele>
        <time>2021-08-12T12:26:27Z</time>
      </trkpt>
      <trkpt lat="43.80626" lon="5.12036">
        <ele>486.2</ele>
        <time>2021-08-12T12:26:30Z</time>
      </trkpt>
      <trkpt lat="43.8063" lon="5.12052">
        <ele>487.2</ele>
        <time>2021-08-12T12:26:36Z</time>
      </trkpt>
      <trkpt lat="43.80635" lon="5.12074">
        <ele>488.4</ele>
        <time>2021-08-12T12:26:45Z</time>
      </trkpt>
      <trkpt lat="43.80637" lon="5.12088">
        <ele>489.4</ele>
        <time>2021-08-12T12:26:51Z</time>
      </trkpt>
      <trkpt lat="43.8064" lon="5.1211">
        <ele>490.4</ele>
        <time>2021-08-12T12:27:01Z</time>
      </trkpt>
      <trkpt lat="43.80641" lon="5.1213">
        <ele>491.4</ele>
        <time>2021-08-12T12:27:10Z</time>
      </trkpt>
      <trkpt lat="43.80642" lon="5.12156">
        <ele>492.6</ele>
        <time>2021-08-12T12:27:21Z</time>
      </trkpt>
      <trkpt lat="43.80642" lon="5.12185">
        <ele>493.6</ele>
        <time>2021-08-12T12:27:33Z</time>
      </trkpt>
      <trkpt lat="43.80642" lon="5.12207">
        <ele>494.8</ele>
        <time>2021-08-12T12:27:43Z</time>
      </trkpt>
      <trkpt lat="43.80642" lon="5.12232">
        <ele>495.8</ele>
        <time>2021-08-12T12:27:55Z</time>
      </trkpt>
      <trkpt lat="43.8064" lon="5.12253">
        <ele>496.8</ele>
        <time>2021-08-12T12:28:06Z</time>
      </trkpt>
      <trkpt lat="43.80636" lon="5.1227">
        <ele>498</ele>
        <time>2021-08-12T12:28:15Z</time>
      </trkpt>
      <trkpt lat="43.80634" lon="5.12287">
        <ele>499.2</ele>
        <time>2021-08-12T12:28:25Z</time>
      </trkpt>
      <trkpt lat="43.80628" lon="5.12312">
        <ele>500.2</ele>
        <time>2021-08-12T12:28:41Z</time>
      </trkpt>
      <trkpt lat="43.80622" lon="5.12327">
        <ele>501.2</ele>
        <time>2021-08-12T12:28:52Z</time>
      </trkpt>
      <trkpt lat="43.80618" lon="5.12335">
        <ele>502.2</ele>
        <time>2021-08-12T12:28:58Z</time>
      </trkpt>
      <trkpt lat="43.80615" lon="5.12342">
        <ele>503.2</ele>
        <time>2021-08-12T12:29:03Z</time>
      </trkpt>
      <trkpt lat="43.8061" lon="5.12351">
        <ele>504.2</ele>
        <time>2021-08-12T12:29:10Z</time>
      </trkpt>
      <trkpt lat="43.80606" lon="5.12363">
        <ele>505.4</ele>
        <time>2021-08-12T12:29:18Z</time>
      </trkpt>
      <trkpt lat="43.80599" lon="5.1238">
        <ele>506.6</ele>
        <time>2021-08-12T12:29:30Z</time>
      </trkpt>
      <trkpt lat="43.80596" lon="5.12391">
        <ele>507.6</ele>
        <time>2021-08-12T12:29:37Z</time>
      </trkpt>
      <trkpt lat="43.80591" lon="5.12409">
        <ele>508.6</ele>
        <time>2021-08-12T12:29:49Z</time>
      </trkpt>
      <trkpt lat="43.80588" lon="5.12419">
        <ele>509.6</ele>
        <time>2021-08-12T12:29:56Z</time>
      </trkpt>
      <trkpt lat="43.80583" lon="5.12433">
        <ele>510.8</ele>
        <time>2021-08-12T12:30:06Z</time>
      </trkpt>
      <trkpt lat="43.8058" lon="5.12445">
        <ele>511.8</ele>
        <time>2021-08-12T12:30:14Z</time>
      </trkpt>
      <trkpt lat="43.80575" lon="5.12454">
        <ele>513</ele>
        <time>2021-08-12T12:30:21Z</time>
      </trkpt>
      <trkpt lat="43.80571" lon="5.12462">
        <ele>514</ele>
        <time>2021-08-12T12:30:27Z</time>
      </trkpt>
      <trkpt lat="43.80565" lon="5.1247">
        <ele>515</ele>
        <time>2021-08-12T12:30:34Z</time>
      </trkpt>
      <trkpt lat="43.80559" lon="5.1248">
        <ele>516</ele>
        <time>2021-08-12T12:30:42Z</time>
      </trkpt>
      <trkpt lat="43.80555" lon="5.12487">
        <ele>517.2</ele>
        <time>2021-08-12T12:30:48Z</time>
      </trkpt>
      <trkpt lat="43.8055" lon="5.12498">
        <ele>518.2</ele>
        <time>2021-08-12T12:30:56Z</time>
      </trkpt>
      <trkpt lat="43.80545" lon="5.12506">
        <ele>519.2</ele>
        <time>2021-08-12T12:31:03Z</time>
      </trkpt>
      <trkpt lat="43.8054" lon="5.12515">
        <ele>520.4</ele>
        <time>2021-08-12T12:31:10Z</time>
      </trkpt>
      <trkpt lat="43.80532" lon="5.1253">
        <ele>521.6</ele>
        <time>2021-08-12T12:31:22Z</time>
      </trkpt>
      <trkpt lat="43.80524" lon="5.12542">
        <ele>522.6</ele>
        <time>2021-08-12T12:31:30Z</time>
      </trkpt>
      <trkpt lat="43.80506" lon="5.12565">
        <ele>523.6</ele>
        <time>2021-08-12T12:31:44Z</time>
      </trkpt>
      <trkpt lat="43.80458" lon="5.12605">
        <ele>524</ele>
        <time>2021-08-12T12:32:03Z</time>
      </trkpt>
      <trkpt lat="43.8043" lon="5.12626">
        <ele>524.2</ele>
        <time>2021-08-12T12:32:12Z</time>
      </trkpt>
      <trkpt lat="43.80421" lon="5.12634">
        <ele>524.8</ele>
        <time>2021-08-12T12:32:16Z</time>
      </trkpt>
      <trkpt lat="43.80408" lon="5.12647">
        <ele>525.8</ele>
        <time>2021-08-12T12:32:22Z</time>
      </trkpt>
      <trkpt lat="43.80367" lon="5.12696">
        <ele>526.6</ele>
        <time>2021-08-12T12:32:41Z</time>
      </trkpt>
      <trkpt lat="43.80366" lon="5.12698">
        <ele>526.8</ele>
        <time>2021-08-12T12:32:42Z</time>
      </trkpt>
      <trkpt lat="43.80362" lon="5.12709">
        <ele>527.8</ele>
        <time>2021-08-12T12:32:54Z</time>
      </trkpt>
      <trkpt lat="43.80362" lon="5.12708">
        <ele>527.8</ele>
        <time>2021-08-12T12:32:57Z</time>
      </trkpt>
      <trkpt lat="43.80365" lon="5.12705">
        <ele>527.8</ele>
        <time>2021-08-12T12:34:34Z</time>
      </trkpt>
      <trkpt lat="43.8036" lon="5.1271">
        <ele>528.4</ele>
        <time>2021-08-12T12:36:56Z</time>
      </trkpt>
      <trkpt lat="43.80358" lon="5.12714">
        <ele>529</ele>
        <time>2021-08-12T12:36:58Z</time>
      </trkpt>
      <trkpt lat="43.80349" lon="5.12737">
        <ele>530.2</ele>
        <time>2021-08-12T12:37:11Z</time>
      </trkpt>
      <trkpt lat="43.80346" lon="5.12743">
        <ele>530.4</ele>
        <time>2021-08-12T12:37:15Z</time>
      </trkpt>
      <trkpt lat="43.80343" lon="5.12747">
        <ele>531.2</ele>
        <time>2021-08-12T12:37:19Z</time>
      </trkpt>
      <trkpt lat="43.8034" lon="5.12753">
        <ele>532</ele>
        <time>2021-08-12T12:37:24Z</time>
      </trkpt>
      <trkpt lat="43.80338" lon="5.12755">
        <ele>532.4</ele>
        <time>2021-08-12T12:37:26Z</time>
      </trkpt>
      <trkpt lat="43.8033" lon="5.12763">
        <ele>533.4</ele>
        <time>2021-08-12T12:37:35Z</time>
      </trkpt>
      <trkpt lat="43.80325" lon="5.1277">
        <ele>534.4</ele>
        <time>2021-08-12T12:37:42Z</time>
      </trkpt>
      <trkpt lat="43.80319" lon="5.12784">
        <ele>535.6</ele>
        <time>2021-08-12T12:37:53Z</time>
      </trkpt>
      <trkpt lat="43.80316" lon="5.12799">
        <ele>536.6</ele>
        <time>2021-08-12T12:38:04Z</time>
      </trkpt>
      <trkpt lat="43.80302" lon="5.12843">
        <ele>537.8</ele>
        <time>2021-08-12T12:38:26Z</time>
      </trkpt>
      <trkpt lat="43.80282" lon="5.12874">
        <ele>538.8</ele>
        <time>2021-08-12T12:38:41Z</time>
      </trkpt>
      <trkpt lat="43.80241" lon="5.12923">
        <ele>539.4</ele>
        <time>2021-08-12T12:39:01Z</time>
      </trkpt>
      <trkpt lat="43.8022" lon="5.12971">
        <ele>539.8</ele>
        <time>2021-08-12T12:39:12Z</time>
      </trkpt>
      <trkpt lat="43.80217" lon="5.12984">
        <ele>541</ele>
        <time>2021-08-12T12:39:17Z</time>
      </trkpt>
      <trkpt lat="43.80216" lon="5.12989">
        <ele>541.4</ele>
        <time>2021-08-12T12:39:19Z</time>
      </trkpt>
      <trkpt lat="43.80214" lon="5.12995">
        <ele>542.2</ele>
        <time>2021-08-12T12:39:22Z</time>
      </trkpt>
      <trkpt lat="43.80212" lon="5.13006">
        <ele>543.2</ele>
        <time>2021-08-12T12:39:28Z</time>
      </trkpt>
      <trkpt lat="43.8021" lon="5.13018">
        <ele>544.2</ele>
        <time>2021-08-12T12:39:35Z</time>
      </trkpt>
      <trkpt lat="43.80205" lon="5.13031">
        <ele>545.2</ele>
        <time>2021-08-12T12:39:43Z</time>
      </trkpt>
      <trkpt lat="43.80204" lon="5.13032">
        <ele>545.4</ele>
        <time>2021-08-12T12:39:44Z</time>
      </trkpt>
      <trkpt lat="43.80199" lon="5.13043">
        <ele>546.4</ele>
        <time>2021-08-12T12:39:52Z</time>
      </trkpt>
      <trkpt lat="43.80199" lon="5.13044">
        <ele>546.4</ele>
        <time>2021-08-12T12:39:53Z</time>
      </trkpt>
      <trkpt lat="43.80192" lon="5.13056">
        <ele>547.6</ele>
        <time>2021-08-12T12:40:02Z</time>
      </trkpt>
      <trkpt lat="43.80186" lon="5.13067">
        <ele>548.6</ele>
        <time>2021-08-12T12:40:11Z</time>
      </trkpt>
      <trkpt lat="43.80184" lon="5.13071">
        <ele>549</ele>
        <time>2021-08-12T12:40:14Z</time>
      </trkpt>
      <trkpt lat="43.80181" lon="5.13075">
        <ele>549.6</ele>
        <time>2021-08-12T12:40:18Z</time>
      </trkpt>
      <trkpt lat="43.80176" lon="5.13084">
        <ele>550.6</ele>
        <time>2021-08-12T12:40:26Z</time>
      </trkpt>
      <trkpt lat="43.80171" lon="5.13092">
        <ele>551.8</ele>
        <time>2021-08-12T12:40:33Z</time>
      </trkpt>
      <trkpt lat="43.80164" lon="5.131">
        <ele>552.8</ele>
        <time>2021-08-12T12:40:41Z</time>
      </trkpt>
      <trkpt lat="43.80159" lon="5.13104">
        <ele>553.6</ele>
        <time>2021-08-12T12:40:46Z</time>
      </trkpt>
      <trkpt lat="43.80156" lon="5.13106">
        <ele>554</ele>
        <time>2021-08-12T12:40:49Z</time>
      </trkpt>
      <trkpt lat="43.80155" lon="5.13107">
        <ele>554.2</ele>
        <time>2021-08-12T12:40:50Z</time>
      </trkpt>
      <trkpt lat="43.80151" lon="5.13114">
        <ele>555</ele>
        <time>2021-08-12T12:40:56Z</time>
      </trkpt>
      <trkpt lat="43.80143" lon="5.13121">
        <ele>556.2</ele>
        <time>2021-08-12T12:41:05Z</time>
      </trkpt>
      <trkpt lat="43.80135" lon="5.13129">
        <ele>557.2</ele>
        <time>2021-08-12T12:41:14Z</time>
      </trkpt>
      <trkpt lat="43.80131" lon="5.13133">
        <ele>558.4</ele>
        <time>2021-08-12T12:41:19Z</time>
      </trkpt>
      <trkpt lat="43.80129" lon="5.13134">
        <ele>558.6</ele>
        <time>2021-08-12T12:41:21Z</time>
      </trkpt>
      <trkpt lat="43.80126" lon="5.1314">
        <ele>559.4</ele>
        <time>2021-08-12T12:41:26Z</time>
      </trkpt>
      <trkpt lat="43.80123" lon="5.13147">
        <ele>560.6</ele>
        <time>2021-08-12T12:41:32Z</time>
      </trkpt>
      <trkpt lat="43.8012" lon="5.13152">
        <ele>561.2</ele>
        <time>2021-08-12T12:41:36Z</time>
      </trkpt>
      <trkpt lat="43.8012" lon="5.13156">
        <ele>561.6</ele>
        <time>2021-08-12T12:41:39Z</time>
      </trkpt>
      <trkpt lat="43.80116" lon="5.13171">
        <ele>562.8</ele>
        <time>2021-08-12T12:41:49Z</time>
      </trkpt>
      <trkpt lat="43.80115" lon="5.13191">
        <ele>563.8</ele>
        <time>2021-08-12T12:42:01Z</time>
      </trkpt>
      <trkpt lat="43.80116" lon="5.13204">
        <ele>565</ele>
        <time>2021-08-12T12:42:09Z</time>
      </trkpt>
      <trkpt lat="43.80112" lon="5.13218">
        <ele>566.2</ele>
        <time>2021-08-12T12:42:19Z</time>
      </trkpt>
      <trkpt lat="43.8011" lon="5.1323">
        <ele>567.2</ele>
        <time>2021-08-12T12:42:27Z</time>
      </trkpt>
      <trkpt lat="43.80105" lon="5.13245">
        <ele>568.2</ele>
        <time>2021-08-12T12:42:37Z</time>
      </trkpt>
      <trkpt lat="43.80098" lon="5.13256">
        <ele>569.4</ele>
        <time>2021-08-12T12:42:46Z</time>
      </trkpt>
      <trkpt lat="43.80091" lon="5.13268">
        <ele>570.4</ele>
        <time>2021-08-12T12:42:56Z</time>
      </trkpt>
      <trkpt lat="43.80081" lon="5.13284">
        <ele>571.6</ele>
        <time>2021-08-12T12:43:09Z</time>
      </trkpt>
      <trkpt lat="43.8007" lon="5.13305">
        <ele>572.6</ele>
        <time>2021-08-12T12:43:22Z</time>
      </trkpt>
      <trkpt lat="43.80063" lon="5.13328">
        <ele>573.8</ele>
        <time>2021-08-12T12:43:33Z</time>
      </trkpt>
      <trkpt lat="43.80055" lon="5.13347">
        <ele>574.8</ele>
        <time>2021-08-12T12:43:43Z</time>
      </trkpt>
      <trkpt lat="43.80047" lon="5.13369">
        <ele>575.8</ele>
        <time>2021-08-12T12:43:53Z</time>
      </trkpt>
      <trkpt lat="43.80036" lon="5.13397">
        <ele>576.8</ele>
        <time>2021-08-12T12:44:07Z</time>
      </trkpt>
      <trkpt lat="43.80026" lon="5.1342">
        <ele>577.8</ele>
        <time>2021-08-12T12:44:18Z</time>
      </trkpt>
      <trkpt lat="43.80016" lon="5.13449">
        <ele>579</ele>
        <time>2021-08-12T12:44:30Z</time>
      </trkpt>
      <trkpt lat="43.80015" lon="5.13499">
        <ele>580</ele>
        <time>2021-08-12T12:44:47Z</time>
      </trkpt>
      <trkpt lat="43.80019" lon="5.13524">
        <ele>581.2</ele>
        <time>2021-08-12T12:44:56Z</time>
      </trkpt>
      <trkpt lat="43.8005" lon="5.13591">
        <ele>582</ele>
        <time>2021-08-12T12:45:17Z</time>
      </trkpt>
      <trkpt lat="43.8007" lon="5.13625">
        <ele>581.6</ele>
        <time>2021-08-12T12:45:24Z</time>
      </trkpt>
      <trkpt lat="43.801" lon="5.13662">
        <ele>581.6</ele>
        <time>2021-08-12T12:45:33Z</time>
      </trkpt>
      <trkpt lat="43.80104" lon="5.13672">
        <ele>582</ele>
        <time>2021-08-12T12:45:35Z</time>
      </trkpt>
      <trkpt lat="43.80106" lon="5.13684">
        <ele>582.2</ele>
        <time>2021-08-12T12:45:37Z</time>
      </trkpt>
      <trkpt lat="43.80106" lon="5.13696">
        <ele>582.4</ele>
        <time>2021-08-12T12:45:39Z</time>
      </trkpt>
      <trkpt lat="43.80103" lon="5.13708">
        <ele>582.6</ele>
        <time>2021-08-12T12:45:41Z</time>
      </trkpt>
      <trkpt lat="43.80098" lon="5.13721">
        <ele>582.4</ele>
        <time>2021-08-12T12:45:43Z</time>
      </trkpt>
      <trkpt lat="43.80083" lon="5.13745">
        <ele>581.2</ele>
        <time>2021-08-12T12:45:47Z</time>
      </trkpt>
      <trkpt lat="43.80068" lon="5.13766">
        <ele>579.6</ele>
        <time>2021-08-12T12:45:50Z</time>
      </trkpt>
      <trkpt lat="43.80056" lon="5.13778">
        <ele>578</ele>
        <time>2021-08-12T12:45:52Z</time>
      </trkpt>
      <trkpt lat="43.80042" lon="5.13786">
        <ele>576.4</ele>
        <time>2021-08-12T12:45:54Z</time>
      </trkpt>
      <trkpt lat="43.80028" lon="5.13794">
        <ele>574.6</ele>
        <time>2021-08-12T12:45:56Z</time>
      </trkpt>
      <trkpt lat="43.80014" lon="5.13803">
        <ele>572.8</ele>
        <time>2021-08-12T12:45:58Z</time>
      </trkpt>
      <trkpt lat="43.79962" lon="5.13832">
        <ele>571.4</ele>
        <time>2021-08-12T12:46:05Z</time>
      </trkpt>
      <trkpt lat="43.79956" lon="5.13836">
        <ele>571</ele>
        <time>2021-08-12T12:46:06Z</time>
      </trkpt>
      <trkpt lat="43.7995" lon="5.13842">
        <ele>570.4</ele>
        <time>2021-08-12T12:46:07Z</time>
      </trkpt>
      <trkpt lat="43.79936" lon="5.13863">
        <ele>569.4</ele>
        <time>2021-08-12T12:46:10Z</time>
      </trkpt>
      <trkpt lat="43.79932" lon="5.13871">
        <ele>569.2</ele>
        <time>2021-08-12T12:46:11Z</time>
      </trkpt>
      <trkpt lat="43.79929" lon="5.1388">
        <ele>568.4</ele>
        <time>2021-08-12T12:46:12Z</time>
      </trkpt>
      <trkpt lat="43.79928" lon="5.13889">
        <ele>567.6</ele>
        <time>2021-08-12T12:46:13Z</time>
      </trkpt>
      <trkpt lat="43.79928" lon="5.13899">
        <ele>566.8</ele>
        <time>2021-08-12T12:46:14Z</time>
      </trkpt>
      <trkpt lat="43.79929" lon="5.1391">
        <ele>566.2</ele>
        <time>2021-08-12T12:46:15Z</time>
      </trkpt>
      <trkpt lat="43.79932" lon="5.13921">
        <ele>565.8</ele>
        <time>2021-08-12T12:46:16Z</time>
      </trkpt>
      <trkpt lat="43.7994" lon="5.13943">
        <ele>565</ele>
        <time>2021-08-12T12:46:18Z</time>
      </trkpt>
      <trkpt lat="43.79949" lon="5.13967">
        <ele>564</ele>
        <time>2021-08-12T12:46:20Z</time>
      </trkpt>
      <trkpt lat="43.79957" lon="5.1399">
        <ele>561.8</ele>
        <time>2021-08-12T12:46:22Z</time>
      </trkpt>
      <trkpt lat="43.79969" lon="5.14043">
        <ele>564.2</ele>
        <time>2021-08-12T12:46:28Z</time>
      </trkpt>
      <trkpt lat="43.7997" lon="5.14049">
        <ele>565.2</ele>
        <time>2021-08-12T12:46:29Z</time>
      </trkpt>
      <trkpt lat="43.79971" lon="5.1406">
        <ele>566.4</ele>
        <time>2021-08-12T12:46:31Z</time>
      </trkpt>
      <trkpt lat="43.79971" lon="5.1407">
        <ele>567</ele>
        <time>2021-08-12T12:46:33Z</time>
      </trkpt>
      <trkpt lat="43.79971" lon="5.14079">
        <ele>567.6</ele>
        <time>2021-08-12T12:46:35Z</time>
      </trkpt>
      <trkpt lat="43.79971" lon="5.14115">
        <ele>567.8</ele>
        <time>2021-08-12T12:46:41Z</time>
      </trkpt>
      <trkpt lat="43.79975" lon="5.14139">
        <ele>566.8</ele>
        <time>2021-08-12T12:46:44Z</time>
      </trkpt>
      <trkpt lat="43.79978" lon="5.14147">
        <ele>566.4</ele>
        <time>2021-08-12T12:46:45Z</time>
      </trkpt>
      <trkpt lat="43.79981" lon="5.14156">
        <ele>566.2</ele>
        <time>2021-08-12T12:46:46Z</time>
      </trkpt>
      <trkpt lat="43.79986" lon="5.1418">
        <ele>565.4</ele>
        <time>2021-08-12T12:46:49Z</time>
      </trkpt>
      <trkpt lat="43.79989" lon="5.14204">
        <ele>566.6</ele>
        <time>2021-08-12T12:46:53Z</time>
      </trkpt>
      <trkpt lat="43.7999" lon="5.14216">
        <ele>567.8</ele>
        <time>2021-08-12T12:46:56Z</time>
      </trkpt>
      <trkpt lat="43.79991" lon="5.14224">
        <ele>568.8</ele>
        <time>2021-08-12T12:46:59Z</time>
      </trkpt>
      <trkpt lat="43.79991" lon="5.14236">
        <ele>570</ele>
        <time>2021-08-12T12:47:04Z</time>
      </trkpt>
      <trkpt lat="43.79992" lon="5.14246">
        <ele>571</ele>
        <time>2021-08-12T12:47:09Z</time>
      </trkpt>
      <trkpt lat="43.79992" lon="5.14262">
        <ele>572</ele>
        <time>2021-08-12T12:47:16Z</time>
      </trkpt>
      <trkpt lat="43.79993" lon="5.14273">
        <ele>573.2</ele>
        <time>2021-08-12T12:47:21Z</time>
      </trkpt>
      <trkpt lat="43.79997" lon="5.14289">
        <ele>574.2</ele>
        <time>2021-08-12T12:47:28Z</time>
      </trkpt>
      <trkpt lat="43.80002" lon="5.14301">
        <ele>575.2</ele>
        <time>2021-08-12T12:47:34Z</time>
      </trkpt>
      <trkpt lat="43.80016" lon="5.14324">
        <ele>576.4</ele>
        <time>2021-08-12T12:47:46Z</time>
      </trkpt>
      <trkpt lat="43.80025" lon="5.14347">
        <ele>577.4</ele>
        <time>2021-08-12T12:47:57Z</time>
      </trkpt>
      <trkpt lat="43.80029" lon="5.14373">
        <ele>578.4</ele>
        <time>2021-08-12T12:48:09Z</time>
      </trkpt>
      <trkpt lat="43.8003" lon="5.1439">
        <ele>579.4</ele>
        <time>2021-08-12T12:48:18Z</time>
      </trkpt>
      <trkpt lat="43.8003" lon="5.14392">
        <ele>579.6</ele>
        <time>2021-08-12T12:48:19Z</time>
      </trkpt>
      <trkpt lat="43.80032" lon="5.14403">
        <ele>580.4</ele>
        <time>2021-08-12T12:48:25Z</time>
      </trkpt>
      <trkpt lat="43.80035" lon="5.14417">
        <ele>581.6</ele>
        <time>2021-08-12T12:48:33Z</time>
      </trkpt>
      <trkpt lat="43.80036" lon="5.14428">
        <ele>582.6</ele>
        <time>2021-08-12T12:48:39Z</time>
      </trkpt>
      <trkpt lat="43.80037" lon="5.1443">
        <ele>582.8</ele>
        <time>2021-08-12T12:48:40Z</time>
      </trkpt>
      <trkpt lat="43.80043" lon="5.14443">
        <ele>583.6</ele>
        <time>2021-08-12T12:48:48Z</time>
      </trkpt>
      <trkpt lat="43.80054" lon="5.14465">
        <ele>584.6</ele>
        <time>2021-08-12T12:49:02Z</time>
      </trkpt>
      <trkpt lat="43.80069" lon="5.14488">
        <ele>585.8</ele>
        <time>2021-08-12T12:49:17Z</time>
      </trkpt>
      <trkpt lat="43.80076" lon="5.14498">
        <ele>586.8</ele>
        <time>2021-08-12T12:49:25Z</time>
      </trkpt>
      <trkpt lat="43.80085" lon="5.14511">
        <ele>588</ele>
        <time>2021-08-12T12:49:34Z</time>
      </trkpt>
      <trkpt lat="43.80097" lon="5.14526">
        <ele>589</ele>
        <time>2021-08-12T12:49:46Z</time>
      </trkpt>
      <trkpt lat="43.80113" lon="5.1455">
        <ele>590.2</ele>
        <time>2021-08-12T12:50:01Z</time>
      </trkpt>
      <trkpt lat="43.80125" lon="5.14569">
        <ele>591.2</ele>
        <time>2021-08-12T12:50:13Z</time>
      </trkpt>
      <trkpt lat="43.80133" lon="5.14596">
        <ele>592.2</ele>
        <time>2021-08-12T12:50:27Z</time>
      </trkpt>
      <trkpt lat="43.80136" lon="5.14608">
        <ele>593.4</ele>
        <time>2021-08-12T12:50:33Z</time>
      </trkpt>
      <trkpt lat="43.80137" lon="5.14636">
        <ele>594.4</ele>
        <time>2021-08-12T12:50:46Z</time>
      </trkpt>
      <trkpt lat="43.8014" lon="5.14655">
        <ele>595.4</ele>
        <time>2021-08-12T12:50:56Z</time>
      </trkpt>
      <trkpt lat="43.8014" lon="5.14657">
        <ele>595.6</ele>
        <time>2021-08-12T12:50:57Z</time>
      </trkpt>
      <trkpt lat="43.80151" lon="5.14677">
        <ele>596.6</ele>
        <time>2021-08-12T12:51:11Z</time>
      </trkpt>
      <trkpt lat="43.80158" lon="5.14688">
        <ele>597.6</ele>
        <time>2021-08-12T12:51:19Z</time>
      </trkpt>
      <trkpt lat="43.80169" lon="5.14705">
        <ele>598.6</ele>
        <time>2021-08-12T12:51:30Z</time>
      </trkpt>
      <trkpt lat="43.80211" lon="5.14758">
        <ele>598.6</ele>
        <time>2021-08-12T12:51:50Z</time>
      </trkpt>
      <trkpt lat="43.80228" lon="5.14771">
        <ele>597</ele>
        <time>2021-08-12T12:51:53Z</time>
      </trkpt>
      <trkpt lat="43.80239" lon="5.14779">
        <ele>596</ele>
        <time>2021-08-12T12:51:55Z</time>
      </trkpt>
      <trkpt lat="43.8028" lon="5.14832">
        <ele>595</ele>
        <time>2021-08-12T12:52:05Z</time>
      </trkpt>
      <trkpt lat="43.80285" lon="5.14839">
        <ele>594.6</ele>
        <time>2021-08-12T12:52:06Z</time>
      </trkpt>
      <trkpt lat="43.80303" lon="5.14856">
        <ele>593.6</ele>
        <time>2021-08-12T12:52:09Z</time>
      </trkpt>
      <trkpt lat="43.80326" lon="5.14869">
        <ele>592.4</ele>
        <time>2021-08-12T12:52:13Z</time>
      </trkpt>
      <trkpt lat="43.80336" lon="5.14874">
        <ele>593.6</ele>
        <time>2021-08-12T12:52:15Z</time>
      </trkpt>
      <trkpt lat="43.80343" lon="5.14879">
        <ele>594.6</ele>
        <time>2021-08-12T12:52:17Z</time>
      </trkpt>
      <trkpt lat="43.80347" lon="5.14883">
        <ele>595.6</ele>
        <time>2021-08-12T12:52:19Z</time>
      </trkpt>
      <trkpt lat="43.80351" lon="5.14886">
        <ele>596.8</ele>
        <time>2021-08-12T12:52:21Z</time>
      </trkpt>
      <trkpt lat="43.80355" lon="5.14893">
        <ele>597.8</ele>
        <time>2021-08-12T12:52:26Z</time>
      </trkpt>
      <trkpt lat="43.80359" lon="5.14899">
        <ele>599</ele>
        <time>2021-08-12T12:52:31Z</time>
      </trkpt>
      <trkpt lat="43.80365" lon="5.14908">
        <ele>600.2</ele>
        <time>2021-08-12T12:52:39Z</time>
      </trkpt>
      <trkpt lat="43.80371" lon="5.14917">
        <ele>601.2</ele>
        <time>2021-08-12T12:52:47Z</time>
      </trkpt>
      <trkpt lat="43.80375" lon="5.14923">
        <ele>602.2</ele>
        <time>2021-08-12T12:52:53Z</time>
      </trkpt>
      <trkpt lat="43.80381" lon="5.14933">
        <ele>603.4</ele>
        <time>2021-08-12T12:53:03Z</time>
      </trkpt>
      <trkpt lat="43.80385" lon="5.14938">
        <ele>604.4</ele>
        <time>2021-08-12T12:53:08Z</time>
      </trkpt>
      <trkpt lat="43.80389" lon="5.14944">
        <ele>605.4</ele>
        <time>2021-08-12T12:53:14Z</time>
      </trkpt>
      <trkpt lat="43.80394" lon="5.1495">
        <ele>606.6</ele>
        <time>2021-08-12T12:53:22Z</time>
      </trkpt>
      <trkpt lat="43.80406" lon="5.1496">
        <ele>607.6</ele>
        <time>2021-08-12T12:53:34Z</time>
      </trkpt>
      <trkpt lat="43.80418" lon="5.14964">
        <ele>608.6</ele>
        <time>2021-08-12T12:53:44Z</time>
      </trkpt>
      <trkpt lat="43.80426" lon="5.14959">
        <ele>609.8</ele>
        <time>2021-08-12T12:53:52Z</time>
      </trkpt>
      <trkpt lat="43.80429" lon="5.14956">
        <ele>610.2</ele>
        <time>2021-08-12T12:53:55Z</time>
      </trkpt>
      <trkpt lat="43.80439" lon="5.14942">
        <ele>611</ele>
        <time>2021-08-12T12:54:05Z</time>
      </trkpt>
      <trkpt lat="43.80453" lon="5.14912">
        <ele>612</ele>
        <time>2021-08-12T12:54:23Z</time>
      </trkpt>
      <trkpt lat="43.80463" lon="5.14887">
        <ele>613.2</ele>
        <time>2021-08-12T12:54:36Z</time>
      </trkpt>
      <trkpt lat="43.8047" lon="5.14865">
        <ele>614.2</ele>
        <time>2021-08-12T12:54:48Z</time>
      </trkpt>
      <trkpt lat="43.80473" lon="5.14849">
        <ele>615.2</ele>
        <time>2021-08-12T12:54:56Z</time>
      </trkpt>
      <trkpt lat="43.80477" lon="5.14818">
        <ele>616.4</ele>
        <time>2021-08-12T12:55:10Z</time>
      </trkpt>
      <trkpt lat="43.80487" lon="5.14757">
        <ele>616.6</ele>
        <time>2021-08-12T12:55:29Z</time>
      </trkpt>
      <trkpt lat="43.80492" lon="5.14739">
        <ele>617.4</ele>
        <time>2021-08-12T12:55:35Z</time>
      </trkpt>
      <trkpt lat="43.80499" lon="5.14717">
        <ele>618.6</ele>
        <time>2021-08-12T12:55:44Z</time>
      </trkpt>
      <trkpt lat="43.80508" lon="5.14713">
        <ele>619.6</ele>
        <time>2021-08-12T12:55:51Z</time>
      </trkpt>
      <trkpt lat="43.80514" lon="5.1472">
        <ele>620.8</ele>
        <time>2021-08-12T12:55:57Z</time>
      </trkpt>
      <trkpt lat="43.80515" lon="5.14722">
        <ele>621</ele>
        <time>2021-08-12T12:55:58Z</time>
      </trkpt>
      <trkpt lat="43.80519" lon="5.14737">
        <ele>621.8</ele>
        <time>2021-08-12T12:56:06Z</time>
      </trkpt>
      <trkpt lat="43.80521" lon="5.14757">
        <ele>623</ele>
        <time>2021-08-12T12:56:16Z</time>
      </trkpt>
      <trkpt lat="43.80524" lon="5.14778">
        <ele>624</ele>
        <time>2021-08-12T12:56:27Z</time>
      </trkpt>
      <trkpt lat="43.80526" lon="5.14791">
        <ele>624.8</ele>
        <time>2021-08-12T12:56:34Z</time>
      </trkpt>
      <trkpt lat="43.80526" lon="5.14794">
        <ele>625</ele>
        <time>2021-08-12T12:56:36Z</time>
      </trkpt>
      <trkpt lat="43.80529" lon="5.14813">
        <ele>626</ele>
        <time>2021-08-12T12:56:46Z</time>
      </trkpt>
      <trkpt lat="43.80532" lon="5.14833">
        <ele>627</ele>
        <time>2021-08-12T12:56:56Z</time>
      </trkpt>
      <trkpt lat="43.80532" lon="5.14856">
        <ele>628</ele>
        <time>2021-08-12T12:57:07Z</time>
      </trkpt>
      <trkpt lat="43.80529" lon="5.14885">
        <ele>629.2</ele>
        <time>2021-08-12T12:57:21Z</time>
      </trkpt>
      <trkpt lat="43.80525" lon="5.14905">
        <ele>630.2</ele>
        <time>2021-08-12T12:57:31Z</time>
      </trkpt>
      <trkpt lat="43.80518" lon="5.14928">
        <ele>631.2</ele>
        <time>2021-08-12T12:57:43Z</time>
      </trkpt>
      <trkpt lat="43.80512" lon="5.14947">
        <ele>632.2</ele>
        <time>2021-08-12T12:57:53Z</time>
      </trkpt>
      <trkpt lat="43.80509" lon="5.14956">
        <ele>632.8</ele>
        <time>2021-08-12T12:57:58Z</time>
      </trkpt>
      <trkpt lat="43.80504" lon="5.1497">
        <ele>633.2</ele>
        <time>2021-08-12T12:58:05Z</time>
      </trkpt>
      <trkpt lat="43.80494" lon="5.15004">
        <ele>634.2</ele>
        <time>2021-08-12T12:58:21Z</time>
      </trkpt>
      <trkpt lat="43.80487" lon="5.15031">
        <ele>635.2</ele>
        <time>2021-08-12T12:58:32Z</time>
      </trkpt>
      <trkpt lat="43.80484" lon="5.15057">
        <ele>636.4</ele>
        <time>2021-08-12T12:58:41Z</time>
      </trkpt>
      <trkpt lat="43.80484" lon="5.15079">
        <ele>637.4</ele>
        <time>2021-08-12T12:58:49Z</time>
      </trkpt>
      <trkpt lat="43.80485" lon="5.15105">
        <ele>638.6</ele>
        <time>2021-08-12T12:58:59Z</time>
      </trkpt>
      <trkpt lat="43.80481" lon="5.15141">
        <ele>639.6</ele>
        <time>2021-08-12T12:59:13Z</time>
      </trkpt>
      <trkpt lat="43.80482" lon="5.15143">
        <ele>639.8</ele>
        <time>2021-08-12T12:59:14Z</time>
      </trkpt>
      <trkpt lat="43.8049" lon="5.15163">
        <ele>640.6</ele>
        <time>2021-08-12T12:59:24Z</time>
      </trkpt>
      <trkpt lat="43.80513" lon="5.15153">
        <ele>641</ele>
        <time>2021-08-12T13:02:12Z</time>
      </trkpt>
      <trkpt lat="43.80516" lon="5.1515">
        <ele>641</ele>
        <time>2021-08-12T13:02:14Z</time>
      </trkpt>
      <trkpt lat="43.80522" lon="5.15145">
        <ele>641.4</ele>
        <time>2021-08-12T13:02:27Z</time>
      </trkpt>
      <trkpt lat="43.80525" lon="5.15144">
        <ele>641.2</ele>
        <time>2021-08-12T13:02:29Z</time>
      </trkpt>
      <trkpt lat="43.80547" lon="5.15157">
        <ele>641.6</ele>
        <time>2021-08-12T13:02:40Z</time>
      </trkpt>
      <trkpt lat="43.80601" lon="5.15139">
        <ele>641.2</ele>
        <time>2021-08-12T13:02:59Z</time>
      </trkpt>
      <trkpt lat="43.80615" lon="5.15133">
        <ele>641.4</ele>
        <time>2021-08-12T13:03:04Z</time>
      </trkpt>
      <trkpt lat="43.80666" lon="5.15106">
        <ele>641.8</ele>
        <time>2021-08-12T13:03:24Z</time>
      </trkpt>
      <trkpt lat="43.80714" lon="5.15069">
        <ele>641.2</ele>
        <time>2021-08-12T13:03:38Z</time>
      </trkpt>
      <trkpt lat="43.80738" lon="5.15051">
        <ele>641</ele>
        <time>2021-08-12T13:03:45Z</time>
      </trkpt>
      <trkpt lat="43.80761" lon="5.15037">
        <ele>641.2</ele>
        <time>2021-08-12T13:03:51Z</time>
      </trkpt>
      <trkpt lat="43.8077" lon="5.15031">
        <ele>641.2</ele>
        <time>2021-08-12T13:03:53Z</time>
      </trkpt>
      <trkpt lat="43.808" lon="5.15012">
        <ele>640.6</ele>
        <time>2021-08-12T13:04:00Z</time>
      </trkpt>
      <trkpt lat="43.80829" lon="5.15002">
        <ele>639.6</ele>
        <time>2021-08-12T13:04:06Z</time>
      </trkpt>
      <trkpt lat="43.80837" lon="5.14995">
        <ele>639.6</ele>
        <time>2021-08-12T13:04:08Z</time>
      </trkpt>
      <trkpt lat="43.80844" lon="5.14982">
        <ele>639.4</ele>
        <time>2021-08-12T13:04:10Z</time>
      </trkpt>
      <trkpt lat="43.80851" lon="5.14969">
        <ele>639</ele>
        <time>2021-08-12T13:04:12Z</time>
      </trkpt>
      <trkpt lat="43.80858" lon="5.14954">
        <ele>638.4</ele>
        <time>2021-08-12T13:04:14Z</time>
      </trkpt>
      <trkpt lat="43.8087" lon="5.14931">
        <ele>637.2</ele>
        <time>2021-08-12T13:04:17Z</time>
      </trkpt>
      <trkpt lat="43.80884" lon="5.14907">
        <ele>636.2</ele>
        <time>2021-08-12T13:04:20Z</time>
      </trkpt>
      <trkpt lat="43.80893" lon="5.14889">
        <ele>635</ele>
        <time>2021-08-12T13:04:22Z</time>
      </trkpt>
      <trkpt lat="43.80902" lon="5.14871">
        <ele>633.8</ele>
        <time>2021-08-12T13:04:24Z</time>
      </trkpt>
      <trkpt lat="43.80915" lon="5.14845">
        <ele>632.6</ele>
        <time>2021-08-12T13:04:27Z</time>
      </trkpt>
      <trkpt lat="43.80925" lon="5.14833">
        <ele>631.6</ele>
        <time>2021-08-12T13:04:29Z</time>
      </trkpt>
      <trkpt lat="43.80931" lon="5.14828">
        <ele>630.8</ele>
        <time>2021-08-12T13:04:30Z</time>
      </trkpt>
      <trkpt lat="43.80944" lon="5.14817">
        <ele>629.8</ele>
        <time>2021-08-12T13:04:32Z</time>
      </trkpt>
      <trkpt lat="43.80957" lon="5.14803">
        <ele>628.6</ele>
        <time>2021-08-12T13:04:34Z</time>
      </trkpt>
      <trkpt lat="43.80983" lon="5.14773">
        <ele>627.4</ele>
        <time>2021-08-12T13:04:38Z</time>
      </trkpt>
      <trkpt lat="43.81002" lon="5.14751">
        <ele>626.2</ele>
        <time>2021-08-12T13:04:41Z</time>
      </trkpt>
      <trkpt lat="43.81021" lon="5.1473">
        <ele>625.6</ele>
        <time>2021-08-12T13:04:44Z</time>
      </trkpt>
      <trkpt lat="43.81031" lon="5.14716">
        <ele>624.6</ele>
        <time>2021-08-12T13:04:46Z</time>
      </trkpt>
      <trkpt lat="43.81068" lon="5.14671">
        <ele>624.8</ele>
        <time>2021-08-12T13:04:53Z</time>
      </trkpt>
      <trkpt lat="43.81087" lon="5.1465">
        <ele>625.8</ele>
        <time>2021-08-12T13:04:57Z</time>
      </trkpt>
      <trkpt lat="43.81125" lon="5.14588">
        <ele>626</ele>
        <time>2021-08-12T13:05:08Z</time>
      </trkpt>
      <trkpt lat="43.81145" lon="5.14542">
        <ele>624.6</ele>
        <time>2021-08-12T13:05:15Z</time>
      </trkpt>
      <trkpt lat="43.8115" lon="5.14517">
        <ele>623.2</ele>
        <time>2021-08-12T13:05:18Z</time>
      </trkpt>
      <trkpt lat="43.81151" lon="5.14498">
        <ele>622</ele>
        <time>2021-08-12T13:05:20Z</time>
      </trkpt>
      <trkpt lat="43.81153" lon="5.14478">
        <ele>620.8</ele>
        <time>2021-08-12T13:05:22Z</time>
      </trkpt>
      <trkpt lat="43.81155" lon="5.14457">
        <ele>619.8</ele>
        <time>2021-08-12T13:05:24Z</time>
      </trkpt>
      <trkpt lat="43.81158" lon="5.14435">
        <ele>618.2</ele>
        <time>2021-08-12T13:05:26Z</time>
      </trkpt>
      <trkpt lat="43.81161" lon="5.14413">
        <ele>616.6</ele>
        <time>2021-08-12T13:05:28Z</time>
      </trkpt>
      <trkpt lat="43.81165" lon="5.14392">
        <ele>615.4</ele>
        <time>2021-08-12T13:05:30Z</time>
      </trkpt>
      <trkpt lat="43.81167" lon="5.14371">
        <ele>614.2</ele>
        <time>2021-08-12T13:05:32Z</time>
      </trkpt>
      <trkpt lat="43.81168" lon="5.1435">
        <ele>613.2</ele>
        <time>2021-08-12T13:05:34Z</time>
      </trkpt>
      <trkpt lat="43.8117" lon="5.1434">
        <ele>612.8</ele>
        <time>2021-08-12T13:05:35Z</time>
      </trkpt>
      <trkpt lat="43.81175" lon="5.1431">
        <ele>612</ele>
        <time>2021-08-12T13:05:38Z</time>
      </trkpt>
      <trkpt lat="43.81185" lon="5.1427">
        <ele>610.6</ele>
        <time>2021-08-12T13:05:43Z</time>
      </trkpt>
      <trkpt lat="43.8119" lon="5.14255">
        <ele>609.4</ele>
        <time>2021-08-12T13:05:45Z</time>
      </trkpt>
      <trkpt lat="43.81196" lon="5.14242">
        <ele>608.2</ele>
        <time>2021-08-12T13:05:47Z</time>
      </trkpt>
      <trkpt lat="43.81212" lon="5.14215">
        <ele>607</ele>
        <time>2021-08-12T13:05:51Z</time>
      </trkpt>
      <trkpt lat="43.81226" lon="5.14195">
        <ele>605.6</ele>
        <time>2021-08-12T13:05:54Z</time>
      </trkpt>
      <trkpt lat="43.81233" lon="5.14184">
        <ele>605.2</ele>
        <time>2021-08-12T13:05:56Z</time>
      </trkpt>
      <trkpt lat="43.8124" lon="5.14173">
        <ele>604.6</ele>
        <time>2021-08-12T13:05:58Z</time>
      </trkpt>
      <trkpt lat="43.81244" lon="5.14166">
        <ele>603.6</ele>
        <time>2021-08-12T13:06:00Z</time>
      </trkpt>
      <trkpt lat="43.81246" lon="5.14164">
        <ele>603.4</ele>
        <time>2021-08-12T13:06:01Z</time>
      </trkpt>
      <trkpt lat="43.81257" lon="5.14148">
        <ele>602.2</ele>
        <time>2021-08-12T13:06:07Z</time>
      </trkpt>
      <trkpt lat="43.81262" lon="5.14148">
        <ele>601.2</ele>
        <time>2021-08-12T13:06:14Z</time>
      </trkpt>
      <trkpt lat="43.8127" lon="5.14152">
        <ele>600.6</ele>
        <time>2021-08-12T13:06:21Z</time>
      </trkpt>
      <trkpt lat="43.81279" lon="5.14155">
        <ele>599.8</ele>
        <time>2021-08-12T13:06:24Z</time>
      </trkpt>
      <trkpt lat="43.81285" lon="5.14156">
        <ele>598.8</ele>
        <time>2021-08-12T13:06:26Z</time>
      </trkpt>
      <trkpt lat="43.81291" lon="5.14157">
        <ele>597.6</ele>
        <time>2021-08-12T13:06:28Z</time>
      </trkpt>
      <trkpt lat="43.81298" lon="5.14157">
        <ele>596.2</ele>
        <time>2021-08-12T13:06:30Z</time>
      </trkpt>
      <trkpt lat="43.81302" lon="5.14157">
        <ele>594.4</ele>
        <time>2021-08-12T13:06:32Z</time>
      </trkpt>
      <trkpt lat="43.81304" lon="5.14157">
        <ele>593.8</ele>
        <time>2021-08-12T13:06:33Z</time>
      </trkpt>
      <trkpt lat="43.81307" lon="5.14157">
        <ele>593.2</ele>
        <time>2021-08-12T13:06:35Z</time>
      </trkpt>
      <trkpt lat="43.81311" lon="5.14158">
        <ele>591.8</ele>
        <time>2021-08-12T13:06:39Z</time>
      </trkpt>
      <trkpt lat="43.81314" lon="5.14156">
        <ele>591.2</ele>
        <time>2021-08-12T13:06:41Z</time>
      </trkpt>
      <trkpt lat="43.81317" lon="5.14152">
        <ele>590.6</ele>
        <time>2021-08-12T13:06:43Z</time>
      </trkpt>
      <trkpt lat="43.81318" lon="5.14151">
        <ele>590.2</ele>
        <time>2021-08-12T13:06:44Z</time>
      </trkpt>
      <trkpt lat="43.81321" lon="5.14148">
        <ele>589.4</ele>
        <time>2021-08-12T13:06:46Z</time>
      </trkpt>
      <trkpt lat="43.81324" lon="5.14145">
        <ele>588.4</ele>
        <time>2021-08-12T13:06:48Z</time>
      </trkpt>
      <trkpt lat="43.81326" lon="5.14142">
        <ele>587</ele>
        <time>2021-08-12T13:06:50Z</time>
      </trkpt>
      <trkpt lat="43.81331" lon="5.14136">
        <ele>585.8</ele>
        <time>2021-08-12T13:06:53Z</time>
      </trkpt>
      <trkpt lat="43.81333" lon="5.14134">
        <ele>585.2</ele>
        <time>2021-08-12T13:06:54Z</time>
      </trkpt>
      <trkpt lat="43.81335" lon="5.14134">
        <ele>584.6</ele>
        <time>2021-08-12T13:06:55Z</time>
      </trkpt>
      <trkpt lat="43.81339" lon="5.14133">
        <ele>583.8</ele>
        <time>2021-08-12T13:06:57Z</time>
      </trkpt>
      <trkpt lat="43.81341" lon="5.14131">
        <ele>583.4</ele>
        <time>2021-08-12T13:06:58Z</time>
      </trkpt>
      <trkpt lat="43.81348" lon="5.14127">
        <ele>582.2</ele>
        <time>2021-08-12T13:07:01Z</time>
      </trkpt>
      <trkpt lat="43.81351" lon="5.14124">
        <ele>581</ele>
        <time>2021-08-12T13:07:03Z</time>
      </trkpt>
      <trkpt lat="43.81358" lon="5.14117">
        <ele>579.6</ele>
        <time>2021-08-12T13:07:07Z</time>
      </trkpt>
      <trkpt lat="43.81362" lon="5.14112">
        <ele>578.6</ele>
        <time>2021-08-12T13:07:09Z</time>
      </trkpt>
      <trkpt lat="43.81367" lon="5.14105">
        <ele>577.2</ele>
        <time>2021-08-12T13:07:12Z</time>
      </trkpt>
      <trkpt lat="43.81374" lon="5.14096">
        <ele>576</ele>
        <time>2021-08-12T13:07:16Z</time>
      </trkpt>
      <trkpt lat="43.81378" lon="5.14094">
        <ele>574.8</ele>
        <time>2021-08-12T13:07:18Z</time>
      </trkpt>
      <trkpt lat="43.81382" lon="5.14092">
        <ele>573.4</ele>
        <time>2021-08-12T13:07:20Z</time>
      </trkpt>
      <trkpt lat="43.81388" lon="5.1409">
        <ele>572.2</ele>
        <time>2021-08-12T13:07:22Z</time>
      </trkpt>
      <trkpt lat="43.8139" lon="5.14089">
        <ele>571.8</ele>
        <time>2021-08-12T13:07:23Z</time>
      </trkpt>
      <trkpt lat="43.81394" lon="5.14084">
        <ele>570.8</ele>
        <time>2021-08-12T13:07:25Z</time>
      </trkpt>
      <trkpt lat="43.81398" lon="5.1408">
        <ele>569.8</ele>
        <time>2021-08-12T13:07:27Z</time>
      </trkpt>
      <trkpt lat="43.814" lon="5.14078">
        <ele>568.6</ele>
        <time>2021-08-12T13:07:29Z</time>
      </trkpt>
      <trkpt lat="43.81406" lon="5.14074">
        <ele>567.2</ele>
        <time>2021-08-12T13:07:32Z</time>
      </trkpt>
      <trkpt lat="43.81416" lon="5.14068">
        <ele>566.2</ele>
        <time>2021-08-12T13:07:36Z</time>
      </trkpt>
      <trkpt lat="43.81424" lon="5.14063">
        <ele>564.6</ele>
        <time>2021-08-12T13:07:39Z</time>
      </trkpt>
      <trkpt lat="43.8143" lon="5.14062">
        <ele>563.4</ele>
        <time>2021-08-12T13:07:41Z</time>
      </trkpt>
      <trkpt lat="43.81434" lon="5.14061">
        <ele>562</ele>
        <time>2021-08-12T13:07:43Z</time>
      </trkpt>
      <trkpt lat="43.81446" lon="5.14055">
        <ele>560.8</ele>
        <time>2021-08-12T13:07:47Z</time>
      </trkpt>
      <trkpt lat="43.81454" lon="5.14051">
        <ele>559.4</ele>
        <time>2021-08-12T13:07:50Z</time>
      </trkpt>
      <trkpt lat="43.81461" lon="5.1405">
        <ele>558.2</ele>
        <time>2021-08-12T13:07:53Z</time>
      </trkpt>
      <trkpt lat="43.81468" lon="5.14044">
        <ele>557</ele>
        <time>2021-08-12T13:07:56Z</time>
      </trkpt>
      <trkpt lat="43.8147" lon="5.14042">
        <ele>556.6</ele>
        <time>2021-08-12T13:07:57Z</time>
      </trkpt>
      <trkpt lat="43.81472" lon="5.14039">
        <ele>556</ele>
        <time>2021-08-12T13:07:58Z</time>
      </trkpt>
      <trkpt lat="43.81479" lon="5.14028">
        <ele>554.6</ele>
        <time>2021-08-12T13:08:01Z</time>
      </trkpt>
      <trkpt lat="43.81485" lon="5.14023">
        <ele>553.4</ele>
        <time>2021-08-12T13:08:03Z</time>
      </trkpt>
      <trkpt lat="43.81494" lon="5.14012">
        <ele>552.2</ele>
        <time>2021-08-12T13:08:07Z</time>
      </trkpt>
      <trkpt lat="43.81499" lon="5.14002">
        <ele>551.2</ele>
        <time>2021-08-12T13:08:10Z</time>
      </trkpt>
      <trkpt lat="43.81502" lon="5.13997">
        <ele>550.8</ele>
        <time>2021-08-12T13:08:12Z</time>
      </trkpt>
      <trkpt lat="43.81508" lon="5.13988">
        <ele>550</ele>
        <time>2021-08-12T13:08:15Z</time>
      </trkpt>
      <trkpt lat="43.81512" lon="5.13975">
        <ele>548.8</ele>
        <time>2021-08-12T13:08:18Z</time>
      </trkpt>
      <trkpt lat="43.81515" lon="5.1396">
        <ele>547.6</ele>
        <time>2021-08-12T13:08:22Z</time>
      </trkpt>
      <trkpt lat="43.81519" lon="5.1395">
        <ele>546.4</ele>
        <time>2021-08-12T13:08:26Z</time>
      </trkpt>
      <trkpt lat="43.81525" lon="5.13939">
        <ele>545</ele>
        <time>2021-08-12T13:08:29Z</time>
      </trkpt>
      <trkpt lat="43.81529" lon="5.13928">
        <ele>544</ele>
        <time>2021-08-12T13:08:33Z</time>
      </trkpt>
      <trkpt lat="43.81531" lon="5.13908">
        <ele>543</ele>
        <time>2021-08-12T13:08:39Z</time>
      </trkpt>
      <trkpt lat="43.81533" lon="5.13898">
        <ele>542</ele>
        <time>2021-08-12T13:08:42Z</time>
      </trkpt>
      <trkpt lat="43.81533" lon="5.13894">
        <ele>541.6</ele>
        <time>2021-08-12T13:08:43Z</time>
      </trkpt>
      <trkpt lat="43.81534" lon="5.13874">
        <ele>540.4</ele>
        <time>2021-08-12T13:08:47Z</time>
      </trkpt>
      <trkpt lat="43.81533" lon="5.1386">
        <ele>539.4</ele>
        <time>2021-08-12T13:08:51Z</time>
      </trkpt>
      <trkpt lat="43.81534" lon="5.13839">
        <ele>538.2</ele>
        <time>2021-08-12T13:08:56Z</time>
      </trkpt>
      <trkpt lat="43.81535" lon="5.13818">
        <ele>537.2</ele>
        <time>2021-08-12T13:09:01Z</time>
      </trkpt>
      <trkpt lat="43.8154" lon="5.13809">
        <ele>535.6</ele>
        <time>2021-08-12T13:09:04Z</time>
      </trkpt>
      <trkpt lat="43.81542" lon="5.13802">
        <ele>534.8</ele>
        <time>2021-08-12T13:09:06Z</time>
      </trkpt>
      <trkpt lat="43.81543" lon="5.13799">
        <ele>534.4</ele>
        <time>2021-08-12T13:09:07Z</time>
      </trkpt>
      <trkpt lat="43.81549" lon="5.13787">
        <ele>532.8</ele>
        <time>2021-08-12T13:09:11Z</time>
      </trkpt>
      <trkpt lat="43.81556" lon="5.13777">
        <ele>531.8</ele>
        <time>2021-08-12T13:09:15Z</time>
      </trkpt>
      <trkpt lat="43.81562" lon="5.13768">
        <ele>530.8</ele>
        <time>2021-08-12T13:09:19Z</time>
      </trkpt>
      <trkpt lat="43.81573" lon="5.13757">
        <ele>529.4</ele>
        <time>2021-08-12T13:09:24Z</time>
      </trkpt>
      <trkpt lat="43.81579" lon="5.13752">
        <ele>528.2</ele>
        <time>2021-08-12T13:09:27Z</time>
      </trkpt>
      <trkpt lat="43.81589" lon="5.13748">
        <ele>527.2</ele>
        <time>2021-08-12T13:09:31Z</time>
      </trkpt>
      <trkpt lat="43.81598" lon="5.13744">
        <ele>526</ele>
        <time>2021-08-12T13:09:35Z</time>
      </trkpt>
      <trkpt lat="43.81606" lon="5.13738">
        <ele>524.6</ele>
        <time>2021-08-12T13:09:39Z</time>
      </trkpt>
      <trkpt lat="43.81615" lon="5.13735">
        <ele>523.4</ele>
        <time>2021-08-12T13:09:42Z</time>
      </trkpt>
      <trkpt lat="43.8163" lon="5.1373">
        <ele>521.8</ele>
        <time>2021-08-12T13:09:46Z</time>
      </trkpt>
      <trkpt lat="43.81639" lon="5.13723">
        <ele>520.8</ele>
        <time>2021-08-12T13:09:49Z</time>
      </trkpt>
      <trkpt lat="43.81649" lon="5.13709">
        <ele>519.8</ele>
        <time>2021-08-12T13:09:53Z</time>
      </trkpt>
      <trkpt lat="43.81652" lon="5.13702">
        <ele>518.6</ele>
        <time>2021-08-12T13:09:55Z</time>
      </trkpt>
      <trkpt lat="43.81655" lon="5.13694">
        <ele>517.6</ele>
        <time>2021-08-12T13:09:57Z</time>
      </trkpt>
      <trkpt lat="43.81659" lon="5.13679">
        <ele>516.6</ele>
        <time>2021-08-12T13:10:01Z</time>
      </trkpt>
      <trkpt lat="43.81662" lon="5.13662">
        <ele>515.2</ele>
        <time>2021-08-12T13:10:05Z</time>
      </trkpt>
      <trkpt lat="43.81663" lon="5.13644">
        <ele>514</ele>
        <time>2021-08-12T13:10:10Z</time>
      </trkpt>
      <trkpt lat="43.81668" lon="5.13627">
        <ele>512.8</ele>
        <time>2021-08-12T13:10:14Z</time>
      </trkpt>
      <trkpt lat="43.81672" lon="5.1361">
        <ele>511.8</ele>
        <time>2021-08-12T13:10:19Z</time>
      </trkpt>
      <trkpt lat="43.81673" lon="5.13606">
        <ele>511.8</ele>
        <time>2021-08-12T13:10:20Z</time>
      </trkpt>
      <trkpt lat="43.81669" lon="5.13591">
        <ele>510.8</ele>
        <time>2021-08-12T13:10:26Z</time>
      </trkpt>
      <trkpt lat="43.81666" lon="5.13579">
        <ele>509.8</ele>
        <time>2021-08-12T13:10:30Z</time>
      </trkpt>
      <trkpt lat="43.81666" lon="5.13563">
        <ele>508.6</ele>
        <time>2021-08-12T13:10:34Z</time>
      </trkpt>
      <trkpt lat="43.81668" lon="5.1354">
        <ele>507.6</ele>
        <time>2021-08-12T13:10:40Z</time>
      </trkpt>
      <trkpt lat="43.81673" lon="5.13531">
        <ele>506.6</ele>
        <time>2021-08-12T13:10:44Z</time>
      </trkpt>
      <trkpt lat="43.81673" lon="5.13527">
        <ele>506.4</ele>
        <time>2021-08-12T13:10:45Z</time>
      </trkpt>
      <trkpt lat="43.81684" lon="5.13499">
        <ele>505.4</ele>
        <time>2021-08-12T13:10:52Z</time>
      </trkpt>
      <trkpt lat="43.81698" lon="5.1349">
        <ele>504.4</ele>
        <time>2021-08-12T13:10:58Z</time>
      </trkpt>
      <trkpt lat="43.817" lon="5.13488">
        <ele>504</ele>
        <time>2021-08-12T13:10:59Z</time>
      </trkpt>
      <trkpt lat="43.81707" lon="5.13478">
        <ele>503.2</ele>
        <time>2021-08-12T13:11:02Z</time>
      </trkpt>
      <trkpt lat="43.81723" lon="5.13451">
        <ele>502.2</ele>
        <time>2021-08-12T13:11:10Z</time>
      </trkpt>
      <trkpt lat="43.81735" lon="5.13439">
        <ele>501</ele>
        <time>2021-08-12T13:11:15Z</time>
      </trkpt>
      <trkpt lat="43.81751" lon="5.13431">
        <ele>499.8</ele>
        <time>2021-08-12T13:11:21Z</time>
      </trkpt>
      <trkpt lat="43.81764" lon="5.13417">
        <ele>499</ele>
        <time>2021-08-12T13:11:27Z</time>
      </trkpt>
      <trkpt lat="43.81771" lon="5.13413">
        <ele>498.8</ele>
        <time>2021-08-12T13:11:30Z</time>
      </trkpt>
      <trkpt lat="43.81807" lon="5.13402">
        <ele>497.6</ele>
        <time>2021-08-12T13:11:45Z</time>
      </trkpt>
      <trkpt lat="43.81812" lon="5.13398">
        <ele>497.4</ele>
        <time>2021-08-12T13:11:47Z</time>
      </trkpt>
      <trkpt lat="43.81827" lon="5.13402">
        <ele>496.2</ele>
        <time>2021-08-12T13:11:53Z</time>
      </trkpt>
      <trkpt lat="43.81849" lon="5.13402">
        <ele>495.2</ele>
        <time>2021-08-12T13:11:59Z</time>
      </trkpt>
      <trkpt lat="43.81868" lon="5.13404">
        <ele>494</ele>
        <time>2021-08-12T13:12:05Z</time>
      </trkpt>
      <trkpt lat="43.8189" lon="5.13411">
        <ele>493</ele>
        <time>2021-08-12T13:12:13Z</time>
      </trkpt>
      <trkpt lat="43.81906" lon="5.13416">
        <ele>491.8</ele>
        <time>2021-08-12T13:12:19Z</time>
      </trkpt>
      <trkpt lat="43.81919" lon="5.13438">
        <ele>490.6</ele>
        <time>2021-08-12T13:12:27Z</time>
      </trkpt>
      <trkpt lat="43.81921" lon="5.13444">
        <ele>490.4</ele>
        <time>2021-08-12T13:12:29Z</time>
      </trkpt>
      <trkpt lat="43.8192" lon="5.13453">
        <ele>490.2</ele>
        <time>2021-08-12T13:12:32Z</time>
      </trkpt>
      <trkpt lat="43.81922" lon="5.13462">
        <ele>489.6</ele>
        <time>2021-08-12T13:12:35Z</time>
      </trkpt>
      <trkpt lat="43.81923" lon="5.13466">
        <ele>489.4</ele>
        <time>2021-08-12T13:12:36Z</time>
      </trkpt>
      <trkpt lat="43.81928" lon="5.13476">
        <ele>488.6</ele>
        <time>2021-08-12T13:12:39Z</time>
      </trkpt>
      <trkpt lat="43.81938" lon="5.13489">
        <ele>488.2</ele>
        <time>2021-08-12T13:12:43Z</time>
      </trkpt>
      <trkpt lat="43.81955" lon="5.13505">
        <ele>487</ele>
        <time>2021-08-12T13:12:50Z</time>
      </trkpt>
      <trkpt lat="43.81968" lon="5.13505">
        <ele>486.2</ele>
        <time>2021-08-12T13:12:54Z</time>
      </trkpt>
      <trkpt lat="43.81974" lon="5.13502">
        <ele>486</ele>
        <time>2021-08-12T13:12:56Z</time>
      </trkpt>
      <trkpt lat="43.81985" lon="5.13505">
        <ele>485</ele>
        <time>2021-08-12T13:12:59Z</time>
      </trkpt>
      <trkpt lat="43.81989" lon="5.13505">
        <ele>484.6</ele>
        <time>2021-08-12T13:13:00Z</time>
      </trkpt>
      <trkpt lat="43.82002" lon="5.13502">
        <ele>483.8</ele>
        <time>2021-08-12T13:13:04Z</time>
      </trkpt>
      <trkpt lat="43.82014" lon="5.13493">
        <ele>482.6</ele>
        <time>2021-08-12T13:13:09Z</time>
      </trkpt>
      <trkpt lat="43.82024" lon="5.13485">
        <ele>482.4</ele>
        <time>2021-08-12T13:13:12Z</time>
      </trkpt>
      <trkpt lat="43.82038" lon="5.13482">
        <ele>481.4</ele>
        <time>2021-08-12T13:13:16Z</time>
      </trkpt>
      <trkpt lat="43.82057" lon="5.13488">
        <ele>480.2</ele>
        <time>2021-08-12T13:13:22Z</time>
      </trkpt>
      <trkpt lat="43.82074" lon="5.13485">
        <ele>479.2</ele>
        <time>2021-08-12T13:13:30Z</time>
      </trkpt>
      <trkpt lat="43.82075" lon="5.13483">
        <ele>479</ele>
        <time>2021-08-12T13:13:31Z</time>
      </trkpt>
      <trkpt lat="43.82089" lon="5.13457">
        <ele>478</ele>
        <time>2021-08-12T13:13:39Z</time>
      </trkpt>
      <trkpt lat="43.82093" lon="5.1345">
        <ele>477.8</ele>
        <time>2021-08-12T13:13:41Z</time>
      </trkpt>
      <trkpt lat="43.82105" lon="5.13432">
        <ele>477</ele>
        <time>2021-08-12T13:13:47Z</time>
      </trkpt>
      <trkpt lat="43.82108" lon="5.13431">
        <ele>476.8</ele>
        <time>2021-08-12T13:13:48Z</time>
      </trkpt>
      <trkpt lat="43.8212" lon="5.13429">
        <ele>475.8</ele>
        <time>2021-08-12T13:13:53Z</time>
      </trkpt>
      <trkpt lat="43.82144" lon="5.13429">
        <ele>474.8</ele>
        <time>2021-08-12T13:14:01Z</time>
      </trkpt>
      <trkpt lat="43.8216" lon="5.13432">
        <ele>473.6</ele>
        <time>2021-08-12T13:14:07Z</time>
      </trkpt>
      <trkpt lat="43.82177" lon="5.13435">
        <ele>472.6</ele>
        <time>2021-08-12T13:14:12Z</time>
      </trkpt>
      <trkpt lat="43.82191" lon="5.13456">
        <ele>471.4</ele>
        <time>2021-08-12T13:14:18Z</time>
      </trkpt>
      <trkpt lat="43.82193" lon="5.13463">
        <ele>471.2</ele>
        <time>2021-08-12T13:14:20Z</time>
      </trkpt>
      <trkpt lat="43.82195" lon="5.13486">
        <ele>470.4</ele>
        <time>2021-08-12T13:14:26Z</time>
      </trkpt>
      <trkpt lat="43.82212" lon="5.13499">
        <ele>469.4</ele>
        <time>2021-08-12T13:14:31Z</time>
      </trkpt>
      <trkpt lat="43.82216" lon="5.13502">
        <ele>469.4</ele>
        <time>2021-08-12T13:14:32Z</time>
      </trkpt>
      <trkpt lat="43.82232" lon="5.13512">
        <ele>469</ele>
        <time>2021-08-12T13:14:37Z</time>
      </trkpt>
      <trkpt lat="43.82236" lon="5.13515">
        <ele>468.6</ele>
        <time>2021-08-12T13:14:39Z</time>
      </trkpt>
      <trkpt lat="43.8224" lon="5.1352">
        <ele>468.2</ele>
        <time>2021-08-12T13:14:41Z</time>
      </trkpt>
      <trkpt lat="43.82246" lon="5.13519">
        <ele>468.2</ele>
        <time>2021-08-12T13:14:46Z</time>
      </trkpt>
      <trkpt lat="43.82267" lon="5.13488">
        <ele>467</ele>
        <time>2021-08-12T13:14:58Z</time>
      </trkpt>
      <trkpt lat="43.82292" lon="5.13463">
        <ele>466</ele>
        <time>2021-08-12T13:15:08Z</time>
      </trkpt>
      <trkpt lat="43.82317" lon="5.13469">
        <ele>464.8</ele>
        <time>2021-08-12T13:15:15Z</time>
      </trkpt>
      <trkpt lat="43.82323" lon="5.13475">
        <ele>464.4</ele>
        <time>2021-08-12T13:15:17Z</time>
      </trkpt>
      <trkpt lat="43.82327" lon="5.13472">
        <ele>463.8</ele>
        <time>2021-08-12T13:15:19Z</time>
      </trkpt>
      <trkpt lat="43.82339" lon="5.13443">
        <ele>462.6</ele>
        <time>2021-08-12T13:15:26Z</time>
      </trkpt>
      <trkpt lat="43.82346" lon="5.13429">
        <ele>461.6</ele>
        <time>2021-08-12T13:15:29Z</time>
      </trkpt>
      <trkpt lat="43.82352" lon="5.13414">
        <ele>460.2</ele>
        <time>2021-08-12T13:15:32Z</time>
      </trkpt>
      <trkpt lat="43.82359" lon="5.13397">
        <ele>459.8</ele>
        <time>2021-08-12T13:15:36Z</time>
      </trkpt>
      <trkpt lat="43.82367" lon="5.13383">
        <ele>459.2</ele>
        <time>2021-08-12T13:15:40Z</time>
      </trkpt>
      <trkpt lat="43.82371" lon="5.13377">
        <ele>458.8</ele>
        <time>2021-08-12T13:15:42Z</time>
      </trkpt>
      <trkpt lat="43.82384" lon="5.13353">
        <ele>459</ele>
        <time>2021-08-12T13:15:48Z</time>
      </trkpt>
      <trkpt lat="43.82395" lon="5.13331">
        <ele>458.2</ele>
        <time>2021-08-12T13:15:53Z</time>
      </trkpt>
      <trkpt lat="43.82412" lon="5.13315">
        <ele>457.2</ele>
        <time>2021-08-12T13:15:58Z</time>
      </trkpt>
      <trkpt lat="43.8243" lon="5.13308">
        <ele>455.8</ele>
        <time>2021-08-12T13:16:03Z</time>
      </trkpt>
      <trkpt lat="43.82432" lon="5.13307">
        <ele>455.2</ele>
        <time>2021-08-12T13:16:04Z</time>
      </trkpt>
      <trkpt lat="43.82436" lon="5.13302">
        <ele>454.4</ele>
        <time>2021-08-12T13:16:06Z</time>
      </trkpt>
      <trkpt lat="43.8245" lon="5.13279">
        <ele>453.2</ele>
        <time>2021-08-12T13:16:12Z</time>
      </trkpt>
      <trkpt lat="43.8246" lon="5.13264">
        <ele>452</ele>
        <time>2021-08-12T13:16:16Z</time>
      </trkpt>
      <trkpt lat="43.82479" lon="5.13246">
        <ele>450.8</ele>
        <time>2021-08-12T13:16:22Z</time>
      </trkpt>
      <trkpt lat="43.82494" lon="5.13233">
        <ele>449.8</ele>
        <time>2021-08-12T13:16:27Z</time>
      </trkpt>
      <trkpt lat="43.82508" lon="5.1321">
        <ele>448.4</ele>
        <time>2021-08-12T13:16:32Z</time>
      </trkpt>
      <trkpt lat="43.82512" lon="5.13206">
        <ele>448</ele>
        <time>2021-08-12T13:16:33Z</time>
      </trkpt>
      <trkpt lat="43.82532" lon="5.13199">
        <ele>447.4</ele>
        <time>2021-08-12T13:16:38Z</time>
      </trkpt>
      <trkpt lat="43.82548" lon="5.13191">
        <ele>446.4</ele>
        <time>2021-08-12T13:16:43Z</time>
      </trkpt>
      <trkpt lat="43.82551" lon="5.13188">
        <ele>446.2</ele>
        <time>2021-08-12T13:16:44Z</time>
      </trkpt>
      <trkpt lat="43.8256" lon="5.13173">
        <ele>445.2</ele>
        <time>2021-08-12T13:16:48Z</time>
      </trkpt>
      <trkpt lat="43.82566" lon="5.13154">
        <ele>444.2</ele>
        <time>2021-08-12T13:16:52Z</time>
      </trkpt>
      <trkpt lat="43.82599" lon="5.13094">
        <ele>443.4</ele>
        <time>2021-08-12T13:17:07Z</time>
      </trkpt>
      <trkpt lat="43.82607" lon="5.13078">
        <ele>443.2</ele>
        <time>2021-08-12T13:17:12Z</time>
      </trkpt>
      <trkpt lat="43.82606" lon="5.1307">
        <ele>443.2</ele>
        <time>2021-08-12T13:17:14Z</time>
      </trkpt>
      <trkpt lat="43.82594" lon="5.13052">
        <ele>442</ele>
        <time>2021-08-12T13:17:19Z</time>
      </trkpt>
      <trkpt lat="43.82585" lon="5.13043">
        <ele>440.8</ele>
        <time>2021-08-12T13:17:22Z</time>
      </trkpt>
      <trkpt lat="43.82573" lon="5.13015">
        <ele>439.8</ele>
        <time>2021-08-12T13:17:30Z</time>
      </trkpt>
      <trkpt lat="43.82571" lon="5.12994">
        <ele>438.8</ele>
        <time>2021-08-12T13:17:34Z</time>
      </trkpt>
      <trkpt lat="43.82573" lon="5.12989">
        <ele>438.4</ele>
        <time>2021-08-12T13:17:35Z</time>
      </trkpt>
      <trkpt lat="43.82589" lon="5.12968">
        <ele>437.4</ele>
        <time>2021-08-12T13:17:42Z</time>
      </trkpt>
      <trkpt lat="43.82594" lon="5.12958">
        <ele>436.2</ele>
        <time>2021-08-12T13:17:44Z</time>
      </trkpt>
      <trkpt lat="43.82599" lon="5.12946">
        <ele>435.2</ele>
        <time>2021-08-12T13:17:47Z</time>
      </trkpt>
      <trkpt lat="43.82599" lon="5.12943">
        <ele>435</ele>
        <time>2021-08-12T13:17:48Z</time>
      </trkpt>
      <trkpt lat="43.82598" lon="5.12936">
        <ele>434</ele>
        <time>2021-08-12T13:17:50Z</time>
      </trkpt>
      <trkpt lat="43.82586" lon="5.12912">
        <ele>432.8</ele>
        <time>2021-08-12T13:17:56Z</time>
      </trkpt>
      <trkpt lat="43.82579" lon="5.12893">
        <ele>431.8</ele>
        <time>2021-08-12T13:18:00Z</time>
      </trkpt>
      <trkpt lat="43.82577" lon="5.12883">
        <ele>431.4</ele>
        <time>2021-08-12T13:18:02Z</time>
      </trkpt>
      <trkpt lat="43.82576" lon="5.12865">
        <ele>430.8</ele>
        <time>2021-08-12T13:18:05Z</time>
      </trkpt>
      <trkpt lat="43.82571" lon="5.1283">
        <ele>429.8</ele>
        <time>2021-08-12T13:18:12Z</time>
      </trkpt>
      <trkpt lat="43.82569" lon="5.12813">
        <ele>428.6</ele>
        <time>2021-08-12T13:18:15Z</time>
      </trkpt>
      <trkpt lat="43.82569" lon="5.128">
        <ele>428.2</ele>
        <time>2021-08-12T13:18:17Z</time>
      </trkpt>
      <trkpt lat="43.82572" lon="5.12782">
        <ele>427.6</ele>
        <time>2021-08-12T13:18:20Z</time>
      </trkpt>
      <trkpt lat="43.82583" lon="5.12754">
        <ele>426.4</ele>
        <time>2021-08-12T13:18:26Z</time>
      </trkpt>
      <trkpt lat="43.82586" lon="5.12742">
        <ele>425.8</ele>
        <time>2021-08-12T13:18:28Z</time>
      </trkpt>
      <trkpt lat="43.82592" lon="5.12726">
        <ele>425</ele>
        <time>2021-08-12T13:18:31Z</time>
      </trkpt>
      <trkpt lat="43.82597" lon="5.1271">
        <ele>424</ele>
        <time>2021-08-12T13:18:34Z</time>
      </trkpt>
      <trkpt lat="43.82598" lon="5.127">
        <ele>423</ele>
        <time>2021-08-12T13:18:36Z</time>
      </trkpt>
      <trkpt lat="43.82598" lon="5.12695">
        <ele>422.6</ele>
        <time>2021-08-12T13:18:37Z</time>
      </trkpt>
      <trkpt lat="43.82607" lon="5.12655">
        <ele>421.8</ele>
        <time>2021-08-12T13:18:46Z</time>
      </trkpt>
      <trkpt lat="43.82609" lon="5.12654">
        <ele>421.6</ele>
        <time>2021-08-12T13:18:47Z</time>
      </trkpt>
      <trkpt lat="43.82619" lon="5.12648">
        <ele>421.2</ele>
        <time>2021-08-12T13:18:52Z</time>
      </trkpt>
      <trkpt lat="43.82626" lon="5.12639">
        <ele>420.8</ele>
        <time>2021-08-12T13:18:56Z</time>
      </trkpt>
      <trkpt lat="43.82628" lon="5.12636">
        <ele>420.4</ele>
        <time>2021-08-12T13:18:57Z</time>
      </trkpt>
      <trkpt lat="43.82627" lon="5.12607">
        <ele>419.4</ele>
        <time>2021-08-12T13:19:05Z</time>
      </trkpt>
      <trkpt lat="43.82623" lon="5.12599">
        <ele>418.4</ele>
        <time>2021-08-12T13:19:07Z</time>
      </trkpt>
      <trkpt lat="43.82615" lon="5.12586">
        <ele>417.2</ele>
        <time>2021-08-12T13:19:10Z</time>
      </trkpt>
      <trkpt lat="43.82613" lon="5.12572">
        <ele>416.2</ele>
        <time>2021-08-12T13:19:18Z</time>
      </trkpt>
      <trkpt lat="43.82612" lon="5.12571">
        <ele>416.2</ele>
        <time>2021-08-12T13:19:32Z</time>
      </trkpt>
      <trkpt lat="43.82607" lon="5.12558">
        <ele>416.6</ele>
        <time>2021-08-12T13:20:27Z</time>
      </trkpt>
      <trkpt lat="43.82605" lon="5.12567">
        <ele>416.6</ele>
        <time>2021-08-12T13:20:44Z</time>
      </trkpt>
      <trkpt lat="43.82606" lon="5.12573">
        <ele>416.4</ele>
        <time>2021-08-12T13:20:47Z</time>
      </trkpt>
      <trkpt lat="43.82608" lon="5.12567">
        <ele>416.2</ele>
        <time>2021-08-12T13:21:17Z</time>
      </trkpt>
      <trkpt lat="43.82603" lon="5.12567">
        <ele>415.8</ele>
        <time>2021-08-12T13:21:31Z</time>
      </trkpt>
      <trkpt lat="43.82598" lon="5.1255">
        <ele>415.2</ele>
        <time>2021-08-12T13:21:37Z</time>
      </trkpt>
      <trkpt lat="43.82598" lon="5.12544">
        <ele>415</ele>
        <time>2021-08-12T13:21:39Z</time>
      </trkpt>
      <trkpt lat="43.826" lon="5.12537">
        <ele>415.2</ele>
        <time>2021-08-12T13:22:27Z</time>
      </trkpt>
      <trkpt lat="43.82599" lon="5.12531">
        <ele>415</ele>
        <time>2021-08-12T13:22:30Z</time>
      </trkpt>
      <trkpt lat="43.82594" lon="5.12512">
        <ele>413.8</ele>
        <time>2021-08-12T13:22:36Z</time>
      </trkpt>
      <trkpt lat="43.82587" lon="5.12495">
        <ele>412.8</ele>
        <time>2021-08-12T13:22:42Z</time>
      </trkpt>
      <trkpt lat="43.82573" lon="5.12487">
        <ele>411.6</ele>
        <time>2021-08-12T13:22:48Z</time>
      </trkpt>
      <trkpt lat="43.8256" lon="5.12484">
        <ele>410.6</ele>
        <time>2021-08-12T13:22:52Z</time>
      </trkpt>
      <trkpt lat="43.82539" lon="5.12454">
        <ele>409.4</ele>
        <time>2021-08-12T13:23:01Z</time>
      </trkpt>
      <trkpt lat="43.82535" lon="5.12445">
        <ele>409.2</ele>
        <time>2021-08-12T13:23:03Z</time>
      </trkpt>
      <trkpt lat="43.82532" lon="5.12425">
        <ele>408.4</ele>
        <time>2021-08-12T13:23:07Z</time>
      </trkpt>
      <trkpt lat="43.82532" lon="5.12422">
        <ele>408.2</ele>
        <time>2021-08-12T13:23:08Z</time>
      </trkpt>
      <trkpt lat="43.82538" lon="5.12403">
        <ele>407</ele>
        <time>2021-08-12T13:23:12Z</time>
      </trkpt>
      <trkpt lat="43.82542" lon="5.12384">
        <ele>406.6</ele>
        <time>2021-08-12T13:23:16Z</time>
      </trkpt>
      <trkpt lat="43.82537" lon="5.12377">
        <ele>406</ele>
        <time>2021-08-12T13:23:19Z</time>
      </trkpt>
      <trkpt lat="43.82532" lon="5.12373">
        <ele>405.4</ele>
        <time>2021-08-12T13:23:21Z</time>
      </trkpt>
      <trkpt lat="43.82525" lon="5.12373">
        <ele>404.8</ele>
        <time>2021-08-12T13:23:23Z</time>
      </trkpt>
      <trkpt lat="43.82508" lon="5.12372">
        <ele>403.6</ele>
        <time>2021-08-12T13:23:29Z</time>
      </trkpt>
      <trkpt lat="43.82501" lon="5.12374">
        <ele>403.4</ele>
        <time>2021-08-12T13:23:31Z</time>
      </trkpt>
      <trkpt lat="43.82493" lon="5.12362">
        <ele>402.4</ele>
        <time>2021-08-12T13:23:34Z</time>
      </trkpt>
      <trkpt lat="43.82489" lon="5.12346">
        <ele>401.4</ele>
        <time>2021-08-12T13:23:37Z</time>
      </trkpt>
      <trkpt lat="43.82488" lon="5.1233">
        <ele>400.2</ele>
        <time>2021-08-12T13:23:40Z</time>
      </trkpt>
      <trkpt lat="43.82487" lon="5.12305">
        <ele>399.4</ele>
        <time>2021-08-12T13:23:44Z</time>
      </trkpt>
      <trkpt lat="43.82484" lon="5.12292">
        <ele>399.2</ele>
        <time>2021-08-12T13:23:46Z</time>
      </trkpt>
      <trkpt lat="43.82481" lon="5.12287">
        <ele>399</ele>
        <time>2021-08-12T13:23:47Z</time>
      </trkpt>
      <trkpt lat="43.82476" lon="5.12281">
        <ele>398.6</ele>
        <time>2021-08-12T13:23:48Z</time>
      </trkpt>
      <trkpt lat="43.82469" lon="5.12271">
        <ele>398.4</ele>
        <time>2021-08-12T13:23:50Z</time>
      </trkpt>
      <trkpt lat="43.82466" lon="5.1226">
        <ele>397.8</ele>
        <time>2021-08-12T13:23:52Z</time>
      </trkpt>
      <trkpt lat="43.82466" lon="5.12248">
        <ele>397.6</ele>
        <time>2021-08-12T13:23:54Z</time>
      </trkpt>
      <trkpt lat="43.82467" lon="5.12236">
        <ele>397.2</ele>
        <time>2021-08-12T13:23:56Z</time>
      </trkpt>
      <trkpt lat="43.82466" lon="5.12223">
        <ele>397</ele>
        <time>2021-08-12T13:23:58Z</time>
      </trkpt>
      <trkpt lat="43.82465" lon="5.12211">
        <ele>396.8</ele>
        <time>2021-08-12T13:24:00Z</time>
      </trkpt>
      <trkpt lat="43.82461" lon="5.12185">
        <ele>396.2</ele>
        <time>2021-08-12T13:24:04Z</time>
      </trkpt>
      <trkpt lat="43.82456" lon="5.12177">
        <ele>396</ele>
        <time>2021-08-12T13:24:06Z</time>
      </trkpt>
      <trkpt lat="43.82447" lon="5.12175">
        <ele>395.8</ele>
        <time>2021-08-12T13:24:09Z</time>
      </trkpt>
      <trkpt lat="43.82425" lon="5.12165">
        <ele>394.6</ele>
        <time>2021-08-12T13:24:15Z</time>
      </trkpt>
      <trkpt lat="43.82403" lon="5.1215">
        <ele>393.4</ele>
        <time>2021-08-12T13:24:21Z</time>
      </trkpt>
      <trkpt lat="43.82398" lon="5.12145">
        <ele>392.8</ele>
        <time>2021-08-12T13:24:23Z</time>
      </trkpt>
      <trkpt lat="43.82394" lon="5.12138">
        <ele>392.2</ele>
        <time>2021-08-12T13:24:25Z</time>
      </trkpt>
      <trkpt lat="43.82372" lon="5.12097">
        <ele>391</ele>
        <time>2021-08-12T13:24:35Z</time>
      </trkpt>
      <trkpt lat="43.82364" lon="5.1208">
        <ele>390.8</ele>
        <time>2021-08-12T13:24:39Z</time>
      </trkpt>
      <trkpt lat="43.82356" lon="5.12074">
        <ele>390.2</ele>
        <time>2021-08-12T13:24:41Z</time>
      </trkpt>
      <trkpt lat="43.82351" lon="5.12073">
        <ele>389.8</ele>
        <time>2021-08-12T13:24:42Z</time>
      </trkpt>
      <trkpt lat="43.82347" lon="5.12072">
        <ele>389.2</ele>
        <time>2021-08-12T13:24:43Z</time>
      </trkpt>
      <trkpt lat="43.82342" lon="5.12071">
        <ele>388.6</ele>
        <time>2021-08-12T13:24:44Z</time>
      </trkpt>
      <trkpt lat="43.82332" lon="5.12068">
        <ele>388</ele>
        <time>2021-08-12T13:24:46Z</time>
      </trkpt>
      <trkpt lat="43.82328" lon="5.12065">
        <ele>387.6</ele>
        <time>2021-08-12T13:24:47Z</time>
      </trkpt>
      <trkpt lat="43.82318" lon="5.12058">
        <ele>386.6</ele>
        <time>2021-08-12T13:24:49Z</time>
      </trkpt>
      <trkpt lat="43.82313" lon="5.12056">
        <ele>386.2</ele>
        <time>2021-08-12T13:24:50Z</time>
      </trkpt>
      <trkpt lat="43.823" lon="5.1205">
        <ele>385.4</ele>
        <time>2021-08-12T13:24:53Z</time>
      </trkpt>
      <trkpt lat="43.82281" lon="5.12037">
        <ele>384</ele>
        <time>2021-08-12T13:24:58Z</time>
      </trkpt>
      <trkpt lat="43.82272" lon="5.12032">
        <ele>382.8</ele>
        <time>2021-08-12T13:25:01Z</time>
      </trkpt>
      <trkpt lat="43.82266" lon="5.12029">
        <ele>382</ele>
        <time>2021-08-12T13:25:03Z</time>
      </trkpt>
      <trkpt lat="43.82264" lon="5.12026">
        <ele>381.8</ele>
        <time>2021-08-12T13:25:04Z</time>
      </trkpt>
      <trkpt lat="43.82262" lon="5.12005">
        <ele>380.6</ele>
        <time>2021-08-12T13:25:09Z</time>
      </trkpt>
      <trkpt lat="43.82264" lon="5.11999">
        <ele>379.6</ele>
        <time>2021-08-12T13:25:12Z</time>
      </trkpt>
      <trkpt lat="43.82266" lon="5.11996">
        <ele>379</ele>
        <time>2021-08-12T13:25:13Z</time>
      </trkpt>
      <trkpt lat="43.82266" lon="5.11988">
        <ele>378.4</ele>
        <time>2021-08-12T13:25:15Z</time>
      </trkpt>
      <trkpt lat="43.82265" lon="5.11977">
        <ele>377</ele>
        <time>2021-08-12T13:25:18Z</time>
      </trkpt>
      <trkpt lat="43.82264" lon="5.1197">
        <ele>375.6</ele>
        <time>2021-08-12T13:25:20Z</time>
      </trkpt>
      <trkpt lat="43.82263" lon="5.11963">
        <ele>374.4</ele>
        <time>2021-08-12T13:25:22Z</time>
      </trkpt>
      <trkpt lat="43.82262" lon="5.11943">
        <ele>373</ele>
        <time>2021-08-12T13:25:27Z</time>
      </trkpt>
      <trkpt lat="43.82265" lon="5.11935">
        <ele>371.6</ele>
        <time>2021-08-12T13:25:29Z</time>
      </trkpt>
      <trkpt lat="43.82269" lon="5.11929">
        <ele>370</ele>
        <time>2021-08-12T13:25:31Z</time>
      </trkpt>
      <trkpt lat="43.82272" lon="5.11924">
        <ele>368.6</ele>
        <time>2021-08-12T13:25:33Z</time>
      </trkpt>
      <trkpt lat="43.82274" lon="5.11919">
        <ele>367.4</ele>
        <time>2021-08-12T13:25:35Z</time>
      </trkpt>
      <trkpt lat="43.82278" lon="5.11914">
        <ele>366.6</ele>
        <time>2021-08-12T13:25:37Z</time>
      </trkpt>
      <trkpt lat="43.82278" lon="5.11911">
        <ele>366.2</ele>
        <time>2021-08-12T13:25:38Z</time>
      </trkpt>
      <trkpt lat="43.82274" lon="5.11901">
        <ele>365.2</ele>
        <time>2021-08-12T13:25:41Z</time>
      </trkpt>
      <trkpt lat="43.8227" lon="5.11893">
        <ele>363.4</ele>
        <time>2021-08-12T13:25:43Z</time>
      </trkpt>
      <trkpt lat="43.82265" lon="5.11885">
        <ele>362</ele>
        <time>2021-08-12T13:25:45Z</time>
      </trkpt>
      <trkpt lat="43.82259" lon="5.11878">
        <ele>361</ele>
        <time>2021-08-12T13:25:47Z</time>
      </trkpt>
      <trkpt lat="43.82254" lon="5.11847">
        <ele>359.8</ele>
        <time>2021-08-12T13:25:52Z</time>
      </trkpt>
      <trkpt lat="43.82261" lon="5.11835">
        <ele>358.2</ele>
        <time>2021-08-12T13:25:55Z</time>
      </trkpt>
      <trkpt lat="43.82265" lon="5.11825">
        <ele>357.2</ele>
        <time>2021-08-12T13:25:57Z</time>
      </trkpt>
      <trkpt lat="43.82269" lon="5.11798">
        <ele>355.8</ele>
        <time>2021-08-12T13:26:02Z</time>
      </trkpt>
      <trkpt lat="43.82266" lon="5.11782">
        <ele>354.8</ele>
        <time>2021-08-12T13:26:06Z</time>
      </trkpt>
      <trkpt lat="43.82262" lon="5.11767">
        <ele>353.6</ele>
        <time>2021-08-12T13:26:09Z</time>
      </trkpt>
      <trkpt lat="43.8226" lon="5.11744">
        <ele>352.4</ele>
        <time>2021-08-12T13:26:13Z</time>
      </trkpt>
      <trkpt lat="43.82259" lon="5.1173">
        <ele>352.2</ele>
        <time>2021-08-12T13:26:15Z</time>
      </trkpt>
      <trkpt lat="43.82261" lon="5.11716">
        <ele>351.6</ele>
        <time>2021-08-12T13:26:17Z</time>
      </trkpt>
      <trkpt lat="43.82262" lon="5.1171">
        <ele>351.4</ele>
        <time>2021-08-12T13:26:18Z</time>
      </trkpt>
      <trkpt lat="43.82273" lon="5.11684">
        <ele>349.8</ele>
        <time>2021-08-12T13:26:23Z</time>
      </trkpt>
      <trkpt lat="43.82275" lon="5.11678">
        <ele>349.6</ele>
        <time>2021-08-12T13:26:24Z</time>
      </trkpt>
      <trkpt lat="43.82277" lon="5.11664">
        <ele>348.8</ele>
        <time>2021-08-12T13:26:26Z</time>
      </trkpt>
      <trkpt lat="43.82278" lon="5.11658">
        <ele>348.6</ele>
        <time>2021-08-12T13:26:27Z</time>
      </trkpt>
      <trkpt lat="43.82276" lon="5.11625">
        <ele>347.8</ele>
        <time>2021-08-12T13:26:34Z</time>
      </trkpt>
      <trkpt lat="43.82274" lon="5.11624">
        <ele>347.6</ele>
        <time>2021-08-12T13:26:35Z</time>
      </trkpt>
      <trkpt lat="43.82263" lon="5.11629">
        <ele>346.4</ele>
        <time>2021-08-12T13:26:39Z</time>
      </trkpt>
      <trkpt lat="43.82253" lon="5.11638">
        <ele>345.4</ele>
        <time>2021-08-12T13:26:42Z</time>
      </trkpt>
      <trkpt lat="43.82246" lon="5.11647">
        <ele>344</ele>
        <time>2021-08-12T13:26:45Z</time>
      </trkpt>
      <trkpt lat="43.82244" lon="5.11649">
        <ele>343.8</ele>
        <time>2021-08-12T13:26:46Z</time>
      </trkpt>
      <trkpt lat="43.82236" lon="5.11645">
        <ele>343</ele>
        <time>2021-08-12T13:26:49Z</time>
      </trkpt>
      <trkpt lat="43.82235" lon="5.11642">
        <ele>342.8</ele>
        <time>2021-08-12T13:26:50Z</time>
      </trkpt>
      <trkpt lat="43.82231" lon="5.11616">
        <ele>341.8</ele>
        <time>2021-08-12T13:26:55Z</time>
      </trkpt>
      <trkpt lat="43.82234" lon="5.11594">
        <ele>340.6</ele>
        <time>2021-08-12T13:27:00Z</time>
      </trkpt>
      <trkpt lat="43.82223" lon="5.11569">
        <ele>339.6</ele>
        <time>2021-08-12T13:27:06Z</time>
      </trkpt>
      <trkpt lat="43.82214" lon="5.11558">
        <ele>338.2</ele>
        <time>2021-08-12T13:27:10Z</time>
      </trkpt>
      <trkpt lat="43.82203" lon="5.11557">
        <ele>337</ele>
        <time>2021-08-12T13:27:13Z</time>
      </trkpt>
      <trkpt lat="43.82189" lon="5.11565">
        <ele>336</ele>
        <time>2021-08-12T13:27:18Z</time>
      </trkpt>
      <trkpt lat="43.82175" lon="5.11585">
        <ele>334.8</ele>
        <time>2021-08-12T13:27:24Z</time>
      </trkpt>
      <trkpt lat="43.82168" lon="5.11587">
        <ele>334</ele>
        <time>2021-08-12T13:27:27Z</time>
      </trkpt>
      <trkpt lat="43.82167" lon="5.11585">
        <ele>333.8</ele>
        <time>2021-08-12T13:27:28Z</time>
      </trkpt>
      <trkpt lat="43.82164" lon="5.1158">
        <ele>332.6</ele>
        <time>2021-08-12T13:27:30Z</time>
      </trkpt>
      <trkpt lat="43.82162" lon="5.11574">
        <ele>331.4</ele>
        <time>2021-08-12T13:27:32Z</time>
      </trkpt>
      <trkpt lat="43.82161" lon="5.11568">
        <ele>330</ele>
        <time>2021-08-12T13:27:34Z</time>
      </trkpt>
      <trkpt lat="43.82156" lon="5.11553">
        <ele>328.6</ele>
        <time>2021-08-12T13:27:38Z</time>
      </trkpt>
      <trkpt lat="43.82157" lon="5.1154">
        <ele>327.8</ele>
        <time>2021-08-12T13:27:40Z</time>
      </trkpt>
      <trkpt lat="43.82159" lon="5.11535">
        <ele>327.2</ele>
        <time>2021-08-12T13:27:41Z</time>
      </trkpt>
      <trkpt lat="43.82163" lon="5.11524">
        <ele>325.8</ele>
        <time>2021-08-12T13:27:43Z</time>
      </trkpt>
      <trkpt lat="43.82168" lon="5.11512">
        <ele>324.8</ele>
        <time>2021-08-12T13:27:45Z</time>
      </trkpt>
      <trkpt lat="43.82174" lon="5.11496">
        <ele>323.6</ele>
        <time>2021-08-12T13:27:48Z</time>
      </trkpt>
      <trkpt lat="43.82181" lon="5.11483">
        <ele>322.2</ele>
        <time>2021-08-12T13:27:51Z</time>
      </trkpt>
      <trkpt lat="43.82184" lon="5.11465">
        <ele>321.2</ele>
        <time>2021-08-12T13:27:54Z</time>
      </trkpt>
      <trkpt lat="43.82186" lon="5.11458">
        <ele>321</ele>
        <time>2021-08-12T13:27:55Z</time>
      </trkpt>
      <trkpt lat="43.82188" lon="5.11429">
        <ele>320</ele>
        <time>2021-08-12T13:28:00Z</time>
      </trkpt>
      <trkpt lat="43.82188" lon="5.11399">
        <ele>318.8</ele>
        <time>2021-08-12T13:28:04Z</time>
      </trkpt>
      <trkpt lat="43.82186" lon="5.1138">
        <ele>317.8</ele>
        <time>2021-08-12T13:28:07Z</time>
      </trkpt>
      <trkpt lat="43.82191" lon="5.11373">
        <ele>317.2</ele>
        <time>2021-08-12T13:28:09Z</time>
      </trkpt>
      <trkpt lat="43.82197" lon="5.11369">
        <ele>316.2</ele>
        <time>2021-08-12T13:28:11Z</time>
      </trkpt>
      <trkpt lat="43.82209" lon="5.11354">
        <ele>315.6</ele>
        <time>2021-08-12T13:28:15Z</time>
      </trkpt>
      <trkpt lat="43.82215" lon="5.11345">
        <ele>315.2</ele>
        <time>2021-08-12T13:28:17Z</time>
      </trkpt>
      <trkpt lat="43.82218" lon="5.11341">
        <ele>314.8</ele>
        <time>2021-08-12T13:28:18Z</time>
      </trkpt>
      <trkpt lat="43.82227" lon="5.11335">
        <ele>314</ele>
        <time>2021-08-12T13:28:20Z</time>
      </trkpt>
      <trkpt lat="43.82246" lon="5.11325">
        <ele>312.8</ele>
        <time>2021-08-12T13:28:24Z</time>
      </trkpt>
      <trkpt lat="43.82249" lon="5.11321">
        <ele>312.6</ele>
        <time>2021-08-12T13:28:25Z</time>
      </trkpt>
      <trkpt lat="43.82262" lon="5.11305">
        <ele>312.6</ele>
        <time>2021-08-12T13:28:29Z</time>
      </trkpt>
      <trkpt lat="43.8226" lon="5.11284">
        <ele>312.4</ele>
        <time>2021-08-12T13:28:35Z</time>
      </trkpt>
      <trkpt lat="43.82253" lon="5.11275">
        <ele>311.4</ele>
        <time>2021-08-12T13:28:37Z</time>
      </trkpt>
      <trkpt lat="43.82243" lon="5.11263">
        <ele>310</ele>
        <time>2021-08-12T13:28:40Z</time>
      </trkpt>
      <trkpt lat="43.82235" lon="5.11254">
        <ele>308.6</ele>
        <time>2021-08-12T13:28:43Z</time>
      </trkpt>
      <trkpt lat="43.82225" lon="5.11249">
        <ele>307.4</ele>
        <time>2021-08-12T13:28:46Z</time>
      </trkpt>
      <trkpt lat="43.82217" lon="5.11247">
        <ele>306.6</ele>
        <time>2021-08-12T13:28:48Z</time>
      </trkpt>
      <trkpt lat="43.82213" lon="5.11245">
        <ele>306.2</ele>
        <time>2021-08-12T13:28:49Z</time>
      </trkpt>
      <trkpt lat="43.82207" lon="5.1124">
        <ele>305.8</ele>
        <time>2021-08-12T13:28:51Z</time>
      </trkpt>
      <trkpt lat="43.82204" lon="5.11233">
        <ele>305.4</ele>
        <time>2021-08-12T13:28:53Z</time>
      </trkpt>
      <trkpt lat="43.822" lon="5.11223">
        <ele>305.2</ele>
        <time>2021-08-12T13:28:55Z</time>
      </trkpt>
      <trkpt lat="43.82198" lon="5.11211">
        <ele>304</ele>
        <time>2021-08-12T13:28:57Z</time>
      </trkpt>
      <trkpt lat="43.82196" lon="5.112">
        <ele>302.6</ele>
        <time>2021-08-12T13:28:59Z</time>
      </trkpt>
      <trkpt lat="43.82204" lon="5.11186">
        <ele>301.4</ele>
        <time>2021-08-12T13:29:02Z</time>
      </trkpt>
      <trkpt lat="43.82208" lon="5.11176">
        <ele>300.2</ele>
        <time>2021-08-12T13:29:04Z</time>
      </trkpt>
      <trkpt lat="43.82209" lon="5.11167">
        <ele>299</ele>
        <time>2021-08-12T13:29:06Z</time>
      </trkpt>
      <trkpt lat="43.8221" lon="5.11151">
        <ele>297.8</ele>
        <time>2021-08-12T13:29:09Z</time>
      </trkpt>
      <trkpt lat="43.8221" lon="5.11134">
        <ele>296.8</ele>
        <time>2021-08-12T13:29:13Z</time>
      </trkpt>
      <trkpt lat="43.82208" lon="5.11121">
        <ele>295.6</ele>
        <time>2021-08-12T13:29:16Z</time>
      </trkpt>
      <trkpt lat="43.82204" lon="5.11103">
        <ele>294.6</ele>
        <time>2021-08-12T13:29:20Z</time>
      </trkpt>
      <trkpt lat="43.82193" lon="5.11084">
        <ele>293.6</ele>
        <time>2021-08-12T13:29:25Z</time>
      </trkpt>
      <trkpt lat="43.82182" lon="5.1107">
        <ele>293.4</ele>
        <time>2021-08-12T13:29:30Z</time>
      </trkpt>
      <trkpt lat="43.82173" lon="5.11065">
        <ele>292.4</ele>
        <time>2021-08-12T13:29:32Z</time>
      </trkpt>
      <trkpt lat="43.82167" lon="5.11062">
        <ele>291.4</ele>
        <time>2021-08-12T13:29:34Z</time>
      </trkpt>
      <trkpt lat="43.82161" lon="5.11058">
        <ele>290.4</ele>
        <time>2021-08-12T13:29:36Z</time>
      </trkpt>
      <trkpt lat="43.82157" lon="5.11055">
        <ele>289.2</ele>
        <time>2021-08-12T13:29:38Z</time>
      </trkpt>
      <trkpt lat="43.82145" lon="5.11052">
        <ele>288.2</ele>
        <time>2021-08-12T13:29:42Z</time>
      </trkpt>
      <trkpt lat="43.82139" lon="5.1105">
        <ele>287</ele>
        <time>2021-08-12T13:29:44Z</time>
      </trkpt>
      <trkpt lat="43.82136" lon="5.11048">
        <ele>286.2</ele>
        <time>2021-08-12T13:29:45Z</time>
      </trkpt>
      <trkpt lat="43.82133" lon="5.11044">
        <ele>285.4</ele>
        <time>2021-08-12T13:29:46Z</time>
      </trkpt>
      <trkpt lat="43.82128" lon="5.11038">
        <ele>284</ele>
        <time>2021-08-12T13:29:48Z</time>
      </trkpt>
      <trkpt lat="43.82118" lon="5.11027">
        <ele>283</ele>
        <time>2021-08-12T13:29:52Z</time>
      </trkpt>
      <trkpt lat="43.82111" lon="5.1102">
        <ele>281.4</ele>
        <time>2021-08-12T13:29:55Z</time>
      </trkpt>
      <trkpt lat="43.82107" lon="5.11017">
        <ele>280.4</ele>
        <time>2021-08-12T13:29:57Z</time>
      </trkpt>
      <trkpt lat="43.82099" lon="5.11012">
        <ele>279.2</ele>
        <time>2021-08-12T13:30:00Z</time>
      </trkpt>
      <trkpt lat="43.82094" lon="5.11008">
        <ele>278.2</ele>
        <time>2021-08-12T13:30:02Z</time>
      </trkpt>
      <trkpt lat="43.82086" lon="5.11004">
        <ele>277</ele>
        <time>2021-08-12T13:30:05Z</time>
      </trkpt>
      <trkpt lat="43.82082" lon="5.10999">
        <ele>275.8</ele>
        <time>2021-08-12T13:30:07Z</time>
      </trkpt>
      <trkpt lat="43.82075" lon="5.1099">
        <ele>274.6</ele>
        <time>2021-08-12T13:30:10Z</time>
      </trkpt>
      <trkpt lat="43.82072" lon="5.10987">
        <ele>274</ele>
        <time>2021-08-12T13:30:11Z</time>
      </trkpt>
      <trkpt lat="43.8207" lon="5.10985">
        <ele>273.4</ele>
        <time>2021-08-12T13:30:12Z</time>
      </trkpt>
      <trkpt lat="43.82066" lon="5.10979">
        <ele>272.2</ele>
        <time>2021-08-12T13:30:14Z</time>
      </trkpt>
      <trkpt lat="43.82062" lon="5.10974">
        <ele>271</ele>
        <time>2021-08-12T13:30:16Z</time>
      </trkpt>
      <trkpt lat="43.82059" lon="5.10971">
        <ele>270</ele>
        <time>2021-08-12T13:30:18Z</time>
      </trkpt>
      <trkpt lat="43.82053" lon="5.10975">
        <ele>269</ele>
        <time>2021-08-12T13:30:21Z</time>
      </trkpt>
      <trkpt lat="43.82047" lon="5.10979">
        <ele>267.4</ele>
        <time>2021-08-12T13:30:24Z</time>
      </trkpt>
      <trkpt lat="43.82041" lon="5.1098">
        <ele>266</ele>
        <time>2021-08-12T13:30:26Z</time>
      </trkpt>
      <trkpt lat="43.82032" lon="5.10983">
        <ele>264.6</ele>
        <time>2021-08-12T13:30:29Z</time>
      </trkpt>
      <trkpt lat="43.82026" lon="5.10986">
        <ele>263.4</ele>
        <time>2021-08-12T13:30:31Z</time>
      </trkpt>
      <trkpt lat="43.82022" lon="5.10988">
        <ele>262.2</ele>
        <time>2021-08-12T13:30:33Z</time>
      </trkpt>
      <trkpt lat="43.82017" lon="5.10992">
        <ele>261.2</ele>
        <time>2021-08-12T13:30:35Z</time>
      </trkpt>
      <trkpt lat="43.82009" lon="5.10996">
        <ele>259.4</ele>
        <time>2021-08-12T13:30:38Z</time>
      </trkpt>
      <trkpt lat="43.82003" lon="5.10996">
        <ele>258.2</ele>
        <time>2021-08-12T13:30:40Z</time>
      </trkpt>
      <trkpt lat="43.81995" lon="5.10989">
        <ele>256.8</ele>
        <time>2021-08-12T13:30:44Z</time>
      </trkpt>
      <trkpt lat="43.81992" lon="5.10978">
        <ele>255.6</ele>
        <time>2021-08-12T13:30:47Z</time>
      </trkpt>
      <trkpt lat="43.81985" lon="5.10974">
        <ele>254.2</ele>
        <time>2021-08-12T13:30:50Z</time>
      </trkpt>
      <trkpt lat="43.81981" lon="5.10958">
        <ele>253.2</ele>
        <time>2021-08-12T13:30:53Z</time>
      </trkpt>
      <trkpt lat="43.81979" lon="5.10934">
        <ele>252</ele>
        <time>2021-08-12T13:30:56Z</time>
      </trkpt>
      <trkpt lat="43.81977" lon="5.10913">
        <ele>251</ele>
        <time>2021-08-12T13:31:00Z</time>
      </trkpt>
      <trkpt lat="43.8197" lon="5.10887">
        <ele>250</ele>
        <time>2021-08-12T13:31:07Z</time>
      </trkpt>
      <trkpt lat="43.81967" lon="5.10874">
        <ele>248.6</ele>
        <time>2021-08-12T13:31:10Z</time>
      </trkpt>
      <trkpt lat="43.81964" lon="5.10863">
        <ele>247.4</ele>
        <time>2021-08-12T13:31:13Z</time>
      </trkpt>
      <trkpt lat="43.81959" lon="5.10844">
        <ele>246.2</ele>
        <time>2021-08-12T13:31:17Z</time>
      </trkpt>
      <trkpt lat="43.81956" lon="5.10821">
        <ele>245</ele>
        <time>2021-08-12T13:31:22Z</time>
      </trkpt>
      <trkpt lat="43.81952" lon="5.10806">
        <ele>243.8</ele>
        <time>2021-08-12T13:31:25Z</time>
      </trkpt>
      <trkpt lat="43.81949" lon="5.10782">
        <ele>242.6</ele>
        <time>2021-08-12T13:31:30Z</time>
      </trkpt>
      <trkpt lat="43.81946" lon="5.10767">
        <ele>241.4</ele>
        <time>2021-08-12T13:31:33Z</time>
      </trkpt>
      <trkpt lat="43.81945" lon="5.10757">
        <ele>240.4</ele>
        <time>2021-08-12T13:31:35Z</time>
      </trkpt>
      <trkpt lat="43.81946" lon="5.10734">
        <ele>239.2</ele>
        <time>2021-08-12T13:31:39Z</time>
      </trkpt>
      <trkpt lat="43.81946" lon="5.10725">
        <ele>238</ele>
        <time>2021-08-12T13:31:41Z</time>
      </trkpt>
      <trkpt lat="43.81946" lon="5.10708">
        <ele>237</ele>
        <time>2021-08-12T13:31:45Z</time>
      </trkpt>
      <trkpt lat="43.81945" lon="5.10705">
        <ele>236.6</ele>
        <time>2021-08-12T13:31:46Z</time>
      </trkpt>
      <trkpt lat="43.81944" lon="5.10698">
        <ele>235.6</ele>
        <time>2021-08-12T13:31:48Z</time>
      </trkpt>
      <trkpt lat="43.81945" lon="5.1069">
        <ele>234.6</ele>
        <time>2021-08-12T13:31:50Z</time>
      </trkpt>
      <trkpt lat="43.81944" lon="5.10678">
        <ele>233.2</ele>
        <time>2021-08-12T13:31:54Z</time>
      </trkpt>
      <trkpt lat="43.81944" lon="5.1067">
        <ele>232.2</ele>
        <time>2021-08-12T13:31:57Z</time>
      </trkpt>
      <trkpt lat="43.81941" lon="5.10665">
        <ele>231</ele>
        <time>2021-08-12T13:31:59Z</time>
      </trkpt>
      <trkpt lat="43.81937" lon="5.10661">
        <ele>230</ele>
        <time>2021-08-12T13:32:03Z</time>
      </trkpt>
      <trkpt lat="43.81937" lon="5.10661">
        <ele>229.6</ele>
        <time>2021-08-12T13:32:14Z</time>
      </trkpt>
      <trkpt lat="43.81937" lon="5.10653">
        <ele>228.8</ele>
        <time>2021-08-12T13:32:21Z</time>
      </trkpt>
      <trkpt lat="43.81938" lon="5.10648">
        <ele>227.6</ele>
        <time>2021-08-12T13:32:24Z</time>
      </trkpt>
      <trkpt lat="43.81938" lon="5.10643">
        <ele>226.4</ele>
        <time>2021-08-12T13:32:27Z</time>
      </trkpt>
      <trkpt lat="43.81938" lon="5.10635">
        <ele>225</ele>
        <time>2021-08-12T13:32:31Z</time>
      </trkpt>
      <trkpt lat="43.81937" lon="5.10628">
        <ele>223.8</ele>
        <time>2021-08-12T13:32:34Z</time>
      </trkpt>
      <trkpt lat="43.81932" lon="5.10614">
        <ele>222.4</ele>
        <time>2021-08-12T13:32:37Z</time>
      </trkpt>
      <trkpt lat="43.81931" lon="5.10612">
        <ele>222</ele>
        <time>2021-08-12T13:32:38Z</time>
      </trkpt>
      <trkpt lat="43.8193" lon="5.1061">
        <ele>221.4</ele>
        <time>2021-08-12T13:32:39Z</time>
      </trkpt>
      <trkpt lat="43.8193" lon="5.10609">
        <ele>220.6</ele>
        <time>2021-08-12T13:32:40Z</time>
      </trkpt>
      <trkpt lat="43.81931" lon="5.10608">
        <ele>220.2</ele>
        <time>2021-08-12T13:32:41Z</time>
      </trkpt>
      <trkpt lat="43.81934" lon="5.10603">
        <ele>219</ele>
        <time>2021-08-12T13:32:45Z</time>
      </trkpt>
      <trkpt lat="43.81934" lon="5.10598">
        <ele>217.6</ele>
        <time>2021-08-12T13:32:47Z</time>
      </trkpt>
      <trkpt lat="43.81935" lon="5.10592">
        <ele>216.8</ele>
        <time>2021-08-12T13:32:49Z</time>
      </trkpt>
      <trkpt lat="43.81936" lon="5.10589">
        <ele>216.4</ele>
        <time>2021-08-12T13:32:50Z</time>
      </trkpt>
      <trkpt lat="43.81938" lon="5.10583">
        <ele>215.2</ele>
        <time>2021-08-12T13:32:53Z</time>
      </trkpt>
      <trkpt lat="43.81938" lon="5.10578">
        <ele>214.2</ele>
        <time>2021-08-12T13:32:55Z</time>
      </trkpt>
      <trkpt lat="43.81937" lon="5.10566">
        <ele>213</ele>
        <time>2021-08-12T13:32:59Z</time>
      </trkpt>
      <trkpt lat="43.81939" lon="5.10558">
        <ele>212</ele>
        <time>2021-08-12T13:33:02Z</time>
      </trkpt>
      <trkpt lat="43.81933" lon="5.1055">
        <ele>210.4</ele>
        <time>2021-08-12T13:33:05Z</time>
      </trkpt>
      <trkpt lat="43.81926" lon="5.10543">
        <ele>209.2</ele>
        <time>2021-08-12T13:33:07Z</time>
      </trkpt>
      <trkpt lat="43.81914" lon="5.10531">
        <ele>208.2</ele>
        <time>2021-08-12T13:33:10Z</time>
      </trkpt>
      <trkpt lat="43.81906" lon="5.10523">
        <ele>207.4</ele>
        <time>2021-08-12T13:33:12Z</time>
      </trkpt>
      <trkpt lat="43.81902" lon="5.1052">
        <ele>207</ele>
        <time>2021-08-12T13:33:13Z</time>
      </trkpt>
      <trkpt lat="43.81894" lon="5.10515">
        <ele>205.6</ele>
        <time>2021-08-12T13:33:15Z</time>
      </trkpt>
      <trkpt lat="43.81882" lon="5.10509">
        <ele>204.2</ele>
        <time>2021-08-12T13:33:18Z</time>
      </trkpt>
      <trkpt lat="43.81878" lon="5.10507">
        <ele>204</ele>
        <time>2021-08-12T13:33:19Z</time>
      </trkpt>
      <trkpt lat="43.8187" lon="5.10502">
        <ele>203</ele>
        <time>2021-08-12T13:33:21Z</time>
      </trkpt>
      <trkpt lat="43.81859" lon="5.10494">
        <ele>201.8</ele>
        <time>2021-08-12T13:33:24Z</time>
      </trkpt>
      <trkpt lat="43.81853" lon="5.10489">
        <ele>200.6</ele>
        <time>2021-08-12T13:33:26Z</time>
      </trkpt>
      <trkpt lat="43.81847" lon="5.10481">
        <ele>199.8</ele>
        <time>2021-08-12T13:33:28Z</time>
      </trkpt>
      <trkpt lat="43.81843" lon="5.10477">
        <ele>199.6</ele>
        <time>2021-08-12T13:33:29Z</time>
      </trkpt>
      <trkpt lat="43.81822" lon="5.10469">
        <ele>199</ele>
        <time>2021-08-12T13:33:36Z</time>
      </trkpt>
      <trkpt lat="43.81817" lon="5.10475">
        <ele>198.4</ele>
        <time>2021-08-12T13:33:39Z</time>
      </trkpt>
      <trkpt lat="43.81812" lon="5.10479">
        <ele>196.8</ele>
        <time>2021-08-12T13:33:41Z</time>
      </trkpt>
      <trkpt lat="43.8181" lon="5.10481">
        <ele>195.8</ele>
        <time>2021-08-12T13:33:42Z</time>
      </trkpt>
      <trkpt lat="43.81806" lon="5.10481">
        <ele>194.2</ele>
        <time>2021-08-12T13:33:44Z</time>
      </trkpt>
      <trkpt lat="43.81798" lon="5.10483">
        <ele>192.6</ele>
        <time>2021-08-12T13:33:47Z</time>
      </trkpt>
      <trkpt lat="43.81793" lon="5.10487">
        <ele>191.6</ele>
        <time>2021-08-12T13:33:49Z</time>
      </trkpt>
      <trkpt lat="43.81784" lon="5.10495">
        <ele>190.2</ele>
        <time>2021-08-12T13:33:52Z</time>
      </trkpt>
      <trkpt lat="43.81778" lon="5.10499">
        <ele>188.8</ele>
        <time>2021-08-12T13:33:54Z</time>
      </trkpt>
      <trkpt lat="43.81774" lon="5.10503">
        <ele>187.4</ele>
        <time>2021-08-12T13:33:56Z</time>
      </trkpt>
      <trkpt lat="43.81769" lon="5.10507">
        <ele>186.4</ele>
        <time>2021-08-12T13:33:58Z</time>
      </trkpt>
      <trkpt lat="43.81766" lon="5.10508">
        <ele>185</ele>
        <time>2021-08-12T13:34:00Z</time>
      </trkpt>
      <trkpt lat="43.81761" lon="5.10511">
        <ele>184</ele>
        <time>2021-08-12T13:34:02Z</time>
      </trkpt>
      <trkpt lat="43.81751" lon="5.10511">
        <ele>182.6</ele>
        <time>2021-08-12T13:34:07Z</time>
      </trkpt>
      <trkpt lat="43.81746" lon="5.10511">
        <ele>181.4</ele>
        <time>2021-08-12T13:34:09Z</time>
      </trkpt>
      <trkpt lat="43.81742" lon="5.10509">
        <ele>180</ele>
        <time>2021-08-12T13:34:11Z</time>
      </trkpt>
      <trkpt lat="43.81732" lon="5.10506">
        <ele>178.8</ele>
        <time>2021-08-12T13:34:14Z</time>
      </trkpt>
      <trkpt lat="43.81721" lon="5.10504">
        <ele>177.4</ele>
        <time>2021-08-12T13:34:18Z</time>
      </trkpt>
      <trkpt lat="43.81713" lon="5.10494">
        <ele>176</ele>
        <time>2021-08-12T13:34:21Z</time>
      </trkpt>
      <trkpt lat="43.817" lon="5.10471">
        <ele>175</ele>
        <time>2021-08-12T13:34:26Z</time>
      </trkpt>
      <trkpt lat="43.81693" lon="5.1046">
        <ele>173.8</ele>
        <time>2021-08-12T13:34:29Z</time>
      </trkpt>
      <trkpt lat="43.8168" lon="5.10433">
        <ele>172.8</ele>
        <time>2021-08-12T13:34:35Z</time>
      </trkpt>
      <trkpt lat="43.81675" lon="5.10421">
        <ele>171.8</ele>
        <time>2021-08-12T13:34:38Z</time>
      </trkpt>
      <trkpt lat="43.81669" lon="5.104">
        <ele>170.6</ele>
        <time>2021-08-12T13:34:42Z</time>
      </trkpt>
      <trkpt lat="43.81665" lon="5.1039">
        <ele>170</ele>
        <time>2021-08-12T13:34:44Z</time>
      </trkpt>
      <trkpt lat="43.81659" lon="5.1038">
        <ele>169.4</ele>
        <time>2021-08-12T13:34:46Z</time>
      </trkpt>
      <trkpt lat="43.81649" lon="5.10365">
        <ele>168.2</ele>
        <time>2021-08-12T13:34:49Z</time>
      </trkpt>
      <trkpt lat="43.81642" lon="5.10355">
        <ele>167.6</ele>
        <time>2021-08-12T13:34:51Z</time>
      </trkpt>
      <trkpt lat="43.81623" lon="5.10324">
        <ele>167.2</ele>
        <time>2021-08-12T13:34:58Z</time>
      </trkpt>
      <trkpt lat="43.81618" lon="5.10313">
        <ele>167</ele>
        <time>2021-08-12T13:35:00Z</time>
      </trkpt>
      <trkpt lat="43.81607" lon="5.10284">
        <ele>166.2</ele>
        <time>2021-08-12T13:35:05Z</time>
      </trkpt>
      <trkpt lat="43.81601" lon="5.10275">
        <ele>164.6</ele>
        <time>2021-08-12T13:35:07Z</time>
      </trkpt>
      <trkpt lat="43.81596" lon="5.10264">
        <ele>163.4</ele>
        <time>2021-08-12T13:35:09Z</time>
      </trkpt>
      <trkpt lat="43.81592" lon="5.10245">
        <ele>162.8</ele>
        <time>2021-08-12T13:35:12Z</time>
      </trkpt>
      <trkpt lat="43.81592" lon="5.10239">
        <ele>162.4</ele>
        <time>2021-08-12T13:35:13Z</time>
      </trkpt>
      <trkpt lat="43.81591" lon="5.10222">
        <ele>161</ele>
        <time>2021-08-12T13:35:16Z</time>
      </trkpt>
      <trkpt lat="43.81592" lon="5.10194">
        <ele>160</ele>
        <time>2021-08-12T13:35:21Z</time>
      </trkpt>
      <trkpt lat="43.81586" lon="5.10159">
        <ele>160.8</ele>
        <time>2021-08-12T13:35:53Z</time>
      </trkpt>
      <trkpt lat="43.8157" lon="5.10136">
        <ele>158.6</ele>
        <time>2021-08-12T13:36:01Z</time>
      </trkpt>
      <trkpt lat="43.81562" lon="5.10127">
        <ele>157.6</ele>
        <time>2021-08-12T13:36:04Z</time>
      </trkpt>
      <trkpt lat="43.81546" lon="5.10115">
        <ele>156.8</ele>
        <time>2021-08-12T13:36:08Z</time>
      </trkpt>
      <trkpt lat="43.81541" lon="5.10113">
        <ele>156.6</ele>
        <time>2021-08-12T13:36:09Z</time>
      </trkpt>
      <trkpt lat="43.8152" lon="5.10052">
        <ele>155.4</ele>
        <time>2021-08-12T13:36:25Z</time>
      </trkpt>
      <trkpt lat="43.8152" lon="5.10036">
        <ele>154.2</ele>
        <time>2021-08-12T13:36:28Z</time>
      </trkpt>
      <trkpt lat="43.81519" lon="5.10024">
        <ele>154</ele>
        <time>2021-08-12T13:36:30Z</time>
      </trkpt>
      <trkpt lat="43.81519" lon="5.09988">
        <ele>153.2</ele>
        <time>2021-08-12T13:36:36Z</time>
      </trkpt>
      <trkpt lat="43.8152" lon="5.09966">
        <ele>152</ele>
        <time>2021-08-12T13:36:40Z</time>
      </trkpt>
      <trkpt lat="43.81516" lon="5.09953">
        <ele>151.6</ele>
        <time>2021-08-12T13:36:42Z</time>
      </trkpt>
      <trkpt lat="43.81505" lon="5.09932">
        <ele>151</ele>
        <time>2021-08-12T13:36:46Z</time>
      </trkpt>
      <trkpt lat="43.81502" lon="5.09927">
        <ele>150.8</ele>
        <time>2021-08-12T13:36:47Z</time>
      </trkpt>
      <trkpt lat="43.81491" lon="5.09911">
        <ele>149.8</ele>
        <time>2021-08-12T13:36:50Z</time>
      </trkpt>
      <trkpt lat="43.81481" lon="5.09894">
        <ele>148.6</ele>
        <time>2021-08-12T13:36:53Z</time>
      </trkpt>
      <trkpt lat="43.81474" lon="5.09882">
        <ele>148.2</ele>
        <time>2021-08-12T13:36:55Z</time>
      </trkpt>
      <trkpt lat="43.81462" lon="5.09857">
        <ele>147.6</ele>
        <time>2021-08-12T13:36:59Z</time>
      </trkpt>
      <trkpt lat="43.8146" lon="5.0985">
        <ele>147.6</ele>
        <time>2021-08-12T13:37:00Z</time>
      </trkpt>
      <trkpt lat="43.81459" lon="5.09834">
        <ele>147.2</ele>
        <time>2021-08-12T13:37:02Z</time>
      </trkpt>
      <trkpt lat="43.81464" lon="5.09814">
        <ele>146.4</ele>
        <time>2021-08-12T13:37:05Z</time>
      </trkpt>
      <trkpt lat="43.81469" lon="5.098">
        <ele>145.6</ele>
        <time>2021-08-12T13:37:07Z</time>
      </trkpt>
      <trkpt lat="43.81472" lon="5.09794">
        <ele>145.4</ele>
        <time>2021-08-12T13:37:08Z</time>
      </trkpt>
      <trkpt lat="43.81483" lon="5.0977">
        <ele>144.6</ele>
        <time>2021-08-12T13:37:12Z</time>
      </trkpt>
      <trkpt lat="43.81485" lon="5.09764">
        <ele>144.2</ele>
        <time>2021-08-12T13:37:13Z</time>
      </trkpt>
      <trkpt lat="43.81487" lon="5.09757">
        <ele>144</ele>
        <time>2021-08-12T13:37:14Z</time>
      </trkpt>
      <trkpt lat="43.81492" lon="5.09727">
        <ele>143.4</ele>
        <time>2021-08-12T13:37:18Z</time>
      </trkpt>
      <trkpt lat="43.81494" lon="5.0972">
        <ele>143.2</ele>
        <time>2021-08-12T13:37:19Z</time>
      </trkpt>
      <trkpt lat="43.81501" lon="5.09679">
        <ele>142</ele>
        <time>2021-08-12T13:37:24Z</time>
      </trkpt>
      <trkpt lat="43.81504" lon="5.09664">
        <ele>141.8</ele>
        <time>2021-08-12T13:37:26Z</time>
      </trkpt>
      <trkpt lat="43.81508" lon="5.09642">
        <ele>141</ele>
        <time>2021-08-12T13:37:29Z</time>
      </trkpt>
      <trkpt lat="43.81514" lon="5.09619">
        <ele>139.6</ele>
        <time>2021-08-12T13:37:32Z</time>
      </trkpt>
      <trkpt lat="43.81518" lon="5.09603">
        <ele>139.2</ele>
        <time>2021-08-12T13:37:34Z</time>
      </trkpt>
      <trkpt lat="43.81533" lon="5.09568">
        <ele>138.4</ele>
        <time>2021-08-12T13:37:39Z</time>
      </trkpt>
      <trkpt lat="43.81536" lon="5.09561">
        <ele>138.2</ele>
        <time>2021-08-12T13:37:40Z</time>
      </trkpt>
      <trkpt lat="43.8154" lon="5.09546">
        <ele>138</ele>
        <time>2021-08-12T13:37:42Z</time>
      </trkpt>
      <trkpt lat="43.81543" lon="5.09532">
        <ele>137.8</ele>
        <time>2021-08-12T13:37:44Z</time>
      </trkpt>
      <trkpt lat="43.81547" lon="5.09517">
        <ele>137.6</ele>
        <time>2021-08-12T13:37:46Z</time>
      </trkpt>
      <trkpt lat="43.81554" lon="5.09504">
        <ele>137</ele>
        <time>2021-08-12T13:37:48Z</time>
      </trkpt>
      <trkpt lat="43.81566" lon="5.09486">
        <ele>135.6</ele>
        <time>2021-08-12T13:37:51Z</time>
      </trkpt>
      <trkpt lat="43.81573" lon="5.09475">
        <ele>135</ele>
        <time>2021-08-12T13:37:53Z</time>
      </trkpt>
      <trkpt lat="43.81582" lon="5.0947">
        <ele>134.4</ele>
        <time>2021-08-12T13:37:55Z</time>
      </trkpt>
      <trkpt lat="43.81592" lon="5.09473">
        <ele>134</ele>
        <time>2021-08-12T13:37:57Z</time>
      </trkpt>
      <trkpt lat="43.81611" lon="5.09484">
        <ele>133.4</ele>
        <time>2021-08-12T13:38:02Z</time>
      </trkpt>
      <trkpt lat="43.81629" lon="5.09491">
        <ele>132.8</ele>
        <time>2021-08-12T13:38:06Z</time>
      </trkpt>
      <trkpt lat="43.81643" lon="5.09493">
        <ele>132.4</ele>
        <time>2021-08-12T13:38:09Z</time>
      </trkpt>
      <trkpt lat="43.81648" lon="5.09493">
        <ele>132</ele>
        <time>2021-08-12T13:38:10Z</time>
      </trkpt>
      <trkpt lat="43.81661" lon="5.09489">
        <ele>131.6</ele>
        <time>2021-08-12T13:38:13Z</time>
      </trkpt>
      <trkpt lat="43.81675" lon="5.09478">
        <ele>131.2</ele>
        <time>2021-08-12T13:38:18Z</time>
      </trkpt>
      <trkpt lat="43.81677" lon="5.09472">
        <ele>130.8</ele>
        <time>2021-08-12T13:38:19Z</time>
      </trkpt>
      <trkpt lat="43.81678" lon="5.09465">
        <ele>130.6</ele>
        <time>2021-08-12T13:38:20Z</time>
      </trkpt>
      <trkpt lat="43.81679" lon="5.09448">
        <ele>129.6</ele>
        <time>2021-08-12T13:38:22Z</time>
      </trkpt>
      <trkpt lat="43.81683" lon="5.09432">
        <ele>129.2</ele>
        <time>2021-08-12T13:38:24Z</time>
      </trkpt>
      <trkpt lat="43.81689" lon="5.09417">
        <ele>128.8</ele>
        <time>2021-08-12T13:38:26Z</time>
      </trkpt>
      <trkpt lat="43.81693" lon="5.09411">
        <ele>128.6</ele>
        <time>2021-08-12T13:38:27Z</time>
      </trkpt>
      <trkpt lat="43.81705" lon="5.0939">
        <ele>127.8</ele>
        <time>2021-08-12T13:38:30Z</time>
      </trkpt>
      <trkpt lat="43.81711" lon="5.09385">
        <ele>127.4</ele>
        <time>2021-08-12T13:38:31Z</time>
      </trkpt>
      <trkpt lat="43.81722" lon="5.09377">
        <ele>126.8</ele>
        <time>2021-08-12T13:38:33Z</time>
      </trkpt>
      <trkpt lat="43.81732" lon="5.09371">
        <ele>126.4</ele>
        <time>2021-08-12T13:38:35Z</time>
      </trkpt>
      <trkpt lat="43.81738" lon="5.09367">
        <ele>126.2</ele>
        <time>2021-08-12T13:38:36Z</time>
      </trkpt>
      <trkpt lat="43.81769" lon="5.09338">
        <ele>126</ele>
        <time>2021-08-12T13:38:42Z</time>
      </trkpt>
      <trkpt lat="43.81783" lon="5.09321">
        <ele>125.4</ele>
        <time>2021-08-12T13:38:45Z</time>
      </trkpt>
      <trkpt lat="43.81802" lon="5.09296">
        <ele>124.2</ele>
        <time>2021-08-12T13:38:49Z</time>
      </trkpt>
      <trkpt lat="43.81823" lon="5.09258">
        <ele>123.2</ele>
        <time>2021-08-12T13:38:55Z</time>
      </trkpt>
      <trkpt lat="43.81833" lon="5.09244">
        <ele>123</ele>
        <time>2021-08-12T13:39:01Z</time>
      </trkpt>
      <trkpt lat="43.81837" lon="5.0923">
        <ele>123.2</ele>
        <time>2021-08-12T13:39:05Z</time>
      </trkpt>
      <trkpt lat="43.81843" lon="5.09221">
        <ele>122.6</ele>
        <time>2021-08-12T13:39:07Z</time>
      </trkpt>
      <trkpt lat="43.81846" lon="5.09216">
        <ele>122</ele>
        <time>2021-08-12T13:39:08Z</time>
      </trkpt>
      <trkpt lat="43.81858" lon="5.09201">
        <ele>121</ele>
        <time>2021-08-12T13:39:11Z</time>
      </trkpt>
      <trkpt lat="43.81868" lon="5.09185">
        <ele>120</ele>
        <time>2021-08-12T13:39:14Z</time>
      </trkpt>
      <trkpt lat="43.81872" lon="5.09179">
        <ele>119.8</ele>
        <time>2021-08-12T13:39:15Z</time>
      </trkpt>
      <trkpt lat="43.81894" lon="5.09146">
        <ele>119.6</ele>
        <time>2021-08-12T13:39:22Z</time>
      </trkpt>
      <trkpt lat="43.81901" lon="5.09129">
        <ele>119.2</ele>
        <time>2021-08-12T13:39:25Z</time>
      </trkpt>
      <trkpt lat="43.8191" lon="5.09115">
        <ele>118.8</ele>
        <time>2021-08-12T13:39:28Z</time>
      </trkpt>
      <trkpt lat="43.81918" lon="5.09103">
        <ele>118.2</ele>
        <time>2021-08-12T13:39:31Z</time>
      </trkpt>
      <trkpt lat="43.8193" lon="5.09079">
        <ele>117.6</ele>
        <time>2021-08-12T13:39:36Z</time>
      </trkpt>
      <trkpt lat="43.81932" lon="5.09074">
        <ele>117.6</ele>
        <time>2021-08-12T13:39:37Z</time>
      </trkpt>
      <trkpt lat="43.8194" lon="5.09042">
        <ele>116.6</ele>
        <time>2021-08-12T13:39:43Z</time>
      </trkpt>
      <trkpt lat="43.81942" lon="5.0903">
        <ele>116.4</ele>
        <time>2021-08-12T13:39:45Z</time>
      </trkpt>
      <trkpt lat="43.81942" lon="5.09006">
        <ele>115.6</ele>
        <time>2021-08-12T13:39:49Z</time>
      </trkpt>
      <trkpt lat="43.81949" lon="5.08969">
        <ele>114.4</ele>
        <time>2021-08-12T13:39:56Z</time>
      </trkpt>
      <trkpt lat="43.81954" lon="5.08955">
        <ele>113.4</ele>
        <time>2021-08-12T13:39:59Z</time>
      </trkpt>
      <trkpt lat="43.81961" lon="5.08916">
        <ele>112.4</ele>
        <time>2021-08-12T13:40:07Z</time>
      </trkpt>
      <trkpt lat="43.81962" lon="5.08905">
        <ele>112</ele>
        <time>2021-08-12T13:40:10Z</time>
      </trkpt>
      <trkpt lat="43.81961" lon="5.08902">
        <ele>112</ele>
        <time>2021-08-12T13:40:12Z</time>
      </trkpt>
      <trkpt lat="43.81962" lon="5.08876">
        <ele>111.4</ele>
        <time>2021-08-12T13:40:19Z</time>
      </trkpt>
      <trkpt lat="43.81968" lon="5.08833">
        <ele>110.2</ele>
        <time>2021-08-12T13:40:28Z</time>
      </trkpt>
      <trkpt lat="43.81972" lon="5.08806">
        <ele>109.2</ele>
        <time>2021-08-12T13:40:34Z</time>
      </trkpt>
      <trkpt lat="43.81972" lon="5.08802">
        <ele>109.2</ele>
        <time>2021-08-12T13:40:35Z</time>
      </trkpt>
      <trkpt lat="43.81968" lon="5.08769">
        <ele>108</ele>
        <time>2021-08-12T13:40:42Z</time>
      </trkpt>
      <trkpt lat="43.81962" lon="5.08745">
        <ele>108</ele>
        <time>2021-08-12T13:40:46Z</time>
      </trkpt>
      <trkpt lat="43.81958" lon="5.08732">
        <ele>108</ele>
        <time>2021-08-12T13:40:48Z</time>
      </trkpt>
      <trkpt lat="43.8195" lon="5.08699">
        <ele>107</ele>
        <time>2021-08-12T13:40:53Z</time>
      </trkpt>
      <trkpt lat="43.81942" lon="5.08623">
        <ele>105.8</ele>
        <time>2021-08-12T13:41:03Z</time>
      </trkpt>
      <trkpt lat="43.81939" lon="5.08586">
        <ele>105.2</ele>
        <time>2021-08-12T13:41:07Z</time>
      </trkpt>
      <trkpt lat="43.81942" lon="5.08568">
        <ele>104.6</ele>
        <time>2021-08-12T13:41:09Z</time>
      </trkpt>
      <trkpt lat="43.81947" lon="5.08537">
        <ele>104</ele>
        <time>2021-08-12T13:41:12Z</time>
      </trkpt>
      <trkpt lat="43.81947" lon="5.08516">
        <ele>103.6</ele>
        <time>2021-08-12T13:41:14Z</time>
      </trkpt>
      <trkpt lat="43.81948" lon="5.08486">
        <ele>102.8</ele>
        <time>2021-08-12T13:41:17Z</time>
      </trkpt>
      <trkpt lat="43.81954" lon="5.08456">
        <ele>102.4</ele>
        <time>2021-08-12T13:41:20Z</time>
      </trkpt>
      <trkpt lat="43.81959" lon="5.08424">
        <ele>101.4</ele>
        <time>2021-08-12T13:41:23Z</time>
      </trkpt>
      <trkpt lat="43.81972" lon="5.08367">
        <ele>100.4</ele>
        <time>2021-08-12T13:41:29Z</time>
      </trkpt>
      <trkpt lat="43.81986" lon="5.08295">
        <ele>100.2</ele>
        <time>2021-08-12T13:41:37Z</time>
      </trkpt>
      <trkpt lat="43.81996" lon="5.08256">
        <ele>100.6</ele>
        <time>2021-08-12T13:41:42Z</time>
      </trkpt>
      <trkpt lat="43.82002" lon="5.08226">
        <ele>99.8</ele>
        <time>2021-08-12T13:41:46Z</time>
      </trkpt>
      <trkpt lat="43.82" lon="5.0821">
        <ele>99.6</ele>
        <time>2021-08-12T13:41:48Z</time>
      </trkpt>
      <trkpt lat="43.82003" lon="5.08197">
        <ele>99.6</ele>
        <time>2021-08-12T13:41:50Z</time>
      </trkpt>
      <trkpt lat="43.82024" lon="5.08172">
        <ele>99.6</ele>
        <time>2021-08-12T13:41:55Z</time>
      </trkpt>
      <trkpt lat="43.82029" lon="5.08158">
        <ele>99.6</ele>
        <time>2021-08-12T13:41:57Z</time>
      </trkpt>
      <trkpt lat="43.82028" lon="5.08142">
        <ele>99.6</ele>
        <time>2021-08-12T13:41:59Z</time>
      </trkpt>
      <trkpt lat="43.82026" lon="5.08126">
        <ele>99.4</ele>
        <time>2021-08-12T13:42:01Z</time>
      </trkpt>
      <trkpt lat="43.82022" lon="5.08092">
        <ele>99.2</ele>
        <time>2021-08-12T13:42:05Z</time>
      </trkpt>
      <trkpt lat="43.82025" lon="5.08065">
        <ele>98.8</ele>
        <time>2021-08-12T13:42:08Z</time>
      </trkpt>
      <trkpt lat="43.82042" lon="5.07998">
        <ele>98.2</ele>
        <time>2021-08-12T13:42:16Z</time>
      </trkpt>
      <trkpt lat="43.82059" lon="5.07934">
        <ele>97.2</ele>
        <time>2021-08-12T13:42:23Z</time>
      </trkpt>
      <trkpt lat="43.82069" lon="5.07897">
        <ele>96</ele>
        <time>2021-08-12T13:42:27Z</time>
      </trkpt>
      <trkpt lat="43.82085" lon="5.07839">
        <ele>95</ele>
        <time>2021-08-12T13:42:33Z</time>
      </trkpt>
      <trkpt lat="43.82104" lon="5.07768">
        <ele>94.6</ele>
        <time>2021-08-12T13:42:40Z</time>
      </trkpt>
      <trkpt lat="43.82113" lon="5.07737">
        <ele>93.8</ele>
        <time>2021-08-12T13:42:43Z</time>
      </trkpt>
      <trkpt lat="43.82134" lon="5.0766">
        <ele>93.2</ele>
        <time>2021-08-12T13:42:51Z</time>
      </trkpt>
      <trkpt lat="43.82139" lon="5.07641">
        <ele>92.8</ele>
        <time>2021-08-12T13:42:53Z</time>
      </trkpt>
      <trkpt lat="43.82161" lon="5.07566">
        <ele>91.8</ele>
        <time>2021-08-12T13:43:01Z</time>
      </trkpt>
      <trkpt lat="43.82164" lon="5.07557">
        <ele>91.6</ele>
        <time>2021-08-12T13:43:02Z</time>
      </trkpt>
      <trkpt lat="43.82187" lon="5.07485">
        <ele>91.6</ele>
        <time>2021-08-12T13:43:10Z</time>
      </trkpt>
      <trkpt lat="43.82209" lon="5.07414">
        <ele>91.2</ele>
        <time>2021-08-12T13:43:18Z</time>
      </trkpt>
      <trkpt lat="43.82233" lon="5.07337">
        <ele>90.8</ele>
        <time>2021-08-12T13:43:27Z</time>
      </trkpt>
      <trkpt lat="43.82236" lon="5.07328">
        <ele>90.4</ele>
        <time>2021-08-12T13:43:28Z</time>
      </trkpt>
      <trkpt lat="43.8225" lon="5.07282">
        <ele>89.4</ele>
        <time>2021-08-12T13:43:33Z</time>
      </trkpt>
      <trkpt lat="43.82265" lon="5.07236">
        <ele>88.4</ele>
        <time>2021-08-12T13:43:38Z</time>
      </trkpt>
      <trkpt lat="43.8229" lon="5.07162">
        <ele>87.4</ele>
        <time>2021-08-12T13:43:46Z</time>
      </trkpt>
      <trkpt lat="43.82296" lon="5.07144">
        <ele>87.2</ele>
        <time>2021-08-12T13:43:48Z</time>
      </trkpt>
      <trkpt lat="43.82308" lon="5.07107">
        <ele>86.2</ele>
        <time>2021-08-12T13:43:52Z</time>
      </trkpt>
      <trkpt lat="43.82331" lon="5.07031">
        <ele>86.2</ele>
        <time>2021-08-12T13:44:00Z</time>
      </trkpt>
      <trkpt lat="43.82353" lon="5.0696">
        <ele>85.6</ele>
        <time>2021-08-12T13:44:07Z</time>
      </trkpt>
      <trkpt lat="43.82366" lon="5.06921">
        <ele>85</ele>
        <time>2021-08-12T13:44:11Z</time>
      </trkpt>
      <trkpt lat="43.8239" lon="5.06853">
        <ele>84.2</ele>
        <time>2021-08-12T13:44:18Z</time>
      </trkpt>
      <trkpt lat="43.82398" lon="5.06834">
        <ele>83.8</ele>
        <time>2021-08-12T13:44:20Z</time>
      </trkpt>
      <trkpt lat="43.82426" lon="5.06767">
        <ele>83.4</ele>
        <time>2021-08-12T13:44:27Z</time>
      </trkpt>
      <trkpt lat="43.82457" lon="5.06698">
        <ele>82.8</ele>
        <time>2021-08-12T13:44:34Z</time>
      </trkpt>
      <trkpt lat="43.82461" lon="5.06688">
        <ele>82.6</ele>
        <time>2021-08-12T13:44:35Z</time>
      </trkpt>
      <trkpt lat="43.82492" lon="5.06628">
        <ele>81.6</ele>
        <time>2021-08-12T13:44:41Z</time>
      </trkpt>
      <trkpt lat="43.82528" lon="5.06556">
        <ele>81.2</ele>
        <time>2021-08-12T13:44:48Z</time>
      </trkpt>
      <trkpt lat="43.82543" lon="5.06526">
        <ele>80.6</ele>
        <time>2021-08-12T13:44:51Z</time>
      </trkpt>
      <trkpt lat="43.8258" lon="5.06456">
        <ele>80.6</ele>
        <time>2021-08-12T13:44:58Z</time>
      </trkpt>
      <trkpt lat="43.82616" lon="5.06387">
        <ele>80</ele>
        <time>2021-08-12T13:45:05Z</time>
      </trkpt>
      <trkpt lat="43.82625" lon="5.06367">
        <ele>79.4</ele>
        <time>2021-08-12T13:45:07Z</time>
      </trkpt>
      <trkpt lat="43.82658" lon="5.06295">
        <ele>80.2</ele>
        <time>2021-08-12T13:45:15Z</time>
      </trkpt>
      <trkpt lat="43.82686" lon="5.06223">
        <ele>79.2</ele>
        <time>2021-08-12T13:45:23Z</time>
      </trkpt>
      <trkpt lat="43.82694" lon="5.06206">
        <ele>79.4</ele>
        <time>2021-08-12T13:45:25Z</time>
      </trkpt>
      <trkpt lat="43.82707" lon="5.06184">
        <ele>79.6</ele>
        <time>2021-08-12T13:45:28Z</time>
      </trkpt>
      <trkpt lat="43.82709" lon="5.06168">
        <ele>79.6</ele>
        <time>2021-08-12T13:45:30Z</time>
      </trkpt>
      <trkpt lat="43.82701" lon="5.06155">
        <ele>79.4</ele>
        <time>2021-08-12T13:45:32Z</time>
      </trkpt>
      <trkpt lat="43.82665" lon="5.06137">
        <ele>78.8</ele>
        <time>2021-08-12T13:45:38Z</time>
      </trkpt>
      <trkpt lat="43.82656" lon="5.06126">
        <ele>78.4</ele>
        <time>2021-08-12T13:45:40Z</time>
      </trkpt>
      <trkpt lat="43.8262" lon="5.06066">
        <ele>77.6</ele>
        <time>2021-08-12T13:45:49Z</time>
      </trkpt>
      <trkpt lat="43.82606" lon="5.06037">
        <ele>77.4</ele>
        <time>2021-08-12T13:45:53Z</time>
      </trkpt>
      <trkpt lat="43.82583" lon="5.05968">
        <ele>76.8</ele>
        <time>2021-08-12T13:46:02Z</time>
      </trkpt>
      <trkpt lat="43.82582" lon="5.05959">
        <ele>76.8</ele>
        <time>2021-08-12T13:46:03Z</time>
      </trkpt>
      <trkpt lat="43.82584" lon="5.05942">
        <ele>77</ele>
        <time>2021-08-12T13:46:05Z</time>
      </trkpt>
      <trkpt lat="43.82592" lon="5.05918">
        <ele>77.4</ele>
        <time>2021-08-12T13:46:08Z</time>
      </trkpt>
      <trkpt lat="43.82636" lon="5.05862">
        <ele>77.8</ele>
        <time>2021-08-12T13:46:17Z</time>
      </trkpt>
      <trkpt lat="43.82673" lon="5.05832">
        <ele>77.6</ele>
        <time>2021-08-12T13:46:24Z</time>
      </trkpt>
      <trkpt lat="43.8269" lon="5.05803">
        <ele>77.4</ele>
        <time>2021-08-12T13:46:29Z</time>
      </trkpt>
      <trkpt lat="43.8269" lon="5.05791">
        <ele>77.4</ele>
        <time>2021-08-12T13:46:31Z</time>
      </trkpt>
      <trkpt lat="43.82686" lon="5.05763">
        <ele>77.4</ele>
        <time>2021-08-12T13:46:35Z</time>
      </trkpt>
      <trkpt lat="43.82668" lon="5.05692">
        <ele>77.8</ele>
        <time>2021-08-12T13:46:45Z</time>
      </trkpt>
      <trkpt lat="43.82648" lon="5.05621">
        <ele>76.4</ele>
        <time>2021-08-12T13:46:54Z</time>
      </trkpt>
      <trkpt lat="43.82646" lon="5.05613">
        <ele>76.4</ele>
        <time>2021-08-12T13:46:55Z</time>
      </trkpt>
      <trkpt lat="43.82627" lon="5.05536">
        <ele>76.2</ele>
        <time>2021-08-12T13:47:05Z</time>
      </trkpt>
      <trkpt lat="43.82608" lon="5.0546">
        <ele>76.8</ele>
        <time>2021-08-12T13:47:15Z</time>
      </trkpt>
      <trkpt lat="43.82602" lon="5.05438">
        <ele>76.8</ele>
        <time>2021-08-12T13:47:18Z</time>
      </trkpt>
      <trkpt lat="43.82597" lon="5.05425">
        <ele>76.8</ele>
        <time>2021-08-12T13:47:20Z</time>
      </trkpt>
      <trkpt lat="43.8259" lon="5.05414">
        <ele>76.6</ele>
        <time>2021-08-12T13:47:22Z</time>
      </trkpt>
      <trkpt lat="43.82581" lon="5.05406">
        <ele>76.2</ele>
        <time>2021-08-12T13:47:24Z</time>
      </trkpt>
      <trkpt lat="43.82571" lon="5.05402">
        <ele>76.2</ele>
        <time>2021-08-12T13:47:26Z</time>
      </trkpt>
      <trkpt lat="43.82537" lon="5.05399">
        <ele>77</ele>
        <time>2021-08-12T13:47:33Z</time>
      </trkpt>
      <trkpt lat="43.82528" lon="5.05394">
        <ele>77.2</ele>
        <time>2021-08-12T13:47:35Z</time>
      </trkpt>
      <trkpt lat="43.82524" lon="5.05391">
        <ele>77.4</ele>
        <time>2021-08-12T13:47:36Z</time>
      </trkpt>
      <trkpt lat="43.82521" lon="5.05386">
        <ele>77.6</ele>
        <time>2021-08-12T13:47:37Z</time>
      </trkpt>
      <trkpt lat="43.82517" lon="5.05376">
        <ele>77.8</ele>
        <time>2021-08-12T13:47:39Z</time>
      </trkpt>
      <trkpt lat="43.82514" lon="5.05356">
        <ele>77.6</ele>
        <time>2021-08-12T13:47:42Z</time>
      </trkpt>
      <trkpt lat="43.82519" lon="5.05342">
        <ele>77.6</ele>
        <time>2021-08-12T13:47:44Z</time>
      </trkpt>
      <trkpt lat="43.82528" lon="5.05333">
        <ele>77.6</ele>
        <time>2021-08-12T13:47:46Z</time>
      </trkpt>
      <trkpt lat="43.82562" lon="5.05306">
        <ele>78.2</ele>
        <time>2021-08-12T13:47:53Z</time>
      </trkpt>
      <trkpt lat="43.82614" lon="5.05272">
        <ele>77.6</ele>
        <time>2021-08-12T13:48:02Z</time>
      </trkpt>
      <trkpt lat="43.82645" lon="5.05245">
        <ele>76.8</ele>
        <time>2021-08-12T13:48:08Z</time>
      </trkpt>
      <trkpt lat="43.82664" lon="5.05215">
        <ele>77.2</ele>
        <time>2021-08-12T13:48:13Z</time>
      </trkpt>
      <trkpt lat="43.82682" lon="5.05166">
        <ele>77.4</ele>
        <time>2021-08-12T13:48:20Z</time>
      </trkpt>
      <trkpt lat="43.82687" lon="5.0515">
        <ele>77.4</ele>
        <time>2021-08-12T13:48:22Z</time>
      </trkpt>
      <trkpt lat="43.82703" lon="5.0508">
        <ele>77.4</ele>
        <time>2021-08-12T13:48:31Z</time>
      </trkpt>
      <trkpt lat="43.82715" lon="5.04999">
        <ele>77</ele>
        <time>2021-08-12T13:48:41Z</time>
      </trkpt>
      <trkpt lat="43.82724" lon="5.04933">
        <ele>76.6</ele>
        <time>2021-08-12T13:48:50Z</time>
      </trkpt>
      <trkpt lat="43.82725" lon="5.04926">
        <ele>76.4</ele>
        <time>2021-08-12T13:48:51Z</time>
      </trkpt>
      <trkpt lat="43.82726" lon="5.04918">
        <ele>76.2</ele>
        <time>2021-08-12T13:48:52Z</time>
      </trkpt>
      <trkpt lat="43.82725" lon="5.04858">
        <ele>76.6</ele>
        <time>2021-08-12T13:49:00Z</time>
      </trkpt>
      <trkpt lat="43.82722" lon="5.04777">
        <ele>76.2</ele>
        <time>2021-08-12T13:49:10Z</time>
      </trkpt>
      <trkpt lat="43.82717" lon="5.04709">
        <ele>76.4</ele>
        <time>2021-08-12T13:49:19Z</time>
      </trkpt>
      <trkpt lat="43.82718" lon="5.04696">
        <ele>76.8</ele>
        <time>2021-08-12T13:49:21Z</time>
      </trkpt>
      <trkpt lat="43.82727" lon="5.0467">
        <ele>75</ele>
        <time>2021-08-12T13:49:25Z</time>
      </trkpt>
      <trkpt lat="43.82733" lon="5.04659">
        <ele>74.4</ele>
        <time>2021-08-12T13:49:27Z</time>
      </trkpt>
      <trkpt lat="43.82752" lon="5.04611">
        <ele>74.8</ele>
        <time>2021-08-12T13:49:35Z</time>
      </trkpt>
      <trkpt lat="43.82761" lon="5.04608">
        <ele>74.8</ele>
        <time>2021-08-12T13:49:37Z</time>
      </trkpt>
      <trkpt lat="43.82777" lon="5.04599">
        <ele>75</ele>
        <time>2021-08-12T13:49:41Z</time>
      </trkpt>
      <trkpt lat="43.82804" lon="5.04591">
        <ele>75.2</ele>
        <time>2021-08-12T13:49:48Z</time>
      </trkpt>
      <trkpt lat="43.82808" lon="5.04568">
        <ele>74.4</ele>
        <time>2021-08-12T13:49:53Z</time>
      </trkpt>
      <trkpt lat="43.828" lon="5.04558">
        <ele>74</ele>
        <time>2021-08-12T13:49:55Z</time>
      </trkpt>
      <trkpt lat="43.8276" lon="5.04504">
        <ele>74.8</ele>
        <time>2021-08-12T13:50:08Z</time>
      </trkpt>
      <trkpt lat="43.82726" lon="5.04448">
        <ele>74.2</ele>
        <time>2021-08-12T13:50:21Z</time>
      </trkpt>
      <trkpt lat="43.82771" lon="5.04408">
        <ele>74.4</ele>
        <time>2021-08-12T13:50:37Z</time>
      </trkpt>
      <trkpt lat="43.82785" lon="5.04397">
        <ele>74.2</ele>
        <time>2021-08-12T13:50:41Z</time>
      </trkpt>
      <trkpt lat="43.82812" lon="5.04379">
        <ele>74.2</ele>
        <time>2021-08-12T13:50:48Z</time>
      </trkpt>
      <trkpt lat="43.82832" lon="5.04364">
        <ele>74.2</ele>
        <time>2021-08-12T13:50:53Z</time>
      </trkpt>
      <trkpt lat="43.82837" lon="5.04352">
        <ele>74.2</ele>
        <time>2021-08-12T13:50:55Z</time>
      </trkpt>
      <trkpt lat="43.82832" lon="5.0433">
        <ele>74</ele>
        <time>2021-08-12T13:51:01Z</time>
      </trkpt>
      <trkpt lat="43.82836" lon="5.04324">
        <ele>74.2</ele>
        <time>2021-08-12T13:51:14Z</time>
      </trkpt>
      <trkpt lat="43.82833" lon="5.0433">
        <ele>74.4</ele>
        <time>2021-08-12T13:51:17Z</time>
      </trkpt>
      <trkpt lat="43.82826" lon="5.04336">
        <ele>74.8</ele>
        <time>2021-08-12T13:51:30Z</time>
      </trkpt>
      <trkpt lat="43.82825" lon="5.0434">
        <ele>74.8</ele>
        <time>2021-08-12T13:51:32Z</time>
      </trkpt>
      <trkpt lat="43.82768" lon="5.04343">
        <ele>74.6</ele>
        <time>2021-08-12T13:51:48Z</time>
      </trkpt>
      <trkpt lat="43.8274" lon="5.04341">
        <ele>74.6</ele>
        <time>2021-08-12T13:51:54Z</time>
      </trkpt>
      <trkpt lat="43.82731" lon="5.04339">
        <ele>74.4</ele>
        <time>2021-08-12T13:51:56Z</time>
      </trkpt>
      <trkpt lat="43.82719" lon="5.04337">
        <ele>74.4</ele>
        <time>2021-08-12T13:51:59Z</time>
      </trkpt>
      <trkpt lat="43.82714" lon="5.04286">
        <ele>74.4</ele>
        <time>2021-08-12T13:52:08Z</time>
      </trkpt>
      <trkpt lat="43.82714" lon="5.04274">
        <ele>74.4</ele>
        <time>2021-08-12T13:52:10Z</time>
      </trkpt>
      <trkpt lat="43.82713" lon="5.04248">
        <ele>74</ele>
        <time>2021-08-12T13:52:14Z</time>
      </trkpt>
      <trkpt lat="43.8271" lon="5.04185">
        <ele>74</ele>
        <time>2021-08-12T13:52:23Z</time>
      </trkpt>
      <trkpt lat="43.82709" lon="5.04103">
        <ele>73.6</ele>
        <time>2021-08-12T13:52:34Z</time>
      </trkpt>
      <trkpt lat="43.82707" lon="5.04022">
        <ele>73.4</ele>
        <time>2021-08-12T13:52:45Z</time>
      </trkpt>
      <trkpt lat="43.82707" lon="5.0401">
        <ele>73.4</ele>
        <time>2021-08-12T13:52:47Z</time>
      </trkpt>
      <trkpt lat="43.82711" lon="5.03999">
        <ele>73.2</ele>
        <time>2021-08-12T13:52:49Z</time>
      </trkpt>
      <trkpt lat="43.82719" lon="5.03995">
        <ele>73.2</ele>
        <time>2021-08-12T13:52:51Z</time>
      </trkpt>
      <trkpt lat="43.82735" lon="5.03986">
        <ele>73</ele>
        <time>2021-08-12T13:52:55Z</time>
      </trkpt>
      <trkpt lat="43.82741" lon="5.03975">
        <ele>73</ele>
        <time>2021-08-12T13:52:57Z</time>
      </trkpt>
      <trkpt lat="43.82742" lon="5.03969">
        <ele>73</ele>
        <time>2021-08-12T13:52:58Z</time>
      </trkpt>
      <trkpt lat="43.82743" lon="5.03962">
        <ele>72.8</ele>
        <time>2021-08-12T13:52:59Z</time>
      </trkpt>
      <trkpt lat="43.82744" lon="5.03896">
        <ele>72.6</ele>
        <time>2021-08-12T13:53:09Z</time>
      </trkpt>
      <trkpt lat="43.82744" lon="5.03851">
        <ele>73.2</ele>
        <time>2021-08-12T13:53:17Z</time>
      </trkpt>
      <trkpt lat="43.82739" lon="5.03773">
        <ele>73.4</ele>
        <time>2021-08-12T13:53:30Z</time>
      </trkpt>
      <trkpt lat="43.82742" lon="5.03762">
        <ele>73.4</ele>
        <time>2021-08-12T13:53:32Z</time>
      </trkpt>
      <trkpt lat="43.82789" lon="5.03726">
        <ele>73</ele>
        <time>2021-08-12T13:53:44Z</time>
      </trkpt>
      <trkpt lat="43.82839" lon="5.03696">
        <ele>73</ele>
        <time>2021-08-12T13:53:54Z</time>
      </trkpt>
      <trkpt lat="43.82872" lon="5.03678">
        <ele>73.4</ele>
        <time>2021-08-12T13:54:01Z</time>
      </trkpt>
      <trkpt lat="43.8291" lon="5.03654">
        <ele>73.4</ele>
        <time>2021-08-12T13:54:09Z</time>
      </trkpt>
      <trkpt lat="43.82943" lon="5.03624">
        <ele>73.4</ele>
        <time>2021-08-12T13:54:17Z</time>
      </trkpt>
      <trkpt lat="43.82954" lon="5.0361">
        <ele>74</ele>
        <time>2021-08-12T13:54:21Z</time>
      </trkpt>
      <trkpt lat="43.82954" lon="5.03605">
        <ele>74.2</ele>
        <time>2021-08-12T13:54:22Z</time>
      </trkpt>
      <trkpt lat="43.82952" lon="5.036">
        <ele>74.4</ele>
        <time>2021-08-12T13:54:23Z</time>
      </trkpt>
      <trkpt lat="43.82935" lon="5.03567">
        <ele>74.4</ele>
        <time>2021-08-12T13:54:30Z</time>
      </trkpt>
      <trkpt lat="43.82934" lon="5.03555">
        <ele>74.4</ele>
        <time>2021-08-12T13:54:32Z</time>
      </trkpt>
      <trkpt lat="43.82935" lon="5.03542">
        <ele>74.4</ele>
        <time>2021-08-12T13:54:34Z</time>
      </trkpt>
      <trkpt lat="43.82933" lon="5.0353">
        <ele>74.4</ele>
        <time>2021-08-12T13:54:36Z</time>
      </trkpt>
      <trkpt lat="43.82928" lon="5.03522">
        <ele>74.4</ele>
        <time>2021-08-12T13:54:38Z</time>
      </trkpt>
      <trkpt lat="43.82912" lon="5.03483">
        <ele>74.2</ele>
        <time>2021-08-12T13:54:47Z</time>
      </trkpt>
      <trkpt lat="43.82915" lon="5.03474">
        <ele>74.2</ele>
        <time>2021-08-12T13:54:49Z</time>
      </trkpt>
      <trkpt lat="43.82941" lon="5.0345">
        <ele>73.2</ele>
        <time>2021-08-12T13:54:55Z</time>
      </trkpt>
      <trkpt lat="43.8295" lon="5.03441">
        <ele>72.6</ele>
        <time>2021-08-12T13:54:57Z</time>
      </trkpt>
      <trkpt lat="43.82973" lon="5.0342">
        <ele>72</ele>
        <time>2021-08-12T13:55:02Z</time>
      </trkpt>
      <trkpt lat="43.82986" lon="5.03406">
        <ele>71.8</ele>
        <time>2021-08-12T13:55:05Z</time>
      </trkpt>
      <trkpt lat="43.83034" lon="5.03368">
        <ele>72</ele>
        <time>2021-08-12T13:55:15Z</time>
      </trkpt>
      <trkpt lat="43.83081" lon="5.0333">
        <ele>71.8</ele>
        <time>2021-08-12T13:55:25Z</time>
      </trkpt>
      <trkpt lat="43.83125" lon="5.03296">
        <ele>72</ele>
        <time>2021-08-12T13:55:36Z</time>
      </trkpt>
      <trkpt lat="43.83127" lon="5.03298">
        <ele>72.2</ele>
        <time>2021-08-12T13:55:38Z</time>
      </trkpt>
    </trkseg>
  </trk>
</gpx>